Darstellungsparameter: Aktuell verwendete Einstellungen:
Skalierung der Graphiken ... ?
xyx+y,   Skalierungsfaktor:      Skalierung: Modus: x, Faktor: 1
Darstellungszeitraum ... ?
Vom - - bis: - -   Zeitraum: 24.04.2015 - 23.05.2015
Min/Max/Avg-Anzeige ... ?
Zeige MMA aktuell
Zeige MMA Monat
Zeige MMA alles
Zeige --A aktuell
Zeige --A Monat
Zeige --A alles
Keine MMA-Anzeige
MMA:
Average (ber die Originaldaten)
MMA-Basis: 24.04.2015 - 23.05.2015
Quicknavigation für Darstellung... ?
Tage:      1T, 2T, 3T, 5T -1T -2T -3T -5T +1T +2T +3T +5T
Wochen: 1W, 2W, 3W -1W -2W -3W +1W +2W +3W
Monate: 1M, 3M, 6M -1M -3M -6M +1M +3M +6M
Jahre:    1J, 3J, 5J, 10J -1J -3J -5J -10J +1J +3J +5J +10J
Nutze für die Darstellung ... ?
Originaldaten oder Mittelwerte auf ...
Stundenbasis Tagesbasis Wochenbasis
Monatsbasis Jahresbasis      Datenbasis: Original-Daten
Darstellen als:
Statistik (Auto) Statistik J:M      Darstellung:
Zur Graphik,    zurück zur Übersicht aller Sensoren.
 
Tabellarische Datenbersicht: ?
 
Sensor: Nr:Datum:Temp:Abs-Feuchte:Windchill:Wind:
Aussen-T/F 1 24-04-2015 00:00:00 8.6 C 6.79 g/m*3 8.6 C 0 km/h
2 24-04-2015 00:05:00 8.6 C 6.79 g/m*3 8.6 C 0 km/h
3 24-04-2015 00:10:00 8.5 C 6.74 g/m*3 8.5 C 0 km/h
4 24-04-2015 00:15:00 8.4 C 6.79 g/m*3 8.4 C 0 km/h
5 24-04-2015 00:20:00 8.4 C 6.79 g/m*3 8.4 C 0 km/h
6 24-04-2015 00:25:00 8.3 C 6.74 g/m*3 8.3 C 0 km/h
7 24-04-2015 00:30:00 8.3 C 6.74 g/m*3 8.3 C 1.6 km/h
8 24-04-2015 00:35:00 8.2 C 6.78 g/m*3 8.2 C 0 km/h
9 24-04-2015 00:40:00 8.2 C 6.87 g/m*3 8.2 C 0 km/h
10 24-04-2015 00:45:00 8.2 C 6.78 g/m*3 8.2 C 0 km/h
11 24-04-2015 00:50:00 8.2 C 6.78 g/m*3 8.2 C 0 km/h
12 24-04-2015 00:55:00 8.1 C 6.66 g/m*3 8.1 C 0 km/h
13 24-04-2015 01:00:00 8 C 6.7 g/m*3 8 C 0 km/h
14 24-04-2015 01:05:00 7.9 C 6.65 g/m*3 7.9 C 0 km/h
15 24-04-2015 01:10:00 7.7 C 6.57 g/m*3 7.7 C 1.6 km/h
16 24-04-2015 01:15:00 7.6 C 6.61 g/m*3 7.6 C 0 km/h
17 24-04-2015 01:20:00 7.5 C 6.56 g/m*3 7.5 C 0 km/h
18 24-04-2015 01:25:00 7.4 C 6.52 g/m*3 7.4 C 0 km/h
19 24-04-2015 01:30:00 7.3 C 6.56 g/m*3 7.3 C 0 km/h
20 24-04-2015 01:35:00 7.2 C 6.52 g/m*3 7.2 C 0 km/h
21 24-04-2015 01:40:00 7.2 C 6.52 g/m*3 7.2 C 0 km/h
22 24-04-2015 01:45:00 7.2 C 6.59 g/m*3 7.2 C 0 km/h
23 24-04-2015 01:50:00 7.1 C 6.55 g/m*3 7.1 C 0 km/h
24 24-04-2015 01:55:00 7.1 C 6.47 g/m*3 7.1 C 0 km/h
25 24-04-2015 02:00:00 7.1 C 6.55 g/m*3 7.1 C 0 km/h
Sensor: Nr:Datum:Temp:Abs-Feuchte:Windchill:Wind:
Aussen-T/F 26 24-04-2015 02:05:00 6.9 C 6.47 g/m*3 6.9 C 0 km/h
27 24-04-2015 02:10:00 6.9 C 6.47 g/m*3 6.9 C 0 km/h
28 24-04-2015 02:15:00 6.8 C 6.42 g/m*3 6.8 C 0 km/h
29 24-04-2015 02:20:00 6.8 C 6.5 g/m*3 6.8 C 0 km/h
30 24-04-2015 02:25:00 6.8 C 6.5 g/m*3 6.8 C 0 km/h
31 24-04-2015 02:30:00 6.7 C 6.46 g/m*3 6.7 C 0 km/h
32 24-04-2015 02:35:00 6.6 C 6.49 g/m*3 6.6 C 0 km/h
33 24-04-2015 02:40:00 6.5 C 6.45 g/m*3 6.5 C 0 km/h
34 24-04-2015 02:45:00 6.4 C 6.41 g/m*3 6.4 C 0 km/h
35 24-04-2015 02:50:00 6.4 C 6.41 g/m*3 6.4 C 0 km/h
36 24-04-2015 02:55:00 6.3 C 6.44 g/m*3 6.3 C 0 km/h
37 24-04-2015 03:00:00 6.3 C 6.44 g/m*3 6.3 C 0 km/h
38 24-04-2015 03:05:00 6.3 C 6.44 g/m*3 6.3 C 0 km/h
39 24-04-2015 03:10:00 6.2 C 6.4 g/m*3 6.2 C 3.2 km/h
40 24-04-2015 03:15:00 6.3 C 6.44 g/m*3 6.3 C 1.6 km/h
41 24-04-2015 03:20:00 6.2 C 6.4 g/m*3 6.2 C 0 km/h
42 24-04-2015 03:25:00 6.2 C 6.4 g/m*3 6.2 C 1.6 km/h
43 24-04-2015 03:30:00 6.2 C 6.4 g/m*3 6.2 C 1.6 km/h
44 24-04-2015 03:35:00 6.2 C 6.4 g/m*3 6.2 C 0 km/h
45 24-04-2015 03:40:00 6 C 6.31 g/m*3 6 C 0 km/h
46 24-04-2015 03:45:00 5.9 C 6.35 g/m*3 5.9 C 0 km/h
47 24-04-2015 03:50:00 5.8 C 6.3 g/m*3 5.8 C 0 km/h
48 24-04-2015 03:55:00 5.7 C 6.33 g/m*3 5.7 C 0 km/h
49 24-04-2015 04:00:00 5.7 C 6.26 g/m*3 5.7 C 0 km/h
50 24-04-2015 04:05:00 5.6 C 6.22 g/m*3 5.6 C 0 km/h
Sensor: Nr:Datum:Temp:Abs-Feuchte:Windchill:Wind:
Aussen-T/F 51 24-04-2015 04:10:00 5.6 C 6.22 g/m*3 5.6 C 0 km/h
52 24-04-2015 04:15:00 5.5 C 6.25 g/m*3 5.5 C 0 km/h
53 24-04-2015 04:20:00 5.4 C 6.21 g/m*3 5.4 C 0 km/h
54 24-04-2015 04:25:00 5.3 C 6.17 g/m*3 5.3 C 0 km/h
55 24-04-2015 04:30:00 5.3 C 6.24 g/m*3 5.3 C 0 km/h
56 24-04-2015 04:35:00 5.3 C 6.24 g/m*3 5.3 C 0 km/h
57 24-04-2015 04:40:00 5.2 C 6.2 g/m*3 5.2 C 0 km/h
58 24-04-2015 04:45:00 5.1 C 6.16 g/m*3 5.1 C 0 km/h
59 24-04-2015 04:50:00 5.1 C 6.16 g/m*3 5.1 C 0 km/h
60 24-04-2015 04:55:00 5.1 C 6.22 g/m*3 5.1 C 0 km/h
61 24-04-2015 05:00:00 4.9 C 6.08 g/m*3 4.9 C 0 km/h
62 24-04-2015 05:05:00 4.9 C 6.14 g/m*3 4.9 C 0 km/h
63 24-04-2015 05:10:00 4.9 C 6.14 g/m*3 4.9 C 0 km/h
64 24-04-2015 05:15:00 4.8 C 6.1 g/m*3 4.8 C 0 km/h
65 24-04-2015 05:20:00 4.8 C 6.1 g/m*3 4.8 C 0 km/h
66 24-04-2015 05:25:00 4.7 C 6.06 g/m*3 4.7 C 0 km/h
67 24-04-2015 05:30:00 4.7 C 6.06 g/m*3 4.7 C 0 km/h
68 24-04-2015 05:35:00 4.7 C 6.06 g/m*3 4.7 C 0 km/h
69 24-04-2015 05:40:00 4.6 C 6.02 g/m*3 4.6 C 0 km/h
70 24-04-2015 05:45:00 4.6 C 6.09 g/m*3 4.6 C 0 km/h
71 24-04-2015 05:50:00 4.6 C 6.09 g/m*3 4.6 C 0 km/h
72 24-04-2015 05:55:00 4.5 C 6.05 g/m*3 4.5 C 0 km/h
73 24-04-2015 06:00:00 4.4 C 6.01 g/m*3 4.4 C 0 km/h
74 24-04-2015 06:05:00 4.4 C 6.01 g/m*3 4.4 C 0 km/h
75 24-04-2015 06:10:00 4.3 C 5.97 g/m*3 4.3 C 0 km/h
Sensor: Nr:Datum:Temp:Abs-Feuchte:Windchill:Wind:
Aussen-T/F 76 24-04-2015 06:15:00 4.3 C 5.97 g/m*3 4.3 C 0 km/h
77 24-04-2015 06:20:00 4.3 C 5.97 g/m*3 4.3 C 0 km/h
78 24-04-2015 06:25:00 4.2 C 5.93 g/m*3 4.2 C 1.6 km/h
79 24-04-2015 06:30:00 4.2 C 5.93 g/m*3 4.2 C 0 km/h
80 24-04-2015 06:35:00 4.2 C 5.93 g/m*3 4.2 C 0 km/h
81 24-04-2015 06:40:00 4.2 C 5.99 g/m*3 4.2 C 0 km/h
82 24-04-2015 06:45:00 4.2 C 5.93 g/m*3 4.2 C 0 km/h
83 24-04-2015 06:50:00 4.2 C 5.99 g/m*3 4.2 C 0 km/h
84 24-04-2015 06:55:00 4.2 C 5.99 g/m*3 4.2 C 0 km/h
85 24-04-2015 07:00:00 4.2 C 5.99 g/m*3 4.2 C 0 km/h
86 24-04-2015 07:05:00 4.2 C 5.99 g/m*3 4.2 C 1.6 km/h
87 24-04-2015 07:10:00 4.3 C 6.03 g/m*3 4.3 C 0 km/h
88 24-04-2015 07:15:00 4.4 C 6.07 g/m*3 4.4 C 0 km/h
89 24-04-2015 07:20:00 4.4 C 6.07 g/m*3 4.4 C 1.6 km/h
90 24-04-2015 07:25:00 4.4 C 6.07 g/m*3 4.4 C 0 km/h
91 24-04-2015 07:30:00 4.4 C 6.07 g/m*3 4.4 C 0 km/h
92 24-04-2015 07:35:00 4.4 C 6.07 g/m*3 4.4 C 0 km/h
93 24-04-2015 07:40:00 4.5 C 6.11 g/m*3 4.5 C 0 km/h
94 24-04-2015 07:45:00 4.6 C 6.15 g/m*3 4.6 C 0 km/h
95 24-04-2015 07:50:00 4.7 C 6.19 g/m*3 4.7 C 0 km/h
96 24-04-2015 07:55:00 4.7 C 6.19 g/m*3 4.7 C 0 km/h
97 24-04-2015 08:00:00 4.8 C 6.3 g/m*3 4.8 C 0 km/h
98 24-04-2015 08:05:00 4.9 C 6.35 g/m*3 4.9 C 1.6 km/h
99 24-04-2015 08:10:00 5.1 C 6.36 g/m*3 5.1 C 0 km/h
100 24-04-2015 08:15:00 5.2 C 6.4 g/m*3 5.2 C 0 km/h
Sensor: Nr:Datum:Temp:Abs-Feuchte:Windchill:Wind:
Aussen-T/F 101 24-04-2015 08:20:00 5.4 C 6.42 g/m*3 5.4 C 0 km/h
102 24-04-2015 08:25:00 5.4 C 6.42 g/m*3 5.4 C 0 km/h
103 24-04-2015 08:30:00 5.6 C 6.5 g/m*3 5.6 C 0 km/h
104 24-04-2015 08:35:00 5.7 C 6.55 g/m*3 5.7 C 0 km/h
105 24-04-2015 08:40:00 5.8 C 6.59 g/m*3 5.8 C 0 km/h
106 24-04-2015 08:45:00 6 C 6.6 g/m*3 6 C 0 km/h
107 24-04-2015 08:50:00 6.2 C 6.69 g/m*3 6.2 C 0 km/h
108 24-04-2015 08:55:00 6.3 C 6.74 g/m*3 6.3 C 0 km/h
109 24-04-2015 09:00:00 6.6 C 6.79 g/m*3 6.6 C 0 km/h
110 24-04-2015 09:05:00 6.8 C 6.88 g/m*3 6.8 C 0 km/h
111 24-04-2015 09:10:00 7.1 C 6.94 g/m*3 7.1 C 0 km/h
112 24-04-2015 09:15:00 7.4 C 6.92 g/m*3 7.4 C 0 km/h
113 24-04-2015 09:20:00 7.7 C 6.97 g/m*3 7.7 C 1.6 km/h
114 24-04-2015 09:25:00 7.9 C 7.06 g/m*3 7.9 C 0 km/h
115 24-04-2015 09:30:00 8.1 C 7.16 g/m*3 8.1 C 1.6 km/h
116 24-04-2015 09:35:00 8.3 C 7.25 g/m*3 8.3 C 0 km/h
117 24-04-2015 09:40:00 8.5 C 7.34 g/m*3 8.5 C 0 km/h
118 24-04-2015 09:45:00 8.7 C 7.44 g/m*3 8.7 C 1.6 km/h
119 24-04-2015 09:50:00 8.9 C 7.36 g/m*3 8.9 C 0 km/h
120 24-04-2015 09:55:00 9.2 C 7.5 g/m*3 9.2 C 0 km/h
121 24-04-2015 10:00:00 9.4 C 7.51 g/m*3 9.4 C 0 km/h
122 24-04-2015 10:05:00 9.7 C 7.65 g/m*3 9.7 C 0 km/h
123 24-04-2015 10:10:00 9.9 C 7.56 g/m*3 9.9 C 0 km/h
124 24-04-2015 10:15:00 10.2 C 7.71 g/m*3 10.2 C 0 km/h
125 24-04-2015 10:20:00 10.3 C 7.76 g/m*3 10.3 C 0 km/h
Sensor: Nr:Datum:Temp:Abs-Feuchte:Windchill:Wind:
Aussen-T/F 126 24-04-2015 10:25:00 10.5 C 7.76 g/m*3 10.5 C 0 km/h
127 24-04-2015 10:30:00 10.7 C 7.96 g/m*3 10.7 C 0 km/h
128 24-04-2015 10:35:00 11.1 C 8.16 g/m*3 11.1 C 0 km/h
129 24-04-2015 10:40:00 11.3 C 8.16 g/m*3 11.3 C 0 km/h
130 24-04-2015 10:45:00 11.5 C 8.26 g/m*3 11.5 C 0 km/h
131 24-04-2015 10:50:00 11.7 C 8.37 g/m*3 11.7 C 0 km/h
132 24-04-2015 10:55:00 12.1 C 8.36 g/m*3 12.1 C 1.6 km/h
133 24-04-2015 11:00:00 12.5 C 8.47 g/m*3 12.5 C 3.2 km/h
134 24-04-2015 11:05:00 13 C 8.51 g/m*3 13 C 0 km/h
135 24-04-2015 11:10:00 13.6 C 8.12 g/m*3 13.6 C 4.8 km/h
136 24-04-2015 11:15:00 14.3 C 8.48 g/m*3 14.3 C 4.8 km/h
137 24-04-2015 11:20:00 14.8 C 8.11 g/m*3 14.8 C 4.8 km/h
138 24-04-2015 11:25:00 15.7 C 7.76 g/m*3 15.7 C 6.4 km/h
139 24-04-2015 11:30:00 16.3 C 7.63 g/m*3 16.3 C 8.1 km/h
140 24-04-2015 11:35:00 16.9 C 7.48 g/m*3 16.9 C 11.3 km/h
141 24-04-2015 11:40:00 17.3 C 7.37 g/m*3 17.3 C 14.5 km/h
142 24-04-2015 11:45:00 17.4 C 7.26 g/m*3 17.4 C 14.5 km/h
143 24-04-2015 11:50:00 17.6 C 7.2 g/m*3 17.6 C 9.7 km/h
144 24-04-2015 11:55:00 17.8 C 7.29 g/m*3 17.8 C 14.5 km/h
145 24-04-2015 12:00:00 17.8 C 7.29 g/m*3 17.8 C 11.3 km/h
146 24-04-2015 12:05:00 18 C 7.07 g/m*3 18 C 9.7 km/h
147 24-04-2015 12:10:00 18.2 C 6.99 g/m*3 18.2 C 11.3 km/h
148 24-04-2015 12:15:00 18.4 C 7.08 g/m*3 18.4 C 12.9 km/h
149 24-04-2015 12:20:00 18.8 C 6.76 g/m*3 18.8 C 16.1 km/h
150 24-04-2015 12:25:00 19 C 6.84 g/m*3 19 C 12.9 km/h
Sensor: Nr:Datum:Temp:Abs-Feuchte:Windchill:Wind:
Aussen-T/F 151 24-04-2015 12:30:00 19.2 C 7.09 g/m*3 19.2 C 16.1 km/h
152 24-04-2015 12:35:00 19.5 C 6.71 g/m*3 19.5 C 24.1 km/h
153 24-04-2015 12:40:00 19.7 C 6.79 g/m*3 19.7 C 24.1 km/h
154 24-04-2015 12:45:00 19.9 C 6.53 g/m*3 19.9 C 16.1 km/h
155 24-04-2015 12:50:00 20.2 C 6.64 g/m*3 20.2 C 9.7 km/h
156 24-04-2015 12:55:00 20.4 C 6.55 g/m*3 20.4 C 12.9 km/h
157 24-04-2015 13:00:00 20.6 C 6.44 g/m*3 20.6 C 14.5 km/h
158 24-04-2015 13:05:00 20.7 C 6.3 g/m*3 20.7 C 20.9 km/h
159 24-04-2015 13:10:00 20.8 C 6.34 g/m*3 20.8 C 12.9 km/h
160 24-04-2015 13:15:00 20.9 C 6.37 g/m*3 20.9 C 14.5 km/h
161 24-04-2015 13:20:00 20.9 C 6.37 g/m*3 20.9 C 12.9 km/h
162 24-04-2015 13:25:00 21.1 C 6.08 g/m*3 21.1 C 12.9 km/h
163 24-04-2015 13:30:00 21.3 C 6.34 g/m*3 21.3 C 11.3 km/h
164 24-04-2015 13:35:00 21.4 C 6 g/m*3 21.4 C 16.1 km/h
165 24-04-2015 13:40:00 21.6 C 6.07 g/m*3 21.6 C 12.9 km/h
166 24-04-2015 13:45:00 21.8 C 6.14 g/m*3 21.8 C 9.7 km/h
167 24-04-2015 13:50:00 21.9 C 6.18 g/m*3 21.9 C 9.7 km/h
168 24-04-2015 13:55:00 22 C 5.82 g/m*3 22 C 11.3 km/h
169 24-04-2015 14:00:00 22.1 C 6.25 g/m*3 22.1 C 9.7 km/h
170 24-04-2015 14:05:00 22.1 C 5.66 g/m*3 22.1 C 12.9 km/h
171 24-04-2015 14:10:00 22.1 C 5.66 g/m*3 22.1 C 14.5 km/h
172 24-04-2015 14:15:00 22.1 C 5.66 g/m*3 22.1 C 16.1 km/h
173 24-04-2015 14:20:00 22.2 C 5.5 g/m*3 22.2 C 16.1 km/h
174 24-04-2015 14:25:00 22.3 C 5.92 g/m*3 22.3 C 8.1 km/h
175 24-04-2015 14:30:00 22.5 C 5.79 g/m*3 22.5 C 11.3 km/h
Sensor: Nr:Datum:Temp:Abs-Feuchte:Windchill:Wind:
Aussen-T/F 176 24-04-2015 14:35:00 22.6 C 5.83 g/m*3 22.6 C 9.7 km/h
177 24-04-2015 14:40:00 22.7 C 5.46 g/m*3 22.7 C 12.9 km/h
178 24-04-2015 14:45:00 22.7 C 5.66 g/m*3 22.7 C 17.7 km/h
179 24-04-2015 14:50:00 22.7 C 5.66 g/m*3 22.7 C 14.5 km/h
180 24-04-2015 14:55:00 22.7 C 5.86 g/m*3 22.7 C 14.5 km/h
181 24-04-2015 15:00:00 22.7 C 5.66 g/m*3 22.7 C 14.5 km/h
182 24-04-2015 15:05:00 22.6 C 6.43 g/m*3 22.6 C 8.1 km/h
183 24-04-2015 15:10:00 22.8 C 6.1 g/m*3 22.8 C 11.3 km/h
184 24-04-2015 15:15:00 23.1 C 5.99 g/m*3 23.1 C 14.5 km/h
185 24-04-2015 15:20:00 23.2 C 6.03 g/m*3 23.2 C 19.3 km/h
186 24-04-2015 15:25:00 23.1 C 5.99 g/m*3 23.1 C 12.9 km/h
187 24-04-2015 15:30:00 23 C 6.37 g/m*3 23 C 11.3 km/h
188 24-04-2015 15:35:00 23.3 C 6.06 g/m*3 23.3 C 8.1 km/h
189 24-04-2015 15:40:00 23.4 C 6.1 g/m*3 23.4 C 6.4 km/h
190 24-04-2015 15:45:00 23.4 C 6.31 g/m*3 23.4 C 6.4 km/h
191 24-04-2015 15:50:00 23.5 C 5.71 g/m*3 23.5 C 20.9 km/h
192 24-04-2015 15:55:00 23.4 C 6.52 g/m*3 23.4 C 12.9 km/h
193 24-04-2015 16:00:00 23.7 C 7.49 g/m*3 23.7 C 9.7 km/h
194 24-04-2015 16:05:00 24 C 5.87 g/m*3 24 C 9.7 km/h
195 24-04-2015 16:10:00 24.3 C 5.75 g/m*3 24.3 C 14.5 km/h
196 24-04-2015 16:15:00 24.2 C 5.72 g/m*3 24.2 C 16.1 km/h
197 24-04-2015 16:20:00 24.2 C 5.72 g/m*3 24.2 C 14.5 km/h
198 24-04-2015 16:25:00 24.2 C 5.28 g/m*3 24.2 C 12.9 km/h
199 24-04-2015 16:30:00 24.2 C 5.5 g/m*3 24.2 C 12.9 km/h
200 24-04-2015 16:35:00 24.2 C 5.28 g/m*3 24.2 C 9.7 km/h
Sensor: Nr:Datum:Temp:Abs-Feuchte:Windchill:Wind:
Aussen-T/F 201 24-04-2015 16:40:00 24.4 C 5.56 g/m*3 24.4 C 12.9 km/h
202 24-04-2015 16:45:00 24.6 C 5.4 g/m*3 24.6 C 14.5 km/h
203 24-04-2015 16:50:00 24.4 C 6.01 g/m*3 24.4 C 12.9 km/h
204 24-04-2015 16:55:00 24.3 C 5.31 g/m*3 24.3 C 16.1 km/h
205 24-04-2015 17:00:00 24.2 C 5.5 g/m*3 24.2 C 12.9 km/h
206 24-04-2015 17:05:00 24.3 C 5.53 g/m*3 24.3 C 17.7 km/h
207 24-04-2015 17:10:00 24.2 C 5.5 g/m*3 24.2 C 6.4 km/h
208 24-04-2015 17:15:00 24.4 C 5.56 g/m*3 24.4 C 12.9 km/h
209 24-04-2015 17:20:00 24.4 C 5.34 g/m*3 24.4 C 14.5 km/h
210 24-04-2015 17:25:00 24.4 C 5.56 g/m*3 24.4 C 16.1 km/h
211 24-04-2015 17:30:00 24.4 C 5.34 g/m*3 24.4 C 12.9 km/h
212 24-04-2015 17:35:00 24.2 C 5.28 g/m*3 24.2 C 12.9 km/h
213 24-04-2015 17:40:00 24.1 C 5.47 g/m*3 24.1 C 14.5 km/h
214 24-04-2015 17:45:00 24 C 5.87 g/m*3 24 C 9.7 km/h
215 24-04-2015 17:50:00 24 C 5.44 g/m*3 24 C 11.3 km/h
216 24-04-2015 17:55:00 23.8 C 5.81 g/m*3 23.8 C 11.3 km/h
217 24-04-2015 18:00:00 23.8 C 5.81 g/m*3 23.8 C 12.9 km/h
218 24-04-2015 18:05:00 23.8 C 5.38 g/m*3 23.8 C 12.9 km/h
219 24-04-2015 18:10:00 23.8 C 5.81 g/m*3 23.8 C 12.9 km/h
220 24-04-2015 18:15:00 23.7 C 5.56 g/m*3 23.7 C 9.7 km/h
221 24-04-2015 18:20:00 23.6 C 5.53 g/m*3 23.6 C 9.7 km/h
222 24-04-2015 18:25:00 23.6 C 5.74 g/m*3 23.6 C 9.7 km/h
223 24-04-2015 18:30:00 23.7 C 5.56 g/m*3 23.7 C 9.7 km/h
224 24-04-2015 18:35:00 23.6 C 5.74 g/m*3 23.6 C 12.9 km/h
225 24-04-2015 18:40:00 23.6 C 5.53 g/m*3 23.6 C 6.4 km/h
Sensor: Nr:Datum:Temp:Abs-Feuchte:Windchill:Wind:
Aussen-T/F 226 24-04-2015 18:45:00 23.6 C 6.17 g/m*3 23.6 C 8.1 km/h
227 24-04-2015 18:50:00 23.5 C 5.92 g/m*3 23.5 C 4.8 km/h
228 24-04-2015 18:55:00 23.3 C 6.69 g/m*3 23.3 C 8.1 km/h
229 24-04-2015 19:00:00 23.1 C 6.61 g/m*3 23.1 C 4.8 km/h
230 24-04-2015 19:05:00 22.7 C 5.86 g/m*3 22.7 C 8.1 km/h
231 24-04-2015 19:10:00 22.4 C 5.96 g/m*3 22.4 C 6.4 km/h
232 24-04-2015 19:15:00 22.2 C 6.48 g/m*3 22.2 C 4.8 km/h
233 24-04-2015 19:20:00 21.8 C 7.29 g/m*3 21.8 C 3.2 km/h
234 24-04-2015 19:25:00 21.6 C 7.4 g/m*3 21.6 C 3.2 km/h
235 24-04-2015 19:30:00 21.4 C 7.12 g/m*3 21.4 C 6.4 km/h
236 24-04-2015 19:35:00 21.2 C 6.86 g/m*3 21.2 C 3.2 km/h
237 24-04-2015 19:40:00 20.9 C 7.47 g/m*3 20.9 C 1.6 km/h
238 24-04-2015 19:45:00 20.6 C 7.87 g/m*3 20.6 C 3.2 km/h
239 24-04-2015 19:50:00 20.3 C 7.56 g/m*3 20.3 C 1.6 km/h
240 24-04-2015 19:55:00 19.8 C 7.52 g/m*3 19.8 C 1.6 km/h
241 24-04-2015 20:00:00 19.3 C 7.46 g/m*3 19.3 C 3.2 km/h
242 24-04-2015 20:05:00 18.8 C 7.57 g/m*3 18.8 C 3.2 km/h
243 24-04-2015 20:10:00 18.4 C 7.39 g/m*3 18.4 C 4.8 km/h
244 24-04-2015 20:15:00 18.1 C 7.42 g/m*3 18.1 C 3.2 km/h
245 24-04-2015 20:20:00 17.7 C 6.64 g/m*3 17.7 C 3.2 km/h
246 24-04-2015 20:25:00 17.3 C 7.22 g/m*3 17.3 C 4.8 km/h
247 24-04-2015 20:30:00 16.9 C 7.19 g/m*3 16.9 C 1.6 km/h
248 24-04-2015 20:35:00 16.4 C 7.4 g/m*3 16.4 C 1.6 km/h
249 24-04-2015 20:40:00 15.8 C 7.13 g/m*3 15.8 C 6.4 km/h
250 24-04-2015 20:45:00 15.5 C 7.01 g/m*3 15.5 C 4.8 km/h
Sensor: Nr:Datum:Temp:Abs-Feuchte:Windchill:Wind:
Aussen-T/F 251 24-04-2015 20:50:00 15.3 C 7.18 g/m*3 15.3 C 6.4 km/h
252 24-04-2015 20:55:00 15.2 C 7.14 g/m*3 15.2 C 6.4 km/h
253 24-04-2015 21:00:00 14.8 C 7.09 g/m*3 14.8 C 4.8 km/h
254 24-04-2015 21:05:00 14.7 C 7.05 g/m*3 14.7 C 4.8 km/h
255 24-04-2015 21:10:00 14.6 C 6.88 g/m*3 14.6 C 1.6 km/h
256 24-04-2015 21:15:00 14.6 C 6.88 g/m*3 14.6 C 4.8 km/h
257 24-04-2015 21:20:00 14.6 C 7.01 g/m*3 14.6 C 4.8 km/h
258 24-04-2015 21:25:00 14.6 C 7.01 g/m*3 14.6 C 4.8 km/h
259 24-04-2015 21:30:00 14.4 C 7.05 g/m*3 14.4 C 4.8 km/h
260 24-04-2015 21:35:00 14.3 C 7 g/m*3 14.3 C 4.8 km/h
261 24-04-2015 21:40:00 14.1 C 7.04 g/m*3 14.1 C 4.8 km/h
262 24-04-2015 21:45:00 14 C 7 g/m*3 14 C 4.8 km/h
263 24-04-2015 21:50:00 13.8 C 7.03 g/m*3 13.8 C 4.8 km/h
264 24-04-2015 21:55:00 13.6 C 7.06 g/m*3 13.6 C 3.2 km/h
265 24-04-2015 22:00:00 13.4 C 7.09 g/m*3 13.4 C 1.6 km/h
266 24-04-2015 22:05:00 13.4 C 6.97 g/m*3 13.4 C 4.8 km/h
267 24-04-2015 22:10:00 13.3 C 7.05 g/m*3 13.3 C 3.2 km/h
268 24-04-2015 22:15:00 13.2 C 7.12 g/m*3 13.2 C 1.6 km/h
269 24-04-2015 22:20:00 13 C 6.92 g/m*3 13 C 0 km/h
270 24-04-2015 22:25:00 12.9 C 6.99 g/m*3 12.9 C 0 km/h
271 24-04-2015 22:30:00 12.8 C 6.94 g/m*3 12.8 C 0 km/h
272 24-04-2015 22:35:00 12.7 C 6.9 g/m*3 12.7 C 0 km/h
273 24-04-2015 22:40:00 12.6 C 6.97 g/m*3 12.6 C 0 km/h
274 24-04-2015 22:45:00 12.5 C 6.93 g/m*3 12.5 C 0 km/h
275 24-04-2015 22:50:00 12.4 C 6.88 g/m*3 12.4 C 0 km/h
Sensor: Nr:Datum:Temp:Abs-Feuchte:Windchill:Wind:
Aussen-T/F 276 24-04-2015 22:55:00 12.3 C 6.95 g/m*3 12.3 C 0 km/h
277 24-04-2015 23:00:00 12.3 C 7.06 g/m*3 12.3 C 0 km/h
278 24-04-2015 23:05:00 12.1 C 6.97 g/m*3 12.1 C 0 km/h
279 24-04-2015 23:10:00 11.9 C 6.88 g/m*3 11.9 C 0 km/h
280 24-04-2015 23:15:00 11.8 C 6.84 g/m*3 11.8 C 0 km/h
281 24-04-2015 23:20:00 11.7 C 6.8 g/m*3 11.7 C 0 km/h
282 24-04-2015 23:25:00 11.7 C 6.8 g/m*3 11.7 C 0 km/h
283 24-04-2015 23:30:00 11.6 C 6.76 g/m*3 11.6 C 0 km/h
284 24-04-2015 23:35:00 11.4 C 6.67 g/m*3 11.4 C 0 km/h
285 24-04-2015 23:40:00 11.4 C 6.77 g/m*3 11.4 C 0 km/h
286 24-04-2015 23:45:00 11.3 C 6.94 g/m*3 11.3 C 0 km/h
287 24-04-2015 23:50:00 11.2 C 6.89 g/m*3 11.2 C 0 km/h
288 24-04-2015 23:55:00 11.1 C 6.75 g/m*3 11.1 C 0 km/h
289 25-04-2015 00:00:00 11 C 6.81 g/m*3 11 C 0 km/h
290 25-04-2015 00:05:00 10.9 C 6.86 g/m*3 10.9 C 0 km/h
291 25-04-2015 00:10:00 10.8 C 6.72 g/m*3 10.8 C 0 km/h
292 25-04-2015 00:15:00 10.8 C 6.72 g/m*3 10.8 C 0 km/h
293 25-04-2015 00:20:00 10.8 C 6.82 g/m*3 10.8 C 0 km/h
294 25-04-2015 00:25:00 10.8 C 6.82 g/m*3 10.8 C 0 km/h
295 25-04-2015 00:30:00 10.7 C 6.97 g/m*3 10.7 C 0 km/h
296 25-04-2015 00:35:00 10.7 C 6.88 g/m*3 10.7 C 0 km/h
297 25-04-2015 00:40:00 10.7 C 6.88 g/m*3 10.7 C 0 km/h
298 25-04-2015 00:45:00 10.6 C 6.73 g/m*3 10.6 C 0 km/h
299 25-04-2015 00:50:00 10.6 C 6.83 g/m*3 10.6 C 0 km/h
300 25-04-2015 00:55:00 10.5 C 6.89 g/m*3 10.5 C 0 km/h
Sensor: Nr:Datum:Temp:Abs-Feuchte:Windchill:Wind:
Aussen-T/F 301 25-04-2015 01:00:00 10.4 C 6.84 g/m*3 10.4 C 0 km/h
302 25-04-2015 01:05:00 10.3 C 6.9 g/m*3 10.3 C 1.6 km/h
303 25-04-2015 01:10:00 10.3 C 6.9 g/m*3 10.3 C 1.6 km/h
304 25-04-2015 01:15:00 10.3 C 6.9 g/m*3 10.3 C 0 km/h
305 25-04-2015 01:20:00 10.2 C 6.95 g/m*3 10.2 C 0 km/h
306 25-04-2015 01:25:00 10.1 C 6.9 g/m*3 10.1 C 0 km/h
307 25-04-2015 01:30:00 9.9 C 6.91 g/m*3 9.9 C 0 km/h
308 25-04-2015 01:35:00 9.9 C 6.91 g/m*3 9.9 C 1.6 km/h
309 25-04-2015 01:40:00 9.8 C 6.96 g/m*3 9.8 C 1.6 km/h
310 25-04-2015 01:45:00 9.8 C 6.96 g/m*3 9.8 C 0 km/h
311 25-04-2015 01:50:00 9.7 C 7.01 g/m*3 9.7 C 0 km/h
312 25-04-2015 01:55:00 9.6 C 7.05 g/m*3 9.6 C 0 km/h
313 25-04-2015 02:00:00 9.5 C 6.92 g/m*3 9.5 C 0 km/h
314 25-04-2015 02:05:00 9.4 C 6.87 g/m*3 9.4 C 0 km/h
315 25-04-2015 02:10:00 9.4 C 6.96 g/m*3 9.4 C 0 km/h
316 25-04-2015 02:15:00 9.3 C 6.92 g/m*3 9.3 C 0 km/h
317 25-04-2015 02:20:00 9.3 C 7.01 g/m*3 9.3 C 0 km/h
318 25-04-2015 02:25:00 9.2 C 6.97 g/m*3 9.2 C 0 km/h
319 25-04-2015 02:30:00 9.2 C 7.05 g/m*3 9.2 C 0 km/h
320 25-04-2015 02:35:00 9.2 C 7.05 g/m*3 9.2 C 0 km/h
321 25-04-2015 02:40:00 9.1 C 7.01 g/m*3 9.1 C 0 km/h
322 25-04-2015 02:45:00 9.2 C 7.05 g/m*3 9.2 C 0 km/h
323 25-04-2015 02:50:00 9.2 C 7.14 g/m*3 9.2 C 0 km/h
324 25-04-2015 02:55:00 9.2 C 7.14 g/m*3 9.2 C 0 km/h
325 25-04-2015 03:00:00 9.2 C 7.14 g/m*3 9.2 C 0 km/h
Sensor: Nr:Datum:Temp:Abs-Feuchte:Windchill:Wind:
Aussen-T/F 326 25-04-2015 03:05:00 9.2 C 7.14 g/m*3 9.2 C 0 km/h
327 25-04-2015 03:10:00 9.3 C 7.19 g/m*3 9.3 C 0 km/h
328 25-04-2015 03:15:00 9.3 C 7.28 g/m*3 9.3 C 0 km/h
329 25-04-2015 03:20:00 9.3 C 7.19 g/m*3 9.3 C 0 km/h
330 25-04-2015 03:25:00 9.3 C 7.28 g/m*3 9.3 C 0 km/h
331 25-04-2015 03:30:00 9.3 C 7.28 g/m*3 9.3 C 0 km/h
332 25-04-2015 03:35:00 9.3 C 7.19 g/m*3 9.3 C 1.6 km/h
333 25-04-2015 03:40:00 9.3 C 7.19 g/m*3 9.3 C 1.6 km/h
334 25-04-2015 03:45:00 9.4 C 7.15 g/m*3 9.4 C 0 km/h
335 25-04-2015 03:50:00 9.4 C 7.24 g/m*3 9.4 C 0 km/h
336 25-04-2015 03:55:00 9.4 C 7.24 g/m*3 9.4 C 0 km/h
337 25-04-2015 04:00:00 9.4 C 7.33 g/m*3 9.4 C 0 km/h
338 25-04-2015 04:05:00 9.4 C 7.42 g/m*3 9.4 C 0 km/h
339 25-04-2015 04:10:00 9.3 C 7.37 g/m*3 9.3 C 0 km/h
340 25-04-2015 04:15:00 9.3 C 7.28 g/m*3 9.3 C 0 km/h
341 25-04-2015 04:20:00 9.3 C 7.28 g/m*3 9.3 C 0 km/h
342 25-04-2015 04:25:00 9.3 C 7.37 g/m*3 9.3 C 0 km/h
343 25-04-2015 04:30:00 9.2 C 7.32 g/m*3 9.2 C 1.6 km/h
344 25-04-2015 04:35:00 9.3 C 7.37 g/m*3 9.3 C 1.6 km/h
345 25-04-2015 04:40:00 9.3 C 7.37 g/m*3 9.3 C 0 km/h
346 25-04-2015 04:45:00 9.3 C 7.37 g/m*3 9.3 C 0 km/h
347 25-04-2015 04:50:00 9.3 C 7.37 g/m*3 9.3 C 0 km/h
348 25-04-2015 04:55:00 9.3 C 7.37 g/m*3 9.3 C 0 km/h
349 25-04-2015 05:00:00 9.3 C 7.46 g/m*3 9.3 C 0 km/h
350 25-04-2015 05:05:00 9.3 C 7.46 g/m*3 9.3 C 0 km/h
Sensor: Nr:Datum:Temp:Abs-Feuchte:Windchill:Wind:
Aussen-T/F 351 25-04-2015 05:10:00 9.3 C 7.46 g/m*3 9.3 C 0 km/h
352 25-04-2015 05:15:00 9.3 C 7.55 g/m*3 9.3 C 0 km/h
353 25-04-2015 05:20:00 9.3 C 7.55 g/m*3 9.3 C 0 km/h
354 25-04-2015 05:25:00 9.3 C 7.55 g/m*3 9.3 C 0 km/h
355 25-04-2015 05:30:00 9.3 C 7.55 g/m*3 9.3 C 0 km/h
356 25-04-2015 05:35:00 9.3 C 7.55 g/m*3 9.3 C 0 km/h
357 25-04-2015 05:40:00 9.3 C 7.55 g/m*3 9.3 C 0 km/h
358 25-04-2015 05:45:00 9.3 C 7.55 g/m*3 9.3 C 0 km/h
359 25-04-2015 05:50:00 9.2 C 7.59 g/m*3 9.2 C 0 km/h
360 25-04-2015 05:55:00 9.2 C 7.59 g/m*3 9.2 C 0 km/h
361 25-04-2015 06:00:00 9.2 C 7.59 g/m*3 9.2 C 0 km/h
362 25-04-2015 06:05:00 9.2 C 7.59 g/m*3 9.2 C 0 km/h
363 25-04-2015 06:10:00 9.2 C 7.59 g/m*3 9.2 C 0 km/h
364 25-04-2015 06:15:00 9.2 C 7.59 g/m*3 9.2 C 0 km/h
365 25-04-2015 06:20:00 9.3 C 7.64 g/m*3 9.3 C 0 km/h
366 25-04-2015 06:25:00 9.3 C 7.73 g/m*3 9.3 C 0 km/h
367 25-04-2015 06:30:00 9.4 C 7.78 g/m*3 9.4 C 0 km/h
368 25-04-2015 06:35:00 9.4 C 7.69 g/m*3 9.4 C 0 km/h
369 25-04-2015 06:40:00 9.5 C 7.74 g/m*3 9.5 C 0 km/h
370 25-04-2015 06:45:00 9.6 C 7.79 g/m*3 9.6 C 0 km/h
371 25-04-2015 06:50:00 9.7 C 7.84 g/m*3 9.7 C 0 km/h
372 25-04-2015 06:55:00 9.7 C 7.84 g/m*3 9.7 C 0 km/h
373 25-04-2015 07:00:00 9.8 C 7.89 g/m*3 9.8 C 0 km/h
374 25-04-2015 07:05:00 9.9 C 7.84 g/m*3 9.9 C 0 km/h
375 25-04-2015 07:10:00 9.9 C 7.75 g/m*3 9.9 C 0 km/h
Sensor: Nr:Datum:Temp:Abs-Feuchte:Windchill:Wind:
Aussen-T/F 376 25-04-2015 07:15:00 10.1 C 7.75 g/m*3 10.1 C 1.6 km/h
377 25-04-2015 07:20:00 10.1 C 7.75 g/m*3 10.1 C 0 km/h
378 25-04-2015 07:25:00 10.2 C 7.9 g/m*3 10.2 C 0 km/h
379 25-04-2015 07:30:00 10.3 C 7.95 g/m*3 10.3 C 0 km/h
380 25-04-2015 07:35:00 10.3 C 8.04 g/m*3 10.3 C 0 km/h
381 25-04-2015 07:40:00 10.4 C 8.1 g/m*3 10.4 C 0 km/h
382 25-04-2015 07:45:00 10.4 C 8.1 g/m*3 10.4 C 0 km/h
383 25-04-2015 07:50:00 10.6 C 8.2 g/m*3 10.6 C 0 km/h
384 25-04-2015 07:55:00 10.6 C 8.2 g/m*3 10.6 C 1.6 km/h
385 25-04-2015 08:00:00 10.7 C 8.25 g/m*3 10.7 C 0 km/h
386 25-04-2015 08:05:00 10.8 C 8.3 g/m*3 10.8 C 1.6 km/h
387 25-04-2015 08:10:00 10.8 C 8.3 g/m*3 10.8 C 0 km/h
388 25-04-2015 08:15:00 10.8 C 8.3 g/m*3 10.8 C 0 km/h
389 25-04-2015 08:20:00 10.8 C 8.3 g/m*3 10.8 C 0 km/h
390 25-04-2015 08:25:00 10.9 C 8.45 g/m*3 10.9 C 0 km/h
391 25-04-2015 08:30:00 10.9 C 8.55 g/m*3 10.9 C 0 km/h
392 25-04-2015 08:35:00 11.1 C 8.66 g/m*3 11.1 C 0 km/h
393 25-04-2015 08:40:00 11.2 C 8.82 g/m*3 11.2 C 0 km/h
394 25-04-2015 08:45:00 11.2 C 8.62 g/m*3 11.2 C 0 km/h
395 25-04-2015 08:50:00 11.3 C 8.77 g/m*3 11.3 C 0 km/h
396 25-04-2015 08:55:00 11.4 C 8.93 g/m*3 11.4 C 0 km/h
397 25-04-2015 09:00:00 11.5 C 8.99 g/m*3 11.5 C 0 km/h
398 25-04-2015 09:05:00 11.6 C 9.04 g/m*3 11.6 C 1.6 km/h
399 25-04-2015 09:10:00 11.6 C 8.94 g/m*3 11.6 C 0 km/h
400 25-04-2015 09:15:00 11.7 C 8.99 g/m*3 11.7 C 0 km/h
Sensor: Nr:Datum:Temp:Abs-Feuchte:Windchill:Wind:
Aussen-T/F 401 25-04-2015 09:20:00 11.8 C 9.16 g/m*3 11.8 C 0 km/h
402 25-04-2015 09:25:00 11.8 C 9.16 g/m*3 11.8 C 1.6 km/h
403 25-04-2015 09:30:00 11.9 C 9.21 g/m*3 11.9 C 0 km/h
404 25-04-2015 09:35:00 11.9 C 9.21 g/m*3 11.9 C 0 km/h
405 25-04-2015 09:40:00 11.9 C 9.21 g/m*3 11.9 C 0 km/h
406 25-04-2015 09:45:00 12 C 9.38 g/m*3 12 C 0 km/h
407 25-04-2015 09:50:00 12 C 9.38 g/m*3 12 C 0 km/h
408 25-04-2015 09:55:00 12 C 9.38 g/m*3 12 C 0 km/h
409 25-04-2015 10:00:00 12.1 C 9.44 g/m*3 12.1 C 0 km/h
410 25-04-2015 10:05:00 12.1 C 9.54 g/m*3 12.1 C 0 km/h
411 25-04-2015 10:10:00 12.2 C 9.5 g/m*3 12.2 C 0 km/h
412 25-04-2015 10:15:00 12.2 C 9.6 g/m*3 12.2 C 0 km/h
413 25-04-2015 10:20:00 12.3 C 9.45 g/m*3 12.3 C 0 km/h
414 25-04-2015 10:25:00 12.3 C 9.34 g/m*3 12.3 C 0 km/h
415 25-04-2015 10:30:00 12.4 C 9.4 g/m*3 12.4 C 0 km/h
416 25-04-2015 10:35:00 12.6 C 9.51 g/m*3 12.6 C 0 km/h
417 25-04-2015 10:40:00 12.7 C 9.68 g/m*3 12.7 C 0 km/h
418 25-04-2015 10:45:00 12.9 C 9.81 g/m*3 12.9 C 1.6 km/h
419 25-04-2015 10:50:00 13.2 C 10.1 g/m*3 13.2 C 1.6 km/h
420 25-04-2015 10:55:00 13.2 C 9.99 g/m*3 13.2 C 1.6 km/h
421 25-04-2015 11:00:00 13.4 C 10.11 g/m*3 13.4 C 0 km/h
422 25-04-2015 11:05:00 13.6 C 10.24 g/m*3 13.6 C 0 km/h
423 25-04-2015 11:10:00 13.7 C 10.18 g/m*3 13.7 C 3.2 km/h
424 25-04-2015 11:15:00 13.8 C 10.37 g/m*3 13.8 C 1.6 km/h
425 25-04-2015 11:20:00 14.1 C 10.56 g/m*3 14.1 C 3.2 km/h
Sensor: Nr:Datum:Temp:Abs-Feuchte:Windchill:Wind:
Aussen-T/F 426 25-04-2015 11:25:00 14.2 C 10.5 g/m*3 14.2 C 6.4 km/h
427 25-04-2015 11:30:00 14.5 C 10.7 g/m*3 14.5 C 3.2 km/h
428 25-04-2015 11:35:00 14.8 C 11.02 g/m*3 14.8 C 4.8 km/h
429 25-04-2015 11:40:00 14.9 C 10.58 g/m*3 14.9 C 6.4 km/h
430 25-04-2015 11:45:00 15.1 C 10.84 g/m*3 15.1 C 8.1 km/h
431 25-04-2015 11:50:00 15.1 C 10.71 g/m*3 15.1 C 1.6 km/h
432 25-04-2015 11:55:00 15.1 C 10.84 g/m*3 15.1 C 3.2 km/h
433 25-04-2015 12:00:00 15.1 C 10.71 g/m*3 15.1 C 3.2 km/h
434 25-04-2015 12:05:00 15.2 C 10.77 g/m*3 15.2 C 0 km/h
435 25-04-2015 12:10:00 15.3 C 10.84 g/m*3 15.3 C 6.4 km/h
436 25-04-2015 12:15:00 15.6 C 10.64 g/m*3 15.6 C 9.7 km/h
437 25-04-2015 12:20:00 15.7 C 10.57 g/m*3 15.7 C 8.1 km/h
438 25-04-2015 12:25:00 15.8 C 10.5 g/m*3 15.8 C 16.1 km/h
439 25-04-2015 12:30:00 15.8 C 10.63 g/m*3 15.8 C 9.7 km/h
440 25-04-2015 12:35:00 15.8 C 10.5 g/m*3 15.8 C 12.9 km/h
441 25-04-2015 12:40:00 15.9 C 10.56 g/m*3 15.9 C 12.9 km/h
442 25-04-2015 12:45:00 16.1 C 10.55 g/m*3 16.1 C 16.1 km/h
443 25-04-2015 12:50:00 16.2 C 10.48 g/m*3 16.2 C 14.5 km/h
444 25-04-2015 12:55:00 16.2 C 10.48 g/m*3 16.2 C 12.9 km/h
445 25-04-2015 13:00:00 16.3 C 10.68 g/m*3 16.3 C 16.1 km/h
446 25-04-2015 13:05:00 16.5 C 10.67 g/m*3 16.5 C 14.5 km/h
447 25-04-2015 13:10:00 16.8 C 10.72 g/m*3 16.8 C 11.3 km/h
448 25-04-2015 13:15:00 17.1 C 10.77 g/m*3 17.1 C 19.3 km/h
449 25-04-2015 13:20:00 17.2 C 10.69 g/m*3 17.2 C 14.5 km/h
450 25-04-2015 13:25:00 17.5 C 10.88 g/m*3 17.5 C 19.3 km/h
Sensor: Nr:Datum:Temp:Abs-Feuchte:Windchill:Wind:
Aussen-T/F 451 25-04-2015 13:30:00 18 C 10.75 g/m*3 18 C 19.3 km/h
452 25-04-2015 13:35:00 18 C 10.6 g/m*3 18 C 17.7 km/h
453 25-04-2015 13:40:00 17.7 C 10.41 g/m*3 17.7 C 24.1 km/h
454 25-04-2015 13:45:00 17.6 C 10.35 g/m*3 17.6 C 19.3 km/h
455 25-04-2015 13:50:00 17.4 C 10.23 g/m*3 17.4 C 17.7 km/h
456 25-04-2015 13:55:00 17.4 C 10.08 g/m*3 17.4 C 12.9 km/h
457 25-04-2015 14:00:00 17.6 C 9.9 g/m*3 17.6 C 16.1 km/h
458 25-04-2015 14:05:00 17.9 C 10.08 g/m*3 17.9 C 20.9 km/h
459 25-04-2015 14:10:00 18.3 C 10.32 g/m*3 18.3 C 16.1 km/h
460 25-04-2015 14:15:00 18.4 C 10.22 g/m*3 18.4 C 17.7 km/h
461 25-04-2015 14:20:00 18.3 C 10.32 g/m*3 18.3 C 16.1 km/h
462 25-04-2015 14:25:00 18.2 C 10.1 g/m*3 18.2 C 22.5 km/h
463 25-04-2015 14:30:00 18.1 C 10.2 g/m*3 18.1 C 11.3 km/h
464 25-04-2015 14:35:00 18.3 C 10.32 g/m*3 18.3 C 17.7 km/h
465 25-04-2015 14:40:00 18.2 C 10.1 g/m*3 18.2 C 17.7 km/h
466 25-04-2015 14:45:00 18.1 C 10.2 g/m*3 18.1 C 16.1 km/h
467 25-04-2015 14:50:00 18 C 10.14 g/m*3 18 C 19.3 km/h
468 25-04-2015 14:55:00 17.9 C 10.23 g/m*3 17.9 C 12.9 km/h
469 25-04-2015 15:00:00 17.8 C 10.17 g/m*3 17.8 C 16.1 km/h
470 25-04-2015 15:05:00 17.7 C 9.96 g/m*3 17.7 C 12.9 km/h
471 25-04-2015 15:10:00 17.5 C 9.84 g/m*3 17.5 C 14.5 km/h
472 25-04-2015 15:15:00 17.3 C 9.87 g/m*3 17.3 C 14.5 km/h
473 25-04-2015 15:20:00 17.2 C 9.96 g/m*3 17.2 C 14.5 km/h
474 25-04-2015 15:25:00 17.4 C 10.23 g/m*3 17.4 C 11.3 km/h
475 25-04-2015 15:30:00 17.6 C 10.2 g/m*3 17.6 C 16.1 km/h
Sensor: Nr:Datum:Temp:Abs-Feuchte:Windchill:Wind:
Aussen-T/F 476 25-04-2015 15:35:00 17.5 C 9.99 g/m*3 17.5 C 24.1 km/h
477 25-04-2015 15:40:00 17.4 C 10.08 g/m*3 17.4 C 11.3 km/h
478 25-04-2015 15:45:00 17.3 C 10.02 g/m*3 17.3 C 14.5 km/h
479 25-04-2015 15:50:00 17.2 C 10.1 g/m*3 17.2 C 19.3 km/h
480 25-04-2015 15:55:00 17.1 C 10.19 g/m*3 17.1 C 12.9 km/h
481 25-04-2015 16:00:00 17.1 C 10.34 g/m*3 17.1 C 12.9 km/h
482 25-04-2015 16:05:00 17.1 C 10.34 g/m*3 17.1 C 17.7 km/h
483 25-04-2015 16:10:00 17.2 C 10.4 g/m*3 17.2 C 14.5 km/h
484 25-04-2015 16:15:00 17.3 C 10.61 g/m*3 17.3 C 12.9 km/h
485 25-04-2015 16:20:00 17.3 C 10.61 g/m*3 17.3 C 19.3 km/h
486 25-04-2015 16:25:00 17.5 C 10.59 g/m*3 17.5 C 17.7 km/h
487 25-04-2015 16:30:00 17.7 C 10.56 g/m*3 17.7 C 19.3 km/h
488 25-04-2015 16:35:00 17.6 C 10.5 g/m*3 17.6 C 16.1 km/h
489 25-04-2015 16:40:00 17.6 C 10.65 g/m*3 17.6 C 22.5 km/h
490 25-04-2015 16:45:00 17.3 C 10.46 g/m*3 17.3 C 16.1 km/h
491 25-04-2015 16:50:00 17.1 C 10.34 g/m*3 17.1 C 17.7 km/h
492 25-04-2015 16:55:00 16.9 C 10.36 g/m*3 16.9 C 9.7 km/h
493 25-04-2015 17:00:00 16.8 C 10.44 g/m*3 16.8 C 12.9 km/h
494 25-04-2015 17:05:00 16.7 C 10.37 g/m*3 16.7 C 14.5 km/h
495 25-04-2015 17:10:00 16.6 C 10.31 g/m*3 16.6 C 8.1 km/h
496 25-04-2015 17:15:00 16.6 C 10.45 g/m*3 16.6 C 12.9 km/h
497 25-04-2015 17:20:00 16.5 C 10.39 g/m*3 16.5 C 8.1 km/h
498 25-04-2015 17:25:00 16.4 C 10.75 g/m*3 16.4 C 11.3 km/h
499 25-04-2015 17:30:00 16.2 C 10.62 g/m*3 16.2 C 11.3 km/h
500 25-04-2015 17:35:00 16 C 10.63 g/m*3 16 C 8.1 km/h
Sensor: Nr:Datum:Temp:Abs-Feuchte:Windchill:Wind:
Aussen-T/F 501 25-04-2015 17:40:00 15.8 C 10.77 g/m*3 15.8 C 9.7 km/h
502 25-04-2015 17:45:00 15.4 C 10.77 g/m*3 15.4 C 6.4 km/h
503 25-04-2015 17:50:00 15.2 C 10.9 g/m*3 15.2 C 3.2 km/h
504 25-04-2015 17:55:00 15 C 10.9 g/m*3 15 C 3.2 km/h
505 25-04-2015 18:00:00 15 C 11.03 g/m*3 15 C 4.8 km/h
506 25-04-2015 18:05:00 15.2 C 11.03 g/m*3 15.2 C 4.8 km/h
507 25-04-2015 18:10:00 15.3 C 11.1 g/m*3 15.3 C 4.8 km/h
508 25-04-2015 18:15:00 15.4 C 11.04 g/m*3 15.4 C 6.4 km/h
509 25-04-2015 18:20:00 15.5 C 11.1 g/m*3 15.5 C 4.8 km/h
510 25-04-2015 18:25:00 15.6 C 11.17 g/m*3 15.6 C 4.8 km/h
511 25-04-2015 18:30:00 15.6 C 11.17 g/m*3 15.6 C 3.2 km/h
512 25-04-2015 18:35:00 15.6 C 11.17 g/m*3 15.6 C 6.4 km/h
513 25-04-2015 18:40:00 15.5 C 10.84 g/m*3 15.5 C 4.8 km/h
514 25-04-2015 18:45:00 15.4 C 10.9 g/m*3 15.4 C 6.4 km/h
515 25-04-2015 18:50:00 15.3 C 10.84 g/m*3 15.3 C 4.8 km/h
516 25-04-2015 18:55:00 15.3 C 10.97 g/m*3 15.3 C 6.4 km/h
517 25-04-2015 19:00:00 15.2 C 10.9 g/m*3 15.2 C 3.2 km/h
518 25-04-2015 19:05:00 15.2 C 11.03 g/m*3 15.2 C 4.8 km/h
519 25-04-2015 19:10:00 15.1 C 10.97 g/m*3 15.1 C 4.8 km/h
520 25-04-2015 19:15:00 14.9 C 10.96 g/m*3 14.9 C 3.2 km/h
521 25-04-2015 19:20:00 14.8 C 11.02 g/m*3 14.8 C 3.2 km/h
522 25-04-2015 19:25:00 14.7 C 10.95 g/m*3 14.7 C 9.7 km/h
523 25-04-2015 19:30:00 14.6 C 10.89 g/m*3 14.6 C 4.8 km/h
524 25-04-2015 19:35:00 14.6 C 10.89 g/m*3 14.6 C 3.2 km/h
525 25-04-2015 19:40:00 14.6 C 10.89 g/m*3 14.6 C 1.6 km/h
Sensor: Nr:Datum:Temp:Abs-Feuchte:Windchill:Wind:
Aussen-T/F 526 25-04-2015 19:45:00 14.7 C 10.95 g/m*3 14.7 C 1.6 km/h
527 25-04-2015 19:50:00 14.7 C 10.95 g/m*3 14.7 C 1.6 km/h
528 25-04-2015 19:55:00 14.6 C 10.89 g/m*3 14.6 C 3.2 km/h
529 25-04-2015 20:00:00 14.6 C 10.89 g/m*3 14.6 C 3.2 km/h
530 25-04-2015 20:05:00 14.4 C 10.88 g/m*3 14.4 C 3.2 km/h
531 25-04-2015 20:10:00 14.4 C 10.88 g/m*3 14.4 C 3.2 km/h
532 25-04-2015 20:15:00 14.3 C 10.81 g/m*3 14.3 C 3.2 km/h
533 25-04-2015 20:20:00 14.3 C 10.81 g/m*3 14.3 C 4.8 km/h
534 25-04-2015 20:25:00 14.2 C 10.75 g/m*3 14.2 C 4.8 km/h
535 25-04-2015 20:30:00 14 C 10.74 g/m*3 14 C 3.2 km/h
536 25-04-2015 20:35:00 13.8 C 10.6 g/m*3 13.8 C 3.2 km/h
537 25-04-2015 20:40:00 13.7 C 10.54 g/m*3 13.7 C 1.6 km/h
538 25-04-2015 20:45:00 13.6 C 10.47 g/m*3 13.6 C 3.2 km/h
539 25-04-2015 20:50:00 13.6 C 10.47 g/m*3 13.6 C 3.2 km/h
540 25-04-2015 20:55:00 13.4 C 10.35 g/m*3 13.4 C 1.6 km/h
541 25-04-2015 21:00:00 13.4 C 10.35 g/m*3 13.4 C 1.6 km/h
542 25-04-2015 21:05:00 13.3 C 10.28 g/m*3 13.3 C 0 km/h
543 25-04-2015 21:10:00 13.3 C 10.4 g/m*3 13.3 C 1.6 km/h
544 25-04-2015 21:15:00 13.3 C 10.4 g/m*3 13.3 C 1.6 km/h
545 25-04-2015 21:20:00 13.2 C 10.33 g/m*3 13.2 C 1.6 km/h
546 25-04-2015 21:25:00 13.1 C 10.27 g/m*3 13.1 C 1.6 km/h
547 25-04-2015 21:30:00 13.1 C 10.27 g/m*3 13.1 C 1.6 km/h
548 25-04-2015 21:35:00 12.9 C 10.14 g/m*3 12.9 C 1.6 km/h
549 25-04-2015 21:40:00 12.8 C 10.19 g/m*3 12.8 C 1.6 km/h
550 25-04-2015 21:45:00 12.8 C 10.19 g/m*3 12.8 C 3.2 km/h
Sensor: Nr:Datum:Temp:Abs-Feuchte:Windchill:Wind:
Aussen-T/F 551 25-04-2015 21:50:00 12.8 C 10.19 g/m*3 12.8 C 3.2 km/h
552 25-04-2015 21:55:00 12.8 C 10.19 g/m*3 12.8 C 1.6 km/h
553 25-04-2015 22:00:00 12.8 C 10.19 g/m*3 12.8 C 1.6 km/h
554 25-04-2015 22:05:00 12.8 C 10.19 g/m*3 12.8 C 1.6 km/h
555 25-04-2015 22:10:00 12.8 C 10.08 g/m*3 12.8 C 1.6 km/h
556 25-04-2015 22:15:00 12.7 C 10.13 g/m*3 12.7 C 0 km/h
557 25-04-2015 22:20:00 12.6 C 10.07 g/m*3 12.6 C 1.6 km/h
558 25-04-2015 22:25:00 12.6 C 10.07 g/m*3 12.6 C 0 km/h
559 25-04-2015 22:30:00 12.6 C 10.07 g/m*3 12.6 C 1.6 km/h
560 25-04-2015 22:35:00 12.5 C 10 g/m*3 12.5 C 0 km/h
561 25-04-2015 22:40:00 12.4 C 10.05 g/m*3 12.4 C 3.2 km/h
562 25-04-2015 22:45:00 12.4 C 10.05 g/m*3 12.4 C 0 km/h
563 25-04-2015 22:50:00 12.3 C 9.99 g/m*3 12.3 C 0 km/h
564 25-04-2015 22:55:00 12.3 C 9.99 g/m*3 12.3 C 0 km/h
565 25-04-2015 23:00:00 12.2 C 9.93 g/m*3 12.2 C 0 km/h
566 25-04-2015 23:05:00 12.2 C 10.04 g/m*3 12.2 C 0 km/h
567 25-04-2015 23:10:00 12.2 C 10.04 g/m*3 12.2 C 0 km/h
568 25-04-2015 23:15:00 12.2 C 10.04 g/m*3 12.2 C 0 km/h
569 25-04-2015 23:20:00 12 C 9.8 g/m*3 12 C 0 km/h
570 25-04-2015 23:25:00 11.9 C 9.74 g/m*3 11.9 C 0 km/h
571 25-04-2015 23:30:00 11.8 C 9.79 g/m*3 11.8 C 0 km/h
572 25-04-2015 23:35:00 11.7 C 9.73 g/m*3 11.7 C 0 km/h
573 25-04-2015 23:40:00 11.6 C 9.67 g/m*3 11.6 C 0 km/h
574 25-04-2015 23:45:00 11.6 C 9.67 g/m*3 11.6 C 0 km/h
575 25-04-2015 23:50:00 11.6 C 9.77 g/m*3 11.6 C 0 km/h
Sensor: Nr:Datum:Temp:Abs-Feuchte:Windchill:Wind:
Aussen-T/F 576 25-04-2015 23:55:00 11.7 C 9.73 g/m*3 11.7 C 0 km/h
577 26-04-2015 00:00:00 11.7 C 9.73 g/m*3 11.7 C 0 km/h
578 26-04-2015 00:05:00 11.6 C 9.67 g/m*3 11.6 C 0 km/h
579 26-04-2015 00:10:00 11.6 C 9.67 g/m*3 11.6 C 0 km/h
580 26-04-2015 00:15:00 11.6 C 9.67 g/m*3 11.6 C 0 km/h
581 26-04-2015 00:20:00 11.7 C 9.73 g/m*3 11.7 C 0 km/h
582 26-04-2015 00:25:00 11.7 C 9.73 g/m*3 11.7 C 0 km/h
583 26-04-2015 00:30:00 11.7 C 9.73 g/m*3 11.7 C 0 km/h
584 26-04-2015 00:35:00 11.6 C 9.67 g/m*3 11.6 C 0 km/h
585 26-04-2015 00:40:00 11.5 C 9.61 g/m*3 11.5 C 0 km/h
586 26-04-2015 00:45:00 11.4 C 9.55 g/m*3 11.4 C 0 km/h
587 26-04-2015 00:50:00 11.2 C 9.43 g/m*3 11.2 C 0 km/h
588 26-04-2015 00:55:00 11.2 C 9.43 g/m*3 11.2 C 0 km/h
589 26-04-2015 01:00:00 11.1 C 9.37 g/m*3 11.1 C 0 km/h
590 26-04-2015 01:05:00 11 C 9.31 g/m*3 11 C 0 km/h
591 26-04-2015 01:10:00 11 C 9.41 g/m*3 11 C 0 km/h
592 26-04-2015 01:15:00 11 C 9.41 g/m*3 11 C 0 km/h
593 26-04-2015 01:20:00 11.1 C 9.47 g/m*3 11.1 C 0 km/h
594 26-04-2015 01:25:00 11.1 C 9.47 g/m*3 11.1 C 0 km/h
595 26-04-2015 01:30:00 11 C 9.41 g/m*3 11 C 0 km/h
596 26-04-2015 01:35:00 11 C 9.41 g/m*3 11 C 0 km/h
597 26-04-2015 01:40:00 11 C 9.41 g/m*3 11 C 0 km/h
598 26-04-2015 01:45:00 10.9 C 9.35 g/m*3 10.9 C 0 km/h
599 26-04-2015 01:50:00 10.9 C 9.35 g/m*3 10.9 C 0 km/h
600 26-04-2015 01:55:00 10.9 C 9.35 g/m*3 10.9 C 0 km/h
Sensor: Nr:Datum:Temp:Abs-Feuchte:Windchill:Wind:
Aussen-T/F 601 26-04-2015 02:00:00 10.9 C 9.35 g/m*3 10.9 C 0 km/h
602 26-04-2015 02:05:00 10.8 C 9.39 g/m*3 10.8 C 0 km/h
603 26-04-2015 02:10:00 10.8 C 9.39 g/m*3 10.8 C 0 km/h
604 26-04-2015 02:15:00 10.8 C 9.39 g/m*3 10.8 C 0 km/h
605 26-04-2015 02:20:00 10.8 C 9.39 g/m*3 10.8 C 0 km/h
606 26-04-2015 02:25:00 10.9 C 9.45 g/m*3 10.9 C 0 km/h
607 26-04-2015 02:30:00 10.9 C 9.45 g/m*3 10.9 C 0 km/h
608 26-04-2015 02:35:00 11 C 9.51 g/m*3 11 C 0 km/h
609 26-04-2015 02:40:00 11.1 C 9.57 g/m*3 11.1 C 0 km/h
610 26-04-2015 02:45:00 11.1 C 9.57 g/m*3 11.1 C 0 km/h
611 26-04-2015 02:50:00 11.1 C 9.67 g/m*3 11.1 C 0 km/h
612 26-04-2015 02:55:00 11.2 C 9.73 g/m*3 11.2 C 0 km/h
613 26-04-2015 03:00:00 11.2 C 9.73 g/m*3 11.2 C 0 km/h
614 26-04-2015 03:05:00 11.2 C 9.73 g/m*3 11.2 C 0 km/h
615 26-04-2015 03:10:00 11.2 C 9.63 g/m*3 11.2 C 0 km/h
616 26-04-2015 03:15:00 11.1 C 9.57 g/m*3 11.1 C 0 km/h
617 26-04-2015 03:20:00 11.1 C 9.57 g/m*3 11.1 C 0 km/h
618 26-04-2015 03:25:00 10.9 C 9.45 g/m*3 10.9 C 0 km/h
619 26-04-2015 03:30:00 10.7 C 9.33 g/m*3 10.7 C 0 km/h
620 26-04-2015 03:35:00 10.6 C 9.27 g/m*3 10.6 C 0 km/h
621 26-04-2015 03:40:00 10.6 C 9.27 g/m*3 10.6 C 0 km/h
622 26-04-2015 03:45:00 10.6 C 9.37 g/m*3 10.6 C 0 km/h
623 26-04-2015 03:50:00 10.6 C 9.37 g/m*3 10.6 C 0 km/h
624 26-04-2015 03:55:00 10.6 C 9.37 g/m*3 10.6 C 0 km/h
625 26-04-2015 04:00:00 10.7 C 9.43 g/m*3 10.7 C 0 km/h
Sensor: Nr:Datum:Temp:Abs-Feuchte:Windchill:Wind:
Aussen-T/F 626 26-04-2015 04:05:00 10.7 C 9.43 g/m*3 10.7 C 0 km/h
627 26-04-2015 04:10:00 10.8 C 9.49 g/m*3 10.8 C 0 km/h
628 26-04-2015 04:15:00 10.8 C 9.49 g/m*3 10.8 C 0 km/h
629 26-04-2015 04:20:00 10.9 C 9.55 g/m*3 10.9 C 0 km/h
630 26-04-2015 04:25:00 10.9 C 9.55 g/m*3 10.9 C 0 km/h
631 26-04-2015 04:30:00 10.9 C 9.55 g/m*3 10.9 C 0 km/h
632 26-04-2015 04:35:00 10.9 C 9.55 g/m*3 10.9 C 0 km/h
633 26-04-2015 04:40:00 10.9 C 9.55 g/m*3 10.9 C 0 km/h
634 26-04-2015 04:45:00 10.9 C 9.55 g/m*3 10.9 C 0 km/h
635 26-04-2015 04:50:00 11 C 9.61 g/m*3 11 C 0 km/h
636 26-04-2015 04:55:00 11 C 9.61 g/m*3 11 C 0 km/h
637 26-04-2015 05:00:00 11.1 C 9.67 g/m*3 11.1 C 0 km/h
638 26-04-2015 05:05:00 11.2 C 9.83 g/m*3 11.2 C 0 km/h
639 26-04-2015 05:10:00 11.3 C 9.89 g/m*3 11.3 C 0 km/h
640 26-04-2015 05:15:00 11.3 C 9.79 g/m*3 11.3 C 0 km/h
641 26-04-2015 05:20:00 11.3 C 9.79 g/m*3 11.3 C 0 km/h
642 26-04-2015 05:25:00 11.3 C 9.89 g/m*3 11.3 C 0 km/h
643 26-04-2015 05:30:00 11.3 C 9.89 g/m*3 11.3 C 0 km/h
644 26-04-2015 05:35:00 11.4 C 9.96 g/m*3 11.4 C 0 km/h
645 26-04-2015 05:40:00 11.4 C 9.96 g/m*3 11.4 C 0 km/h
646 26-04-2015 05:45:00 11.4 C 9.96 g/m*3 11.4 C 0 km/h
647 26-04-2015 05:50:00 11.5 C 10.02 g/m*3 11.5 C 0 km/h
648 26-04-2015 05:55:00 11.5 C 9.92 g/m*3 11.5 C 0 km/h
649 26-04-2015 06:00:00 11.5 C 9.92 g/m*3 11.5 C 0 km/h
650 26-04-2015 06:05:00 11.4 C 9.85 g/m*3 11.4 C 0 km/h
Sensor: Nr:Datum:Temp:Abs-Feuchte:Windchill:Wind:
Aussen-T/F 651 26-04-2015 06:10:00 11.4 C 9.85 g/m*3 11.4 C 0 km/h
652 26-04-2015 06:15:00 11.4 C 9.85 g/m*3 11.4 C 0 km/h
653 26-04-2015 06:20:00 11.4 C 9.85 g/m*3 11.4 C 0 km/h
654 26-04-2015 06:25:00 11.4 C 9.85 g/m*3 11.4 C 0 km/h
655 26-04-2015 06:30:00 11.4 C 9.85 g/m*3 11.4 C 0 km/h
656 26-04-2015 06:35:00 11.4 C 9.85 g/m*3 11.4 C 0 km/h
657 26-04-2015 06:40:00 11.5 C 9.92 g/m*3 11.5 C 0 km/h
658 26-04-2015 06:45:00 11.4 C 9.85 g/m*3 11.4 C 0 km/h
659 26-04-2015 06:50:00 11.4 C 9.85 g/m*3 11.4 C 0 km/h
660 26-04-2015 06:55:00 11.3 C 9.79 g/m*3 11.3 C 0 km/h
661 26-04-2015 07:00:00 11.3 C 9.79 g/m*3 11.3 C 0 km/h
662 26-04-2015 07:05:00 11.3 C 9.79 g/m*3 11.3 C 0 km/h
663 26-04-2015 07:10:00 11.3 C 9.79 g/m*3 11.3 C 0 km/h
664 26-04-2015 07:15:00 11.3 C 9.79 g/m*3 11.3 C 0 km/h
665 26-04-2015 07:20:00 11.4 C 9.85 g/m*3 11.4 C 0 km/h
666 26-04-2015 07:25:00 11.5 C 10.02 g/m*3 11.5 C 0 km/h
667 26-04-2015 07:30:00 11.6 C 9.98 g/m*3 11.6 C 0 km/h
668 26-04-2015 07:35:00 11.6 C 9.98 g/m*3 11.6 C 0 km/h
669 26-04-2015 07:40:00 11.6 C 9.98 g/m*3 11.6 C 0 km/h
670 26-04-2015 07:45:00 11.7 C 10.15 g/m*3 11.7 C 0 km/h
671 26-04-2015 07:50:00 11.7 C 10.15 g/m*3 11.7 C 0 km/h
672 26-04-2015 07:55:00 11.8 C 10.1 g/m*3 11.8 C 0 km/h
673 26-04-2015 08:00:00 11.8 C 10.1 g/m*3 11.8 C 0 km/h
674 26-04-2015 08:05:00 12 C 10.34 g/m*3 12 C 0 km/h
675 26-04-2015 08:10:00 12.2 C 10.47 g/m*3 12.2 C 0 km/h
Sensor: Nr:Datum:Temp:Abs-Feuchte:Windchill:Wind:
Aussen-T/F 676 26-04-2015 08:15:00 12.3 C 10.53 g/m*3 12.3 C 0 km/h
677 26-04-2015 08:20:00 12.6 C 10.73 g/m*3 12.6 C 4.8 km/h
678 26-04-2015 08:25:00 12.7 C 10.69 g/m*3 12.7 C 1.6 km/h
679 26-04-2015 08:30:00 12.9 C 10.82 g/m*3 12.9 C 0 km/h
680 26-04-2015 08:35:00 13.1 C 10.73 g/m*3 13.1 C 3.2 km/h
681 26-04-2015 08:40:00 13.3 C 10.74 g/m*3 13.3 C 3.2 km/h
682 26-04-2015 08:45:00 13.6 C 10.71 g/m*3 13.6 C 6.4 km/h
683 26-04-2015 08:50:00 13.9 C 10.67 g/m*3 13.9 C 6.4 km/h
684 26-04-2015 08:55:00 14.2 C 10.75 g/m*3 14.2 C 8.1 km/h
685 26-04-2015 09:00:00 14.3 C 10.69 g/m*3 14.3 C 6.4 km/h
686 26-04-2015 09:05:00 14.5 C 10.7 g/m*3 14.5 C 6.4 km/h
687 26-04-2015 09:10:00 14.6 C 10.76 g/m*3 14.6 C 8.1 km/h
688 26-04-2015 09:15:00 14.7 C 10.7 g/m*3 14.7 C 9.7 km/h
689 26-04-2015 09:20:00 14.8 C 10.64 g/m*3 14.8 C 8.1 km/h
690 26-04-2015 09:25:00 14.9 C 10.58 g/m*3 14.9 C 14.5 km/h
691 26-04-2015 09:30:00 15 C 10.77 g/m*3 15 C 14.5 km/h
692 26-04-2015 09:35:00 15 C 10.64 g/m*3 15 C 4.8 km/h
693 26-04-2015 09:40:00 15.1 C 10.71 g/m*3 15.1 C 8.1 km/h
694 26-04-2015 09:45:00 15.1 C 10.58 g/m*3 15.1 C 9.7 km/h
695 26-04-2015 09:50:00 15.2 C 10.77 g/m*3 15.2 C 8.1 km/h
696 26-04-2015 09:55:00 15.3 C 10.71 g/m*3 15.3 C 11.3 km/h
697 26-04-2015 10:00:00 15.4 C 10.64 g/m*3 15.4 C 9.7 km/h
698 26-04-2015 10:05:00 15.6 C 10.77 g/m*3 15.6 C 12.9 km/h
699 26-04-2015 10:10:00 15.6 C 10.64 g/m*3 15.6 C 14.5 km/h
700 26-04-2015 10:15:00 15.7 C 10.84 g/m*3 15.7 C 12.9 km/h
Sensor: Nr:Datum:Temp:Abs-Feuchte:Windchill:Wind:
Aussen-T/F 701 26-04-2015 10:20:00 15.8 C 10.63 g/m*3 15.8 C 12.9 km/h
702 26-04-2015 10:25:00 15.9 C 10.7 g/m*3 15.9 C 11.3 km/h
703 26-04-2015 10:30:00 16.1 C 10.83 g/m*3 16.1 C 8.1 km/h
704 26-04-2015 10:35:00 16.1 C 10.55 g/m*3 16.1 C 11.3 km/h
705 26-04-2015 10:40:00 16.1 C 10.55 g/m*3 16.1 C 11.3 km/h
706 26-04-2015 10:45:00 16 C 10.49 g/m*3 16 C 4.8 km/h
707 26-04-2015 10:50:00 16 C 10.49 g/m*3 16 C 8.1 km/h
708 26-04-2015 10:55:00 16 C 10.49 g/m*3 16 C 9.7 km/h
709 26-04-2015 11:00:00 16 C 10.49 g/m*3 16 C 8.1 km/h
710 26-04-2015 11:05:00 16.1 C 10.55 g/m*3 16.1 C 8.1 km/h
711 26-04-2015 11:10:00 16.2 C 10.48 g/m*3 16.2 C 11.3 km/h
712 26-04-2015 11:15:00 16.3 C 10.68 g/m*3 16.3 C 6.4 km/h
713 26-04-2015 11:20:00 16.4 C 10.61 g/m*3 16.4 C 12.9 km/h
714 26-04-2015 11:25:00 16.7 C 10.8 g/m*3 16.7 C 9.7 km/h
715 26-04-2015 11:30:00 17 C 10.71 g/m*3 17 C 9.7 km/h
716 26-04-2015 11:35:00 17.2 C 10.69 g/m*3 17.2 C 11.3 km/h
717 26-04-2015 11:40:00 17.3 C 10.61 g/m*3 17.3 C 12.9 km/h
718 26-04-2015 11:45:00 17.3 C 10.61 g/m*3 17.3 C 12.9 km/h
719 26-04-2015 11:50:00 17.2 C 10.4 g/m*3 17.2 C 12.9 km/h
720 26-04-2015 11:55:00 17.3 C 10.61 g/m*3 17.3 C 12.9 km/h
721 26-04-2015 12:00:00 17.6 C 10.35 g/m*3 17.6 C 19.3 km/h
722 26-04-2015 12:05:00 17.8 C 10.62 g/m*3 17.8 C 14.5 km/h
723 26-04-2015 12:10:00 18 C 10.6 g/m*3 18 C 19.3 km/h
724 26-04-2015 12:15:00 18.1 C 10.51 g/m*3 18.1 C 12.9 km/h
725 26-04-2015 12:20:00 18.1 C 10.66 g/m*3 18.1 C 8.1 km/h
Sensor: Nr:Datum:Temp:Abs-Feuchte:Windchill:Wind:
Aussen-T/F 726 26-04-2015 12:25:00 18 C 10.44 g/m*3 18 C 16.1 km/h
727 26-04-2015 12:30:00 17.9 C 10.54 g/m*3 17.9 C 17.7 km/h
728 26-04-2015 12:35:00 18 C 10.6 g/m*3 18 C 12.9 km/h
729 26-04-2015 12:40:00 18.2 C 10.41 g/m*3 18.2 C 14.5 km/h
730 26-04-2015 12:45:00 18.3 C 10.63 g/m*3 18.3 C 9.7 km/h
731 26-04-2015 12:50:00 18.4 C 10.54 g/m*3 18.4 C 12.9 km/h
732 26-04-2015 12:55:00 18.4 C 10.54 g/m*3 18.4 C 11.3 km/h
733 26-04-2015 13:00:00 18.5 C 10.44 g/m*3 18.5 C 12.9 km/h
734 26-04-2015 13:05:00 18.6 C 10.5 g/m*3 18.6 C 9.7 km/h
735 26-04-2015 13:10:00 18.6 C 10.5 g/m*3 18.6 C 16.1 km/h
736 26-04-2015 13:15:00 18.8 C 10.79 g/m*3 18.8 C 9.7 km/h
737 26-04-2015 13:20:00 18.8 C 10.47 g/m*3 18.8 C 14.5 km/h
738 26-04-2015 13:25:00 18.6 C 10.5 g/m*3 18.6 C 19.3 km/h
739 26-04-2015 13:30:00 18.7 C 10.41 g/m*3 18.7 C 11.3 km/h
740 26-04-2015 13:35:00 19 C 10.59 g/m*3 19 C 16.1 km/h
741 26-04-2015 13:40:00 19.3 C 10.45 g/m*3 19.3 C 12.9 km/h
742 26-04-2015 13:45:00 19.3 C 10.12 g/m*3 19.3 C 14.5 km/h
743 26-04-2015 13:50:00 19 C 10.43 g/m*3 19 C 11.3 km/h
744 26-04-2015 13:55:00 19.2 C 10.55 g/m*3 19.2 C 16.1 km/h
745 26-04-2015 14:00:00 19.6 C 10.47 g/m*3 19.6 C 16.1 km/h
746 26-04-2015 14:05:00 19.8 C 10.25 g/m*3 19.8 C 17.7 km/h
747 26-04-2015 14:10:00 19.9 C 10.48 g/m*3 19.9 C 12.9 km/h
748 26-04-2015 14:15:00 20.1 C 10.26 g/m*3 20.1 C 16.1 km/h
749 26-04-2015 14:20:00 20.2 C 10.32 g/m*3 20.2 C 11.3 km/h
750 26-04-2015 14:25:00 20.1 C 10.26 g/m*3 20.1 C 17.7 km/h
Sensor: Nr:Datum:Temp:Abs-Feuchte:Windchill:Wind:
Aussen-T/F 751 26-04-2015 14:30:00 19.9 C 9.97 g/m*3 19.9 C 17.7 km/h
752 26-04-2015 14:35:00 19.9 C 10.14 g/m*3 19.9 C 12.9 km/h
753 26-04-2015 14:40:00 19.9 C 9.97 g/m*3 19.9 C 16.1 km/h
754 26-04-2015 14:45:00 19.9 C 9.62 g/m*3 19.9 C 16.1 km/h
755 26-04-2015 14:50:00 19.8 C 9.74 g/m*3 19.8 C 11.3 km/h
756 26-04-2015 14:55:00 19.8 C 9.57 g/m*3 19.8 C 16.1 km/h
757 26-04-2015 15:00:00 19.7 C 9.68 g/m*3 19.7 C 16.1 km/h
758 26-04-2015 15:05:00 19.7 C 9.85 g/m*3 19.7 C 9.7 km/h
759 26-04-2015 15:10:00 19.8 C 9.91 g/m*3 19.8 C 3.2 km/h
760 26-04-2015 15:15:00 20.1 C 9.73 g/m*3 20.1 C 16.1 km/h
761 26-04-2015 15:20:00 20.3 C 9.85 g/m*3 20.3 C 19.3 km/h
762 26-04-2015 15:25:00 20.6 C 9.84 g/m*3 20.6 C 12.9 km/h
763 26-04-2015 15:30:00 20.9 C 10.2 g/m*3 20.9 C 14.5 km/h
764 26-04-2015 15:35:00 20.9 C 9.65 g/m*3 20.9 C 11.3 km/h
765 26-04-2015 15:40:00 20.7 C 9.72 g/m*3 20.7 C 14.5 km/h
766 26-04-2015 15:45:00 20.6 C 9.66 g/m*3 20.6 C 11.3 km/h
767 26-04-2015 15:50:00 20.8 C 9.78 g/m*3 20.8 C 14.5 km/h
768 26-04-2015 15:55:00 21.1 C 10.32 g/m*3 21.1 C 14.5 km/h
769 26-04-2015 16:00:00 21.2 C 9.82 g/m*3 21.2 C 12.9 km/h
770 26-04-2015 16:05:00 21.2 C 9.82 g/m*3 21.2 C 14.5 km/h
771 26-04-2015 16:10:00 21.3 C 9.88 g/m*3 21.3 C 11.3 km/h
772 26-04-2015 16:15:00 21.8 C 9.98 g/m*3 21.8 C 14.5 km/h
773 26-04-2015 16:20:00 22 C 9.51 g/m*3 22 C 14.5 km/h
774 26-04-2015 16:25:00 22.1 C 9.76 g/m*3 22.1 C 12.9 km/h
775 26-04-2015 16:30:00 21.9 C 9.46 g/m*3 21.9 C 16.1 km/h
Sensor: Nr:Datum:Temp:Abs-Feuchte:Windchill:Wind:
Aussen-T/F 776 26-04-2015 16:35:00 21.5 C 9.62 g/m*3 21.5 C 14.5 km/h
777 26-04-2015 16:40:00 21.2 C 9.45 g/m*3 21.2 C 11.3 km/h
778 26-04-2015 16:45:00 20.9 C 9.29 g/m*3 20.9 C 16.1 km/h
779 26-04-2015 16:50:00 20.6 C 9.49 g/m*3 20.6 C 16.1 km/h
780 26-04-2015 16:55:00 20.4 C 9.38 g/m*3 20.4 C 9.7 km/h
781 26-04-2015 17:00:00 20.3 C 9.5 g/m*3 20.3 C 9.7 km/h
782 26-04-2015 17:05:00 20.4 C 9.55 g/m*3 20.4 C 12.9 km/h
783 26-04-2015 17:10:00 20.4 C 9.38 g/m*3 20.4 C 11.3 km/h
784 26-04-2015 17:15:00 20.4 C 9.38 g/m*3 20.4 C 8.1 km/h
785 26-04-2015 17:20:00 20.6 C 9.49 g/m*3 20.6 C 8.1 km/h
786 26-04-2015 17:25:00 20.6 C 9.49 g/m*3 20.6 C 9.7 km/h
787 26-04-2015 17:30:00 20.6 C 9.49 g/m*3 20.6 C 8.1 km/h
788 26-04-2015 17:35:00 20.6 C 9.49 g/m*3 20.6 C 3.2 km/h
789 26-04-2015 17:40:00 20.5 C 9.43 g/m*3 20.5 C 3.2 km/h
790 26-04-2015 17:45:00 20.4 C 9.38 g/m*3 20.4 C 3.2 km/h
791 26-04-2015 17:50:00 20.4 C 9.55 g/m*3 20.4 C 4.8 km/h
792 26-04-2015 17:55:00 20.4 C 9.55 g/m*3 20.4 C 8.1 km/h
793 26-04-2015 18:00:00 20.4 C 9.38 g/m*3 20.4 C 9.7 km/h
794 26-04-2015 18:05:00 20.4 C 9.73 g/m*3 20.4 C 11.3 km/h
795 26-04-2015 18:10:00 20.3 C 9.32 g/m*3 20.3 C 8.1 km/h
796 26-04-2015 18:15:00 20.3 C 9.5 g/m*3 20.3 C 4.8 km/h
797 26-04-2015 18:20:00 20.6 C 9.31 g/m*3 20.6 C 6.4 km/h
798 26-04-2015 18:25:00 20.9 C 9.47 g/m*3 20.9 C 6.4 km/h
799 26-04-2015 18:30:00 21 C 9.53 g/m*3 21 C 11.3 km/h
800 26-04-2015 18:35:00 20.9 C 9.29 g/m*3 20.9 C 6.4 km/h
Sensor: Nr:Datum:Temp:Abs-Feuchte:Windchill:Wind:
Aussen-T/F 801 26-04-2015 18:40:00 20.7 C 9.54 g/m*3 20.7 C 4.8 km/h
802 26-04-2015 18:45:00 20.4 C 9.38 g/m*3 20.4 C 8.1 km/h
803 26-04-2015 18:50:00 20.2 C 9.27 g/m*3 20.2 C 3.2 km/h
804 26-04-2015 18:55:00 20.1 C 9.91 g/m*3 20.1 C 0 km/h
805 26-04-2015 19:00:00 19.9 C 10.31 g/m*3 19.9 C 0 km/h
806 26-04-2015 19:05:00 19.6 C 10.3 g/m*3 19.6 C 0 km/h
807 26-04-2015 19:10:00 19.3 C 10.45 g/m*3 19.3 C 0 km/h
808 26-04-2015 19:15:00 18.9 C 10.69 g/m*3 18.9 C 1.6 km/h
809 26-04-2015 19:20:00 18.5 C 10.6 g/m*3 18.5 C 0 km/h
810 26-04-2015 19:25:00 18.2 C 10.26 g/m*3 18.2 C 4.8 km/h
811 26-04-2015 19:30:00 18.2 C 10.41 g/m*3 18.2 C 3.2 km/h
812 26-04-2015 19:35:00 18.2 C 10.72 g/m*3 18.2 C 0 km/h
813 26-04-2015 19:40:00 18 C 10.75 g/m*3 18 C 0 km/h
814 26-04-2015 19:45:00 17.8 C 10.78 g/m*3 17.8 C 4.8 km/h
815 26-04-2015 19:50:00 17.7 C 10.26 g/m*3 17.7 C 9.7 km/h
816 26-04-2015 19:55:00 17.7 C 10.11 g/m*3 17.7 C 8.1 km/h
817 26-04-2015 20:00:00 17.7 C 10.11 g/m*3 17.7 C 6.4 km/h
818 26-04-2015 20:05:00 17.7 C 10.11 g/m*3 17.7 C 11.3 km/h
819 26-04-2015 20:10:00 17.6 C 10.2 g/m*3 17.6 C 9.7 km/h
820 26-04-2015 20:15:00 17.4 C 10.37 g/m*3 17.4 C 6.4 km/h
821 26-04-2015 20:20:00 17.3 C 10.31 g/m*3 17.3 C 4.8 km/h
822 26-04-2015 20:25:00 17.2 C 10.4 g/m*3 17.2 C 11.3 km/h
823 26-04-2015 20:30:00 16.9 C 10.21 g/m*3 16.9 C 11.3 km/h
824 26-04-2015 20:35:00 16.8 C 10.29 g/m*3 16.8 C 6.4 km/h
825 26-04-2015 20:40:00 16.7 C 10.37 g/m*3 16.7 C 8.1 km/h
Sensor: Nr:Datum:Temp:Abs-Feuchte:Windchill:Wind:
Aussen-T/F 826 26-04-2015 20:45:00 16.6 C 10.31 g/m*3 16.6 C 4.8 km/h
827 26-04-2015 20:50:00 16.4 C 10.33 g/m*3 16.4 C 8.1 km/h
828 26-04-2015 20:55:00 16.3 C 10.41 g/m*3 16.3 C 6.4 km/h
829 26-04-2015 21:00:00 16.3 C 10.54 g/m*3 16.3 C 1.6 km/h
830 26-04-2015 21:05:00 16.2 C 10.48 g/m*3 16.2 C 3.2 km/h
831 26-04-2015 21:10:00 16 C 10.49 g/m*3 16 C 0 km/h
832 26-04-2015 21:15:00 15.9 C 10.29 g/m*3 15.9 C 4.8 km/h
833 26-04-2015 21:20:00 15.8 C 10.23 g/m*3 15.8 C 3.2 km/h
834 26-04-2015 21:25:00 15.8 C 10.36 g/m*3 15.8 C 4.8 km/h
835 26-04-2015 21:30:00 15.9 C 10.56 g/m*3 15.9 C 8.1 km/h
836 26-04-2015 21:35:00 15.9 C 10.56 g/m*3 15.9 C 9.7 km/h
837 26-04-2015 21:40:00 15.8 C 10.77 g/m*3 15.8 C 6.4 km/h
838 26-04-2015 21:45:00 15.7 C 10.7 g/m*3 15.7 C 4.8 km/h
839 26-04-2015 21:50:00 15.6 C 10.91 g/m*3 15.6 C 6.4 km/h
840 26-04-2015 21:55:00 15.3 C 10.97 g/m*3 15.3 C 8.1 km/h
841 26-04-2015 22:00:00 15.2 C 11.16 g/m*3 15.2 C 4.8 km/h
842 26-04-2015 22:05:00 14.9 C 11.22 g/m*3 14.9 C 3.2 km/h
843 26-04-2015 22:10:00 14.7 C 11.21 g/m*3 14.7 C 0 km/h
844 26-04-2015 22:15:00 14.5 C 11.19 g/m*3 14.5 C 6.4 km/h
845 26-04-2015 22:20:00 14.3 C 11.06 g/m*3 14.3 C 0 km/h
846 26-04-2015 22:25:00 14.1 C 11.04 g/m*3 14.1 C 4.8 km/h
847 26-04-2015 22:30:00 13.9 C 11.03 g/m*3 13.9 C 1.6 km/h
848 26-04-2015 22:35:00 13.8 C 10.96 g/m*3 13.8 C 1.6 km/h
849 26-04-2015 22:40:00 13.7 C 11.01 g/m*3 13.7 C 1.6 km/h
850 26-04-2015 22:45:00 13.6 C 10.95 g/m*3 13.6 C 1.6 km/h
Sensor: Nr:Datum:Temp:Abs-Feuchte:Windchill:Wind:
Aussen-T/F 851 26-04-2015 22:50:00 13.6 C 10.95 g/m*3 13.6 C 1.6 km/h
852 26-04-2015 22:55:00 13.5 C 10.99 g/m*3 13.5 C 0 km/h
853 26-04-2015 23:00:00 13.4 C 10.93 g/m*3 13.4 C 1.6 km/h
854 26-04-2015 23:05:00 13.4 C 10.93 g/m*3 13.4 C 0 km/h
855 26-04-2015 23:10:00 13.3 C 10.86 g/m*3 13.3 C 0 km/h
856 26-04-2015 23:15:00 13.3 C 10.86 g/m*3 13.3 C 0 km/h
857 26-04-2015 23:20:00 13.3 C 10.98 g/m*3 13.3 C 0 km/h
858 26-04-2015 23:25:00 13.3 C 10.98 g/m*3 13.3 C 0 km/h
859 26-04-2015 23:30:00 13.3 C 10.98 g/m*3 13.3 C 0 km/h
860 26-04-2015 23:35:00 13.2 C 10.91 g/m*3 13.2 C 0 km/h
861 26-04-2015 23:40:00 13.2 C 10.91 g/m*3 13.2 C 0 km/h
862 26-04-2015 23:45:00 13.2 C 10.91 g/m*3 13.2 C 0 km/h
863 26-04-2015 23:50:00 13.2 C 10.91 g/m*3 13.2 C 0 km/h
864 26-04-2015 23:55:00 13.2 C 10.91 g/m*3 13.2 C 0 km/h
865 27-04-2015 00:00:00 13.1 C 10.84 g/m*3 13.1 C 0 km/h
866 27-04-2015 00:05:00 13.1 C 10.95 g/m*3 13.1 C 0 km/h
867 27-04-2015 00:10:00 13.1 C 10.95 g/m*3 13.1 C 0 km/h
868 27-04-2015 00:15:00 13.1 C 10.95 g/m*3 13.1 C 0 km/h
869 27-04-2015 00:20:00 13 C 10.89 g/m*3 13 C 0 km/h
870 27-04-2015 00:25:00 13 C 10.89 g/m*3 13 C 0 km/h
871 27-04-2015 00:30:00 13 C 10.89 g/m*3 13 C 0 km/h
872 27-04-2015 00:35:00 13 C 10.89 g/m*3 13 C 0 km/h
873 27-04-2015 00:40:00 13 C 10.89 g/m*3 13 C 0 km/h
874 27-04-2015 00:45:00 13.1 C 10.95 g/m*3 13.1 C 0 km/h
875 27-04-2015 00:50:00 13.1 C 10.95 g/m*3 13.1 C 0 km/h
Sensor: Nr:Datum:Temp:Abs-Feuchte:Windchill:Wind:
Aussen-T/F 876 27-04-2015 00:55:00 13.1 C 10.95 g/m*3 13.1 C 0 km/h
877 27-04-2015 01:00:00 13.1 C 10.95 g/m*3 13.1 C 0 km/h
878 27-04-2015 01:05:00 13.1 C 10.95 g/m*3 13.1 C 0 km/h
879 27-04-2015 01:10:00 13 C 10.89 g/m*3 13 C 0 km/h
880 27-04-2015 01:15:00 13 C 10.89 g/m*3 13 C 1.6 km/h
881 27-04-2015 01:20:00 13 C 10.89 g/m*3 13 C 0 km/h
882 27-04-2015 01:25:00 13 C 10.89 g/m*3 13 C 1.6 km/h
883 27-04-2015 01:30:00 12.9 C 10.82 g/m*3 12.9 C 0 km/h
884 27-04-2015 01:35:00 12.9 C 10.82 g/m*3 12.9 C 0 km/h
885 27-04-2015 01:40:00 12.9 C 10.82 g/m*3 12.9 C 0 km/h
886 27-04-2015 01:45:00 12.8 C 10.87 g/m*3 12.8 C 0 km/h
887 27-04-2015 01:50:00 12.8 C 10.87 g/m*3 12.8 C 0 km/h
888 27-04-2015 01:55:00 12.8 C 10.87 g/m*3 12.8 C 0 km/h
889 27-04-2015 02:00:00 12.8 C 10.87 g/m*3 12.8 C 0 km/h
890 27-04-2015 02:05:00 12.8 C 10.87 g/m*3 12.8 C 3.2 km/h
891 27-04-2015 02:10:00 12.8 C 10.87 g/m*3 12.8 C 9.7 km/h
892 27-04-2015 02:15:00 12.8 C 10.87 g/m*3 12.8 C 9.7 km/h
893 27-04-2015 02:20:00 12.8 C 10.87 g/m*3 12.8 C 0 km/h
894 27-04-2015 02:25:00 12.8 C 10.87 g/m*3 12.8 C 1.6 km/h
895 27-04-2015 02:30:00 12.8 C 10.87 g/m*3 12.8 C 3.2 km/h
896 27-04-2015 02:35:00 12.7 C 10.8 g/m*3 12.7 C 3.2 km/h
897 27-04-2015 02:40:00 12.7 C 10.8 g/m*3 12.7 C 3.2 km/h
898 27-04-2015 02:45:00 12.7 C 10.8 g/m*3 12.7 C 4.8 km/h
899 27-04-2015 02:50:00 12.7 C 10.69 g/m*3 12.7 C 1.6 km/h
900 27-04-2015 02:55:00 12.6 C 10.62 g/m*3 12.6 C 3.2 km/h
Sensor: Nr:Datum:Temp:Abs-Feuchte:Windchill:Wind:
Aussen-T/F 901 27-04-2015 03:00:00 12.6 C 10.62 g/m*3 12.6 C 3.2 km/h
902 27-04-2015 03:05:00 12.6 C 10.62 g/m*3 12.6 C 1.6 km/h
903 27-04-2015 03:10:00 12.6 C 10.62 g/m*3 12.6 C 0 km/h
904 27-04-2015 03:15:00 12.5 C 10.55 g/m*3 12.5 C 4.8 km/h
905 27-04-2015 03:20:00 12.4 C 10.6 g/m*3 12.4 C 0 km/h
906 27-04-2015 03:25:00 12.4 C 10.6 g/m*3 12.4 C 1.6 km/h
907 27-04-2015 03:30:00 12.4 C 10.6 g/m*3 12.4 C 0 km/h
908 27-04-2015 03:35:00 12.4 C 10.6 g/m*3 12.4 C 0 km/h
909 27-04-2015 03:40:00 12.3 C 10.53 g/m*3 12.3 C 0 km/h
910 27-04-2015 03:45:00 12.4 C 10.6 g/m*3 12.4 C 0 km/h
911 27-04-2015 03:50:00 12.4 C 10.6 g/m*3 12.4 C 1.6 km/h
912 27-04-2015 03:55:00 12.3 C 10.53 g/m*3 12.3 C 0 km/h
913 27-04-2015 04:00:00 12.3 C 10.53 g/m*3 12.3 C 0 km/h
914 27-04-2015 04:05:00 12.3 C 10.53 g/m*3 12.3 C 0 km/h
915 27-04-2015 04:10:00 12.3 C 10.53 g/m*3 12.3 C 0 km/h
916 27-04-2015 04:15:00 12.3 C 10.53 g/m*3 12.3 C 0 km/h
917 27-04-2015 04:20:00 12.3 C 10.53 g/m*3 12.3 C 0 km/h
918 27-04-2015 04:25:00 12.3 C 10.53 g/m*3 12.3 C 0 km/h
919 27-04-2015 04:30:00 12.3 C 10.53 g/m*3 12.3 C 0 km/h
920 27-04-2015 04:35:00 12.3 C 10.53 g/m*3 12.3 C 0 km/h
921 27-04-2015 04:40:00 12.3 C 10.53 g/m*3 12.3 C 0 km/h
922 27-04-2015 04:45:00 12.3 C 10.53 g/m*3 12.3 C 0 km/h
923 27-04-2015 04:50:00 12.3 C 10.53 g/m*3 12.3 C 0 km/h
924 27-04-2015 04:55:00 12.3 C 10.53 g/m*3 12.3 C 0 km/h
925 27-04-2015 05:00:00 12.2 C 10.47 g/m*3 12.2 C 1.6 km/h
Sensor: Nr:Datum:Temp:Abs-Feuchte:Windchill:Wind:
Aussen-T/F 926 27-04-2015 05:05:00 12.2 C 10.47 g/m*3 12.2 C 0 km/h
927 27-04-2015 05:10:00 12.2 C 10.47 g/m*3 12.2 C 0 km/h
928 27-04-2015 05:15:00 12.2 C 10.47 g/m*3 12.2 C 0 km/h
929 27-04-2015 05:20:00 12.2 C 10.47 g/m*3 12.2 C 0 km/h
930 27-04-2015 05:25:00 12.2 C 10.47 g/m*3 12.2 C 3.2 km/h
931 27-04-2015 05:30:00 12.2 C 10.47 g/m*3 12.2 C 0 km/h
932 27-04-2015 05:35:00 12.2 C 10.47 g/m*3 12.2 C 1.6 km/h
933 27-04-2015 05:40:00 12.2 C 10.47 g/m*3 12.2 C 0 km/h
934 27-04-2015 05:45:00 12.2 C 10.47 g/m*3 12.2 C 0 km/h
935 27-04-2015 05:50:00 12.2 C 10.47 g/m*3 12.2 C 0 km/h
936 27-04-2015 05:55:00 12.2 C 10.47 g/m*3 12.2 C 0 km/h
937 27-04-2015 06:00:00 12.2 C 10.47 g/m*3 12.2 C 0 km/h
938 27-04-2015 06:05:00 12.1 C 10.4 g/m*3 12.1 C 0 km/h
939 27-04-2015 06:10:00 12.1 C 10.4 g/m*3 12.1 C 0 km/h
940 27-04-2015 06:15:00 12.1 C 10.4 g/m*3 12.1 C 0 km/h
941 27-04-2015 06:20:00 12.1 C 10.4 g/m*3 12.1 C 0 km/h
942 27-04-2015 06:25:00 12.1 C 10.4 g/m*3 12.1 C 1.6 km/h
943 27-04-2015 06:30:00 12.1 C 10.4 g/m*3 12.1 C 3.2 km/h
944 27-04-2015 06:35:00 12.1 C 10.4 g/m*3 12.1 C 0 km/h
945 27-04-2015 06:40:00 12.1 C 10.4 g/m*3 12.1 C 3.2 km/h
946 27-04-2015 06:45:00 12.1 C 10.4 g/m*3 12.1 C 6.4 km/h
947 27-04-2015 06:50:00 12.1 C 10.4 g/m*3 12.1 C 6.4 km/h
948 27-04-2015 06:55:00 12.1 C 10.4 g/m*3 12.1 C 6.4 km/h
949 27-04-2015 07:00:00 12.1 C 10.4 g/m*3 12.1 C 4.8 km/h
950 27-04-2015 07:05:00 12.1 C 10.4 g/m*3 12.1 C 4.8 km/h
Sensor: Nr:Datum:Temp:Abs-Feuchte:Windchill:Wind:
Aussen-T/F 951 27-04-2015 07:10:00 12.1 C 10.4 g/m*3 12.1 C 9.7 km/h
952 27-04-2015 07:15:00 12 C 10.34 g/m*3 12 C 9.7 km/h
953 27-04-2015 07:20:00 11.9 C 10.27 g/m*3 11.9 C 9.7 km/h
954 27-04-2015 07:25:00 11.8 C 10.21 g/m*3 11.8 C 12.9 km/h
955 27-04-2015 07:30:00 11.6 C 9.98 g/m*3 11.6 C 12.9 km/h
956 27-04-2015 07:35:00 11.4 C 9.85 g/m*3 11.4 C 16.1 km/h
957 27-04-2015 07:40:00 11.4 C 9.85 g/m*3 11.4 C 11.3 km/h
958 27-04-2015 07:45:00 11.2 C 9.73 g/m*3 11.2 C 12.9 km/h
959 27-04-2015 07:50:00 11.1 C 9.67 g/m*3 11.1 C 4.8 km/h
960 27-04-2015 07:55:00 11.1 C 9.67 g/m*3 11.1 C 4.8 km/h
961 27-04-2015 08:00:00 11 C 9.51 g/m*3 11 C 4.8 km/h
962 27-04-2015 08:05:00 10.9 C 9.45 g/m*3 10.9 C 3.2 km/h
963 27-04-2015 08:10:00 11 C 9.51 g/m*3 10.52 C 6.4 km/h
964 27-04-2015 08:15:00 11.1 C 9.57 g/m*3 11.1 C 3.2 km/h
965 27-04-2015 08:20:00 11.1 C 9.57 g/m*3 11.1 C 1.6 km/h
966 27-04-2015 08:25:00 11.1 C 9.57 g/m*3 11.1 C 0 km/h
967 27-04-2015 08:30:00 11.1 C 9.57 g/m*3 11.1 C 6.4 km/h
968 27-04-2015 08:35:00 11.2 C 9.63 g/m*3 11.2 C 3.2 km/h
969 27-04-2015 08:40:00 11.2 C 9.63 g/m*3 11.2 C 3.2 km/h
970 27-04-2015 08:45:00 11.2 C 9.63 g/m*3 11.2 C 1.6 km/h
971 27-04-2015 08:50:00 11.2 C 9.63 g/m*3 11.2 C 1.6 km/h
972 27-04-2015 08:55:00 11.2 C 9.63 g/m*3 11.2 C 1.6 km/h
973 27-04-2015 09:00:00 11.3 C 9.69 g/m*3 11.3 C 1.6 km/h
974 27-04-2015 09:05:00 11.4 C 9.75 g/m*3 11.4 C 4.8 km/h
975 27-04-2015 09:10:00 11.4 C 9.65 g/m*3 11.4 C 11.3 km/h
Sensor: Nr:Datum:Temp:Abs-Feuchte:Windchill:Wind:
Aussen-T/F 976 27-04-2015 09:15:00 11.5 C 9.71 g/m*3 11.5 C 3.2 km/h
977 27-04-2015 09:20:00 11.6 C 9.77 g/m*3 11.6 C 4.8 km/h
978 27-04-2015 09:25:00 11.7 C 9.83 g/m*3 11.7 C 3.2 km/h
979 27-04-2015 09:30:00 11.8 C 10 g/m*3 11.8 C 0 km/h
980 27-04-2015 09:35:00 11.8 C 10 g/m*3 11.8 C 0 km/h
981 27-04-2015 09:40:00 11.9 C 9.96 g/m*3 11.9 C 4.8 km/h
982 27-04-2015 09:45:00 12 C 10.02 g/m*3 12 C 1.6 km/h
983 27-04-2015 09:50:00 12.1 C 10.08 g/m*3 12.1 C 3.2 km/h
984 27-04-2015 09:55:00 12.2 C 10.14 g/m*3 12.2 C 1.6 km/h
985 27-04-2015 10:00:00 12.3 C 10.1 g/m*3 12.3 C 6.4 km/h
986 27-04-2015 10:05:00 12.3 C 10.1 g/m*3 12.3 C 11.3 km/h
987 27-04-2015 10:10:00 12.2 C 10.04 g/m*3 12.2 C 8.1 km/h
988 27-04-2015 10:15:00 11.9 C 9.74 g/m*3 11.9 C 9.7 km/h
989 27-04-2015 10:20:00 11.8 C 9.79 g/m*3 11.8 C 11.3 km/h
990 27-04-2015 10:25:00 11.6 C 9.56 g/m*3 11.6 C 9.7 km/h
991 27-04-2015 10:30:00 11.6 C 9.67 g/m*3 11.6 C 11.3 km/h
992 27-04-2015 10:35:00 11.5 C 9.61 g/m*3 11.5 C 8.1 km/h
993 27-04-2015 10:40:00 11.5 C 9.71 g/m*3 11.5 C 16.1 km/h
994 27-04-2015 10:45:00 11.5 C 9.71 g/m*3 11.5 C 8.1 km/h
995 27-04-2015 10:50:00 11.4 C 9.55 g/m*3 11.4 C 6.4 km/h
996 27-04-2015 10:55:00 11.4 C 9.55 g/m*3 11.4 C 8.1 km/h
997 27-04-2015 11:00:00 11.3 C 9.49 g/m*3 11.3 C 11.3 km/h
998 27-04-2015 11:05:00 11.3 C 9.59 g/m*3 11.3 C 6.4 km/h
999 27-04-2015 11:10:00 11.3 C 9.49 g/m*3 11.3 C 12.9 km/h
1000 27-04-2015 11:15:00 11.4 C 9.65 g/m*3 11.4 C 9.7 km/h
Sensor: Nr:Datum:Temp:Abs-Feuchte:Windchill:Wind:
Aussen-T/F 1001 27-04-2015 11:20:00 11.3 C 9.49 g/m*3 11.3 C 11.3 km/h
1002 27-04-2015 11:25:00 11.2 C 9.43 g/m*3 11.2 C 12.9 km/h
1003 27-04-2015 11:30:00 11.2 C 9.53 g/m*3 11.2 C 11.3 km/h
1004 27-04-2015 11:35:00 11.1 C 9.47 g/m*3 11.1 C 12.9 km/h
1005 27-04-2015 11:40:00 10.9 C 9.25 g/m*3 9.51 C 11.3 km/h
1006 27-04-2015 11:45:00 10.8 C 9.29 g/m*3 9.38 C 11.3 km/h
1007 27-04-2015 11:50:00 10.8 C 9.29 g/m*3 9.38 C 11.3 km/h
1008 27-04-2015 11:55:00 10.7 C 9.23 g/m*3 10.18 C 6.4 km/h
1009 27-04-2015 12:00:00 10.6 C 9.17 g/m*3 10.06 C 6.4 km/h
1010 27-04-2015 12:05:00 10.5 C 9.12 g/m*3 9.95 C 6.4 km/h
1011 27-04-2015 12:10:00 10.4 C 9.06 g/m*3 9.46 C 8.1 km/h
1012 27-04-2015 12:15:00 10.4 C 9.06 g/m*3 8.67 C 12.9 km/h
1013 27-04-2015 12:20:00 10.3 C 9 g/m*3 9.34 C 8.1 km/h
1014 27-04-2015 12:25:00 10.3 C 9 g/m*3 10.3 C 3.2 km/h
1015 27-04-2015 12:30:00 10.3 C 9 g/m*3 9.04 C 9.7 km/h
1016 27-04-2015 12:35:00 10.2 C 8.95 g/m*3 8.92 C 9.7 km/h
1017 27-04-2015 12:40:00 10.3 C 9.1 g/m*3 9.34 C 8.1 km/h
1018 27-04-2015 12:45:00 10.3 C 9 g/m*3 9.04 C 9.7 km/h
1019 27-04-2015 12:50:00 10.2 C 8.95 g/m*3 9.22 C 8.1 km/h
1020 27-04-2015 12:55:00 10.2 C 8.95 g/m*3 9.6 C 6.4 km/h
1021 27-04-2015 13:00:00 10.2 C 8.95 g/m*3 10.2 C 0 km/h
1022 27-04-2015 13:05:00 10.2 C 9.04 g/m*3 10.2 C 4.8 km/h
1023 27-04-2015 13:10:00 10.2 C 9.04 g/m*3 10.2 C 3.2 km/h
1024 27-04-2015 13:15:00 10.3 C 9.1 g/m*3 10.3 C 3.2 km/h
1025 27-04-2015 13:20:00 10.2 C 8.95 g/m*3 9.6 C 6.4 km/h
Sensor: Nr:Datum:Temp:Abs-Feuchte:Windchill:Wind:
Aussen-T/F 1026 27-04-2015 13:25:00 10.2 C 9.04 g/m*3 10.2 C 4.8 km/h
1027 27-04-2015 13:30:00 10.2 C 9.04 g/m*3 10.2 C 4.8 km/h
1028 27-04-2015 13:35:00 10.3 C 9.1 g/m*3 9.72 C 6.4 km/h
1029 27-04-2015 13:40:00 10.2 C 8.95 g/m*3 9.6 C 6.4 km/h
1030 27-04-2015 13:45:00 10.2 C 8.95 g/m*3 9.22 C 8.1 km/h
1031 27-04-2015 13:50:00 10.2 C 9.04 g/m*3 10.2 C 4.8 km/h
1032 27-04-2015 13:55:00 10.2 C 8.95 g/m*3 8.66 C 11.3 km/h
1033 27-04-2015 14:00:00 10.2 C 8.95 g/m*3 9.6 C 6.4 km/h
1034 27-04-2015 14:05:00 10.2 C 8.95 g/m*3 9.22 C 8.1 km/h
1035 27-04-2015 14:10:00 10.1 C 8.89 g/m*3 9.1 C 8.1 km/h
1036 27-04-2015 14:15:00 10.1 C 8.89 g/m*3 9.48 C 6.4 km/h
1037 27-04-2015 14:20:00 10.1 C 8.89 g/m*3 9.1 C 8.1 km/h
1038 27-04-2015 14:25:00 10.1 C 8.89 g/m*3 10.1 C 3.2 km/h
1039 27-04-2015 14:30:00 10.1 C 8.89 g/m*3 10.1 C 4.8 km/h
1040 27-04-2015 14:35:00 10 C 8.83 g/m*3 9.37 C 6.4 km/h
1041 27-04-2015 14:40:00 9.9 C 8.78 g/m*3 9.25 C 6.4 km/h
1042 27-04-2015 14:45:00 9.8 C 8.72 g/m*3 9.14 C 6.4 km/h
1043 27-04-2015 14:50:00 9.8 C 8.72 g/m*3 7.73 C 14.5 km/h
1044 27-04-2015 14:55:00 9.7 C 8.57 g/m*3 8.06 C 11.3 km/h
1045 27-04-2015 15:00:00 9.7 C 8.67 g/m*3 9.7 C 4.8 km/h
1046 27-04-2015 15:05:00 9.8 C 8.72 g/m*3 9.8 C 4.8 km/h
1047 27-04-2015 15:10:00 9.8 C 8.72 g/m*3 9.8 C 4.8 km/h
1048 27-04-2015 15:15:00 9.7 C 8.67 g/m*3 8.33 C 9.7 km/h
1049 27-04-2015 15:20:00 9.6 C 8.61 g/m*3 8.21 C 9.7 km/h
1050 27-04-2015 15:25:00 9.5 C 8.47 g/m*3 8.4 C 8.1 km/h
Sensor: Nr:Datum:Temp:Abs-Feuchte:Windchill:Wind:
Aussen-T/F 1051 27-04-2015 15:30:00 9.4 C 8.41 g/m*3 7.7 C 11.3 km/h
1052 27-04-2015 15:35:00 9.4 C 8.41 g/m*3 9.4 C 1.6 km/h
1053 27-04-2015 15:40:00 9.4 C 8.41 g/m*3 7.97 C 9.7 km/h
1054 27-04-2015 15:45:00 9.4 C 8.41 g/m*3 9.4 C 3.2 km/h
1055 27-04-2015 15:50:00 9.4 C 8.5 g/m*3 8.68 C 6.4 km/h
1056 27-04-2015 15:55:00 9.4 C 8.41 g/m*3 9.4 C 4.8 km/h
1057 27-04-2015 16:00:00 9.4 C 8.41 g/m*3 7.97 C 9.7 km/h
1058 27-04-2015 16:05:00 9.4 C 8.41 g/m*3 7.97 C 9.7 km/h
1059 27-04-2015 16:10:00 9.3 C 8.36 g/m*3 8.16 C 8.1 km/h
1060 27-04-2015 16:15:00 9.2 C 8.3 g/m*3 9.2 C 4.8 km/h
1061 27-04-2015 16:20:00 9.2 C 8.3 g/m*3 9.2 C 4.8 km/h
1062 27-04-2015 16:25:00 9.2 C 8.3 g/m*3 8.05 C 8.1 km/h
1063 27-04-2015 16:30:00 9.2 C 8.3 g/m*3 9.2 C 4.8 km/h
1064 27-04-2015 16:35:00 9.1 C 8.25 g/m*3 7.61 C 9.7 km/h
1065 27-04-2015 16:40:00 9.1 C 8.25 g/m*3 9.1 C 4.8 km/h
1066 27-04-2015 16:45:00 9.1 C 8.16 g/m*3 7.61 C 9.7 km/h
1067 27-04-2015 16:50:00 8.9 C 8.06 g/m*3 7.69 C 8.1 km/h
1068 27-04-2015 16:55:00 8.9 C 8.15 g/m*3 8.1 C 6.4 km/h
1069 27-04-2015 17:00:00 8.8 C 8.01 g/m*3 6.97 C 11.3 km/h
1070 27-04-2015 17:05:00 8.8 C 8.09 g/m*3 7.98 C 6.4 km/h
1071 27-04-2015 17:10:00 8.8 C 8.01 g/m*3 7.25 C 9.7 km/h
1072 27-04-2015 17:15:00 8.8 C 8.01 g/m*3 7.98 C 6.4 km/h
1073 27-04-2015 17:20:00 8.7 C 7.96 g/m*3 8.7 C 1.6 km/h
1074 27-04-2015 17:25:00 8.7 C 8.04 g/m*3 8.7 C 1.6 km/h
1075 27-04-2015 17:30:00 8.7 C 8.04 g/m*3 7.87 C 6.4 km/h
Sensor: Nr:Datum:Temp:Abs-Feuchte:Windchill:Wind:
Aussen-T/F 1076 27-04-2015 17:35:00 8.7 C 8.04 g/m*3 8.7 C 3.2 km/h
1077 27-04-2015 17:40:00 8.7 C 8.04 g/m*3 7.13 C 9.7 km/h
1078 27-04-2015 17:45:00 8.6 C 7.99 g/m*3 8.6 C 1.6 km/h
1079 27-04-2015 17:50:00 8.6 C 7.99 g/m*3 8.6 C 4.8 km/h
1080 27-04-2015 17:55:00 8.6 C 7.99 g/m*3 8.6 C 1.6 km/h
1081 27-04-2015 18:00:00 8.6 C 7.99 g/m*3 8.6 C 1.6 km/h
1082 27-04-2015 18:05:00 8.6 C 7.99 g/m*3 8.6 C 3.2 km/h
1083 27-04-2015 18:10:00 8.5 C 7.94 g/m*3 8.5 C 1.6 km/h
1084 27-04-2015 18:15:00 8.4 C 7.89 g/m*3 8.4 C 1.6 km/h
1085 27-04-2015 18:20:00 8.4 C 7.89 g/m*3 8.4 C 3.2 km/h
1086 27-04-2015 18:25:00 8.4 C 7.89 g/m*3 8.4 C 4.8 km/h
1087 27-04-2015 18:30:00 8.5 C 7.94 g/m*3 8.5 C 4.8 km/h
1088 27-04-2015 18:35:00 8.4 C 7.89 g/m*3 8.4 C 3.2 km/h
1089 27-04-2015 18:40:00 8.4 C 7.89 g/m*3 8.4 C 3.2 km/h
1090 27-04-2015 18:45:00 8.3 C 7.84 g/m*3 8.3 C 3.2 km/h
1091 27-04-2015 18:50:00 8.3 C 7.84 g/m*3 8.3 C 3.2 km/h
1092 27-04-2015 18:55:00 8.3 C 7.84 g/m*3 8.3 C 1.6 km/h
1093 27-04-2015 19:00:00 8.3 C 7.84 g/m*3 6.66 C 9.7 km/h
1094 27-04-2015 19:05:00 8.3 C 7.84 g/m*3 8.3 C 1.6 km/h
1095 27-04-2015 19:10:00 8.2 C 7.79 g/m*3 6.54 C 9.7 km/h
1096 27-04-2015 19:15:00 8.2 C 7.79 g/m*3 8.2 C 4.8 km/h
1097 27-04-2015 19:20:00 8.1 C 7.74 g/m*3 8.1 C 4.8 km/h
1098 27-04-2015 19:25:00 8.1 C 7.74 g/m*3 7.17 C 6.4 km/h
1099 27-04-2015 19:30:00 8.1 C 7.74 g/m*3 8.1 C 1.6 km/h
1100 27-04-2015 19:35:00 8.1 C 7.74 g/m*3 8.1 C 3.2 km/h
Sensor: Nr:Datum:Temp:Abs-Feuchte:Windchill:Wind:
Aussen-T/F 1101 27-04-2015 19:40:00 8 C 7.69 g/m*3 8 C 4.8 km/h
1102 27-04-2015 19:45:00 8 C 7.69 g/m*3 8 C 4.8 km/h
1103 27-04-2015 19:50:00 8 C 7.69 g/m*3 7.06 C 6.4 km/h
1104 27-04-2015 19:55:00 7.9 C 7.56 g/m*3 7.9 C 1.6 km/h
1105 27-04-2015 20:00:00 7.9 C 7.56 g/m*3 6.94 C 6.4 km/h
1106 27-04-2015 20:05:00 7.8 C 7.51 g/m*3 7.8 C 4.8 km/h
1107 27-04-2015 20:10:00 7.8 C 7.51 g/m*3 6.83 C 6.4 km/h
1108 27-04-2015 20:15:00 7.8 C 7.51 g/m*3 7.8 C 1.6 km/h
1109 27-04-2015 20:20:00 7.7 C 7.46 g/m*3 7.7 C 3.2 km/h
1110 27-04-2015 20:25:00 7.7 C 7.46 g/m*3 6.28 C 8.1 km/h
1111 27-04-2015 20:30:00 7.7 C 7.38 g/m*3 7.7 C 1.6 km/h
1112 27-04-2015 20:35:00 7.7 C 7.46 g/m*3 7.7 C 1.6 km/h
1113 27-04-2015 20:40:00 7.7 C 7.46 g/m*3 5.94 C 9.7 km/h
1114 27-04-2015 20:45:00 7.7 C 7.46 g/m*3 7.7 C 1.6 km/h
1115 27-04-2015 20:50:00 7.6 C 7.41 g/m*3 7.6 C 3.2 km/h
1116 27-04-2015 20:55:00 7.7 C 7.46 g/m*3 7.7 C 0 km/h
1117 27-04-2015 21:00:00 7.7 C 7.46 g/m*3 7.7 C 0 km/h
1118 27-04-2015 21:05:00 7.7 C 7.54 g/m*3 7.7 C 1.6 km/h
1119 27-04-2015 21:10:00 7.7 C 7.54 g/m*3 7.7 C 4.8 km/h
1120 27-04-2015 21:15:00 7.7 C 7.54 g/m*3 7.7 C 0 km/h
1121 27-04-2015 21:20:00 7.7 C 7.54 g/m*3 7.7 C 1.6 km/h
1122 27-04-2015 21:25:00 7.7 C 7.54 g/m*3 7.7 C 0 km/h
1123 27-04-2015 21:30:00 7.7 C 7.62 g/m*3 7.7 C 0 km/h
1124 27-04-2015 21:35:00 7.6 C 7.49 g/m*3 7.6 C 0 km/h
1125 27-04-2015 21:40:00 7.6 C 7.57 g/m*3 7.6 C 3.2 km/h
Sensor: Nr:Datum:Temp:Abs-Feuchte:Windchill:Wind:
Aussen-T/F 1126 27-04-2015 21:45:00 7.6 C 7.57 g/m*3 7.6 C 0 km/h
1127 27-04-2015 21:50:00 7.6 C 7.57 g/m*3 5.26 C 12.9 km/h
1128 27-04-2015 21:55:00 7.6 C 7.57 g/m*3 7.6 C 3.2 km/h
1129 27-04-2015 22:00:00 7.7 C 7.62 g/m*3 7.7 C 0 km/h
1130 27-04-2015 22:05:00 7.7 C 7.62 g/m*3 7.7 C 1.6 km/h
1131 27-04-2015 22:10:00 7.7 C 7.62 g/m*3 7.7 C 0 km/h
1132 27-04-2015 22:15:00 7.6 C 7.57 g/m*3 7.6 C 0 km/h
1133 27-04-2015 22:20:00 7.6 C 7.57 g/m*3 7.6 C 3.2 km/h
1134 27-04-2015 22:25:00 7.6 C 7.49 g/m*3 7.6 C 0 km/h
1135 27-04-2015 22:30:00 7.6 C 7.49 g/m*3 7.6 C 1.6 km/h
1136 27-04-2015 22:35:00 7.6 C 7.57 g/m*3 7.6 C 3.2 km/h
1137 27-04-2015 22:40:00 7.6 C 7.49 g/m*3 7.6 C 0 km/h
1138 27-04-2015 22:45:00 7.7 C 7.62 g/m*3 7.7 C 0 km/h
1139 27-04-2015 22:50:00 7.6 C 7.57 g/m*3 7.6 C 0 km/h
1140 27-04-2015 22:55:00 7.6 C 7.57 g/m*3 7.6 C 0 km/h
1141 27-04-2015 23:00:00 7.6 C 7.57 g/m*3 7.6 C 0 km/h
1142 27-04-2015 23:05:00 7.5 C 7.52 g/m*3 7.5 C 0 km/h
1143 27-04-2015 23:10:00 7.4 C 7.48 g/m*3 7.4 C 0 km/h
1144 27-04-2015 23:15:00 7.4 C 7.48 g/m*3 7.4 C 3.2 km/h
1145 27-04-2015 23:20:00 7.4 C 7.48 g/m*3 7.4 C 0 km/h
1146 27-04-2015 23:25:00 7.4 C 7.48 g/m*3 7.4 C 0 km/h
1147 27-04-2015 23:30:00 7.4 C 7.55 g/m*3 7.4 C 0 km/h
1148 27-04-2015 23:35:00 7.4 C 7.55 g/m*3 7.4 C 0 km/h
1149 27-04-2015 23:40:00 7.4 C 7.55 g/m*3 7.4 C 0 km/h
1150 27-04-2015 23:45:00 7.4 C 7.55 g/m*3 7.4 C 0 km/h
Sensor: Nr:Datum:Temp:Abs-Feuchte:Windchill:Wind:
Aussen-T/F 1151 27-04-2015 23:50:00 7.3 C 7.51 g/m*3 7.3 C 0 km/h
1152 27-04-2015 23:55:00 7.3 C 7.51 g/m*3 7.3 C 0 km/h
1153 28-04-2015 00:00:00 7.3 C 7.51 g/m*3 7.3 C 0 km/h
1154 28-04-2015 00:05:00 7.3 C 7.51 g/m*3 7.3 C 0 km/h
1155 28-04-2015 00:10:00 7.3 C 7.51 g/m*3 7.3 C 0 km/h
1156 28-04-2015 00:15:00 7.3 C 7.51 g/m*3 7.3 C 0 km/h
1157 28-04-2015 00:20:00 7.2 C 7.46 g/m*3 7.2 C 0 km/h
1158 28-04-2015 00:25:00 7.2 C 7.46 g/m*3 7.2 C 0 km/h
1159 28-04-2015 00:30:00 7.2 C 7.46 g/m*3 7.2 C 1.6 km/h
1160 28-04-2015 00:35:00 7.2 C 7.46 g/m*3 7.2 C 1.6 km/h
1161 28-04-2015 00:40:00 7.2 C 7.46 g/m*3 7.2 C 1.6 km/h
1162 28-04-2015 00:45:00 7.2 C 7.46 g/m*3 7.2 C 0 km/h
1163 28-04-2015 00:50:00 7.2 C 7.46 g/m*3 7.2 C 1.6 km/h
1164 28-04-2015 00:55:00 7.2 C 7.46 g/m*3 7.2 C 0 km/h
1165 28-04-2015 01:00:00 7.2 C 7.46 g/m*3 7.2 C 1.6 km/h
1166 28-04-2015 01:05:00 7.2 C 7.46 g/m*3 7.2 C 1.6 km/h
1167 28-04-2015 01:10:00 7.2 C 7.46 g/m*3 7.2 C 0 km/h
1168 28-04-2015 01:15:00 7.2 C 7.46 g/m*3 7.2 C 0 km/h
1169 28-04-2015 01:20:00 7.2 C 7.46 g/m*3 7.2 C 0 km/h
1170 28-04-2015 01:25:00 7.2 C 7.46 g/m*3 7.2 C 3.2 km/h
1171 28-04-2015 01:30:00 7.2 C 7.38 g/m*3 6.13 C 6.4 km/h
1172 28-04-2015 01:35:00 7.3 C 7.43 g/m*3 7.3 C 0 km/h
1173 28-04-2015 01:40:00 7.3 C 7.43 g/m*3 7.3 C 4.8 km/h
1174 28-04-2015 01:45:00 7.3 C 7.35 g/m*3 6.25 C 6.4 km/h
1175 28-04-2015 01:50:00 7.3 C 7.35 g/m*3 7.3 C 4.8 km/h
Sensor: Nr:Datum:Temp:Abs-Feuchte:Windchill:Wind:
Aussen-T/F 1176 28-04-2015 01:55:00 7.4 C 7.32 g/m*3 7.4 C 4.8 km/h
1177 28-04-2015 02:00:00 7.5 C 7.36 g/m*3 6.48 C 6.4 km/h
1178 28-04-2015 02:05:00 7.6 C 7.33 g/m*3 5.02 C 14.5 km/h
1179 28-04-2015 02:10:00 7.7 C 7.22 g/m*3 5.94 C 9.7 km/h
1180 28-04-2015 02:15:00 7.8 C 7.26 g/m*3 7.8 C 4.8 km/h
1181 28-04-2015 02:20:00 7.8 C 7.26 g/m*3 6.06 C 9.7 km/h
1182 28-04-2015 02:25:00 7.8 C 7.35 g/m*3 7.8 C 3.2 km/h
1183 28-04-2015 02:30:00 7.8 C 7.35 g/m*3 7.8 C 3.2 km/h
1184 28-04-2015 02:35:00 7.7 C 7.38 g/m*3 7.7 C 1.6 km/h
1185 28-04-2015 02:40:00 7.7 C 7.38 g/m*3 7.7 C 0 km/h
1186 28-04-2015 02:45:00 7.6 C 7.33 g/m*3 7.6 C 1.6 km/h
1187 28-04-2015 02:50:00 7.5 C 7.36 g/m*3 7.5 C 0 km/h
1188 28-04-2015 02:55:00 7.5 C 7.36 g/m*3 7.5 C 1.6 km/h
1189 28-04-2015 03:00:00 7.4 C 7.24 g/m*3 7.4 C 1.6 km/h
1190 28-04-2015 03:05:00 7.4 C 7.32 g/m*3 7.4 C 1.6 km/h
1191 28-04-2015 03:10:00 7.3 C 7.27 g/m*3 7.3 C 4.8 km/h
1192 28-04-2015 03:15:00 7.3 C 7.27 g/m*3 7.3 C 3.2 km/h
1193 28-04-2015 03:20:00 7.3 C 7.27 g/m*3 7.3 C 1.6 km/h
1194 28-04-2015 03:25:00 7.3 C 7.19 g/m*3 7.3 C 1.6 km/h
1195 28-04-2015 03:30:00 7.3 C 7.27 g/m*3 7.3 C 1.6 km/h
1196 28-04-2015 03:35:00 7.3 C 7.27 g/m*3 7.3 C 0 km/h
1197 28-04-2015 03:40:00 7.2 C 7.22 g/m*3 7.2 C 0 km/h
1198 28-04-2015 03:45:00 7.1 C 7.18 g/m*3 7.1 C 3.2 km/h
1199 28-04-2015 03:50:00 7 C 6.97 g/m*3 7 C 3.2 km/h
1200 28-04-2015 03:55:00 7 C 6.9 g/m*3 7 C 4.8 km/h
Sensor: Nr:Datum:Temp:Abs-Feuchte:Windchill:Wind:
Aussen-T/F 1201 28-04-2015 04:00:00 7 C 6.9 g/m*3 7 C 3.2 km/h
1202 28-04-2015 04:05:00 6.9 C 6.77 g/m*3 6.9 C 3.2 km/h
1203 28-04-2015 04:10:00 6.9 C 6.77 g/m*3 6.9 C 3.2 km/h
1204 28-04-2015 04:15:00 6.9 C 6.77 g/m*3 6.9 C 3.2 km/h
1205 28-04-2015 04:20:00 6.9 C 6.77 g/m*3 5.34 C 8.1 km/h
1206 28-04-2015 04:25:00 6.9 C 6.77 g/m*3 5.79 C 6.4 km/h
1207 28-04-2015 04:30:00 6.9 C 6.77 g/m*3 6.9 C 3.2 km/h
1208 28-04-2015 04:35:00 6.7 C 6.84 g/m*3 6.7 C 0 km/h
1209 28-04-2015 04:40:00 6.6 C 6.87 g/m*3 6.6 C 3.2 km/h
1210 28-04-2015 04:45:00 6.5 C 6.82 g/m*3 6.5 C 1.6 km/h
1211 28-04-2015 04:50:00 6.4 C 6.78 g/m*3 5.21 C 6.4 km/h
1212 28-04-2015 04:55:00 6.4 C 6.78 g/m*3 6.4 C 1.6 km/h
1213 28-04-2015 05:00:00 6.4 C 6.78 g/m*3 6.4 C 4.8 km/h
1214 28-04-2015 05:05:00 6.3 C 6.74 g/m*3 6.3 C 1.6 km/h
1215 28-04-2015 05:10:00 6.3 C 6.74 g/m*3 6.3 C 4.8 km/h
1216 28-04-2015 05:15:00 6.3 C 6.74 g/m*3 5.1 C 6.4 km/h
1217 28-04-2015 05:20:00 6.3 C 6.74 g/m*3 5.1 C 6.4 km/h
1218 28-04-2015 05:25:00 6.2 C 6.69 g/m*3 6.2 C 1.6 km/h
1219 28-04-2015 05:30:00 6.1 C 6.58 g/m*3 6.1 C 3.2 km/h
1220 28-04-2015 05:35:00 6.1 C 6.58 g/m*3 4.04 C 9.7 km/h
1221 28-04-2015 05:40:00 6 C 6.53 g/m*3 4.75 C 6.4 km/h
1222 28-04-2015 05:45:00 5.9 C 6.49 g/m*3 5.9 C 1.6 km/h
1223 28-04-2015 05:50:00 5.9 C 6.49 g/m*3 5.9 C 4.8 km/h
1224 28-04-2015 05:55:00 5.8 C 6.45 g/m*3 4.05 C 8.1 km/h
1225 28-04-2015 06:00:00 5.8 C 6.45 g/m*3 3.68 C 9.7 km/h
Sensor: Nr:Datum:Temp:Abs-Feuchte:Windchill:Wind:
Aussen-T/F 1226 28-04-2015 06:05:00 5.8 C 6.45 g/m*3 4.52 C 6.4 km/h
1227 28-04-2015 06:10:00 5.7 C 6.4 g/m*3 5.7 C 3.2 km/h
1228 28-04-2015 06:15:00 5.7 C 6.4 g/m*3 5.7 C 3.2 km/h
1229 28-04-2015 06:20:00 5.6 C 6.36 g/m*3 5.6 C 4.8 km/h
1230 28-04-2015 06:25:00 5.5 C 6.32 g/m*3 5.5 C 1.6 km/h
1231 28-04-2015 06:30:00 5.4 C 6.28 g/m*3 5.4 C 1.6 km/h
1232 28-04-2015 06:35:00 5.4 C 6.28 g/m*3 5.4 C 0 km/h
1233 28-04-2015 06:40:00 5.3 C 6.31 g/m*3 3.46 C 8.1 km/h
1234 28-04-2015 06:45:00 5.3 C 6.31 g/m*3 5.3 C 4.8 km/h
1235 28-04-2015 06:50:00 5.2 C 6.27 g/m*3 5.2 C 0 km/h
1236 28-04-2015 06:55:00 5.2 C 6.33 g/m*3 5.2 C 0 km/h
1237 28-04-2015 07:00:00 5.1 C 6.29 g/m*3 5.1 C 4.8 km/h
1238 28-04-2015 07:05:00 5.1 C 6.29 g/m*3 5.1 C 0 km/h
1239 28-04-2015 07:10:00 5.1 C 6.22 g/m*3 5.1 C 1.6 km/h
1240 28-04-2015 07:15:00 5.1 C 6.22 g/m*3 5.1 C 0 km/h
1241 28-04-2015 07:20:00 5.2 C 6.33 g/m*3 5.2 C 0 km/h
1242 28-04-2015 07:25:00 5.2 C 6.33 g/m*3 5.2 C 1.6 km/h
1243 28-04-2015 07:30:00 5.2 C 6.4 g/m*3 5.2 C 1.6 km/h
1244 28-04-2015 07:35:00 5.2 C 6.4 g/m*3 5.2 C 1.6 km/h
1245 28-04-2015 07:40:00 5.2 C 6.4 g/m*3 5.2 C 1.6 km/h
1246 28-04-2015 07:45:00 5.1 C 6.29 g/m*3 5.1 C 0 km/h
1247 28-04-2015 07:50:00 5.2 C 6.4 g/m*3 5.2 C 0 km/h
1248 28-04-2015 07:55:00 5.2 C 6.4 g/m*3 5.2 C 0 km/h
1249 28-04-2015 08:00:00 5.2 C 6.4 g/m*3 5.2 C 0 km/h
1250 28-04-2015 08:05:00 5.1 C 6.36 g/m*3 5.1 C 0 km/h
Sensor: Nr:Datum:Temp:Abs-Feuchte:Windchill:Wind:
Aussen-T/F 1251 28-04-2015 08:10:00 5.2 C 6.47 g/m*3 5.2 C 1.6 km/h
1252 28-04-2015 08:15:00 5.2 C 6.47 g/m*3 5.2 C 0 km/h
1253 28-04-2015 08:20:00 5.3 C 6.52 g/m*3 5.3 C 0 km/h
1254 28-04-2015 08:25:00 5.3 C 6.52 g/m*3 5.3 C 0 km/h
1255 28-04-2015 08:30:00 5.4 C 6.49 g/m*3 5.4 C 3.2 km/h
1256 28-04-2015 08:35:00 5.6 C 6.43 g/m*3 5.6 C 4.8 km/h
1257 28-04-2015 08:40:00 5.8 C 6.38 g/m*3 5.8 C 1.6 km/h
1258 28-04-2015 08:45:00 6 C 6.39 g/m*3 6 C 4.8 km/h
1259 28-04-2015 08:50:00 6.2 C 6.47 g/m*3 6.2 C 1.6 km/h
1260 28-04-2015 08:55:00 6.4 C 6.48 g/m*3 6.4 C 4.8 km/h
1261 28-04-2015 09:00:00 6.6 C 6.72 g/m*3 6.6 C 0 km/h
1262 28-04-2015 09:05:00 6.7 C 6.61 g/m*3 6.7 C 0 km/h
1263 28-04-2015 09:10:00 6.8 C 6.65 g/m*3 6.8 C 4.8 km/h
1264 28-04-2015 09:15:00 7 C 6.59 g/m*3 5.46 C 8.1 km/h
1265 28-04-2015 09:20:00 7.2 C 6.59 g/m*3 7.2 C 1.6 km/h
1266 28-04-2015 09:25:00 7.2 C 6.52 g/m*3 7.2 C 0 km/h
1267 28-04-2015 09:30:00 7.2 C 6.59 g/m*3 7.2 C 0 km/h
1268 28-04-2015 09:35:00 7.2 C 6.67 g/m*3 7.2 C 0 km/h
1269 28-04-2015 09:40:00 7.1 C 6.79 g/m*3 7.1 C 0 km/h
1270 28-04-2015 09:45:00 7 C 6.82 g/m*3 7 C 0 km/h
1271 28-04-2015 09:50:00 6.9 C 6.7 g/m*3 6.9 C 0 km/h
1272 28-04-2015 09:55:00 7 C 6.66 g/m*3 7 C 0 km/h
1273 28-04-2015 10:00:00 7.1 C 6.63 g/m*3 7.1 C 0 km/h
1274 28-04-2015 10:05:00 7.2 C 6.75 g/m*3 7.2 C 0 km/h
1275 28-04-2015 10:10:00 7.3 C 6.72 g/m*3 7.3 C 3.2 km/h
Sensor: Nr:Datum:Temp:Abs-Feuchte:Windchill:Wind:
Aussen-T/F 1276 28-04-2015 10:15:00 7.5 C 6.72 g/m*3 7.5 C 0 km/h
1277 28-04-2015 10:20:00 7.6 C 6.77 g/m*3 7.6 C 0 km/h
1278 28-04-2015 10:25:00 7.8 C 7.02 g/m*3 7.8 C 0 km/h
1279 28-04-2015 10:30:00 8 C 6.94 g/m*3 8 C 0 km/h
1280 28-04-2015 10:35:00 8.2 C 7.03 g/m*3 8.2 C 0 km/h
1281 28-04-2015 10:40:00 8.4 C 7.13 g/m*3 8.4 C 3.2 km/h
1282 28-04-2015 10:45:00 8.8 C 7.14 g/m*3 8.8 C 1.6 km/h
1283 28-04-2015 10:50:00 9.2 C 7.32 g/m*3 8.45 C 6.4 km/h
1284 28-04-2015 10:55:00 9.4 C 6.87 g/m*3 7.46 C 12.9 km/h
1285 28-04-2015 11:00:00 9.7 C 7.1 g/m*3 8.63 C 8.1 km/h
1286 28-04-2015 11:05:00 10.1 C 7.09 g/m*3 8.8 C 9.7 km/h
1287 28-04-2015 11:10:00 10.3 C 6.9 g/m*3 9.04 C 9.7 km/h
1288 28-04-2015 11:15:00 10.6 C 7.22 g/m*3 10.06 C 6.4 km/h
1289 28-04-2015 11:20:00 10.7 C 6.97 g/m*3 10.7 C 3.2 km/h
1290 28-04-2015 11:25:00 10.9 C 7.06 g/m*3 10.41 C 6.4 km/h
1291 28-04-2015 11:30:00 11.1 C 7.05 g/m*3 11.1 C 9.7 km/h
1292 28-04-2015 11:35:00 11.2 C 6.69 g/m*3 11.2 C 0 km/h
1293 28-04-2015 11:40:00 11.1 C 6.75 g/m*3 11.1 C 3.2 km/h
1294 28-04-2015 11:45:00 11.2 C 7.2 g/m*3 11.2 C 0 km/h
1295 28-04-2015 11:50:00 11.2 C 6.28 g/m*3 11.2 C 3.2 km/h
1296 28-04-2015 11:55:00 11.4 C 6.88 g/m*3 11.4 C 9.7 km/h
1297 28-04-2015 12:00:00 11.7 C 6.48 g/m*3 11.7 C 6.4 km/h
1298 28-04-2015 12:05:00 11.8 C 6.84 g/m*3 11.8 C 6.4 km/h
1299 28-04-2015 12:10:00 11.9 C 6.99 g/m*3 11.9 C 6.4 km/h
1300 28-04-2015 12:15:00 12.1 C 6.86 g/m*3 12.1 C 6.4 km/h
Sensor: Nr:Datum:Temp:Abs-Feuchte:Windchill:Wind:
Aussen-T/F 1301 28-04-2015 12:20:00 12.1 C 6.76 g/m*3 12.1 C 4.8 km/h
1302 28-04-2015 12:25:00 12.4 C 6.77 g/m*3 12.4 C 3.2 km/h
1303 28-04-2015 12:30:00 12.7 C 6.12 g/m*3 12.7 C 1.6 km/h
1304 28-04-2015 12:35:00 12.7 C 6.79 g/m*3 12.7 C 0 km/h
1305 28-04-2015 12:40:00 12.6 C 6.31 g/m*3 12.6 C 4.8 km/h
1306 28-04-2015 12:45:00 12.6 C 6.31 g/m*3 12.6 C 3.2 km/h
1307 28-04-2015 12:50:00 12.6 C 6.08 g/m*3 12.6 C 6.4 km/h
1308 28-04-2015 12:55:00 12.7 C 6.01 g/m*3 12.7 C 4.8 km/h
1309 28-04-2015 13:00:00 12.8 C 5.71 g/m*3 12.8 C 3.2 km/h
1310 28-04-2015 13:05:00 12.9 C 5.75 g/m*3 12.9 C 8.1 km/h
1311 28-04-2015 13:10:00 12.8 C 6.16 g/m*3 12.8 C 9.7 km/h
1312 28-04-2015 13:15:00 12.5 C 6.16 g/m*3 12.5 C 14.5 km/h
1313 28-04-2015 13:20:00 12.3 C 6.19 g/m*3 12.3 C 11.3 km/h
1314 28-04-2015 13:25:00 12.3 C 6.3 g/m*3 12.3 C 9.7 km/h
1315 28-04-2015 13:30:00 12.4 C 6.56 g/m*3 12.4 C 6.4 km/h
1316 28-04-2015 13:35:00 12.5 C 6.38 g/m*3 12.5 C 8.1 km/h
1317 28-04-2015 13:40:00 12.7 C 6.68 g/m*3 12.7 C 4.8 km/h
1318 28-04-2015 13:45:00 12.9 C 6.54 g/m*3 12.9 C 8.1 km/h
1319 28-04-2015 13:50:00 13.1 C 6.28 g/m*3 13.1 C 9.7 km/h
1320 28-04-2015 13:55:00 13.1 C 6.5 g/m*3 13.1 C 6.4 km/h
1321 28-04-2015 14:00:00 12.9 C 6.31 g/m*3 12.9 C 8.1 km/h
1322 28-04-2015 14:05:00 13.1 C 6.73 g/m*3 13.1 C 6.4 km/h
1323 28-04-2015 14:10:00 13.2 C 5.97 g/m*3 13.2 C 4.8 km/h
1324 28-04-2015 14:15:00 13 C 6.24 g/m*3 13 C 3.2 km/h
1325 28-04-2015 14:20:00 12.9 C 6.54 g/m*3 12.9 C 3.2 km/h
Sensor: Nr:Datum:Temp:Abs-Feuchte:Windchill:Wind:
Aussen-T/F 1326 28-04-2015 14:25:00 12.9 C 6.09 g/m*3 12.9 C 6.4 km/h
1327 28-04-2015 14:30:00 13.2 C 6.66 g/m*3 13.2 C 4.8 km/h
1328 28-04-2015 14:35:00 13.7 C 6.28 g/m*3 13.7 C 6.4 km/h
1329 28-04-2015 14:40:00 13.8 C 5.6 g/m*3 13.8 C 14.5 km/h
1330 28-04-2015 14:45:00 13.4 C 5.58 g/m*3 13.4 C 8.1 km/h
1331 28-04-2015 14:50:00 13.1 C 5.71 g/m*3 13.1 C 9.7 km/h
1332 28-04-2015 14:55:00 12.8 C 5.49 g/m*3 12.8 C 14.5 km/h
1333 28-04-2015 15:00:00 12.7 C 5.79 g/m*3 12.7 C 9.7 km/h
1334 28-04-2015 15:05:00 12.6 C 5.75 g/m*3 12.6 C 22.5 km/h
1335 28-04-2015 15:10:00 12.6 C 5.64 g/m*3 12.6 C 11.3 km/h
1336 28-04-2015 15:15:00 12.8 C 6.27 g/m*3 12.8 C 8.1 km/h
1337 28-04-2015 15:20:00 13.4 C 6.04 g/m*3 13.4 C 11.3 km/h
1338 28-04-2015 15:25:00 13.6 C 5.65 g/m*3 13.6 C 6.4 km/h
1339 28-04-2015 15:30:00 13.3 C 5.66 g/m*3 13.3 C 11.3 km/h
1340 28-04-2015 15:35:00 13.1 C 5.71 g/m*3 13.1 C 11.3 km/h
1341 28-04-2015 15:40:00 12.9 C 5.64 g/m*3 12.9 C 12.9 km/h
1342 28-04-2015 15:45:00 12.8 C 5.71 g/m*3 12.8 C 9.7 km/h
1343 28-04-2015 15:50:00 12.8 C 5.94 g/m*3 12.8 C 8.1 km/h
1344 28-04-2015 15:55:00 13.3 C 6.12 g/m*3 13.3 C 9.7 km/h
1345 28-04-2015 16:00:00 13.4 C 5.93 g/m*3 13.4 C 6.4 km/h
1346 28-04-2015 16:05:00 13.2 C 6.2 g/m*3 13.2 C 9.7 km/h
1347 28-04-2015 16:10:00 13.2 C 6.54 g/m*3 13.2 C 8.1 km/h
1348 28-04-2015 16:15:00 13.1 C 6.39 g/m*3 13.1 C 9.7 km/h
1349 28-04-2015 16:20:00 13.1 C 6.16 g/m*3 13.1 C 8.1 km/h
1350 28-04-2015 16:25:00 13.1 C 6.05 g/m*3 13.1 C 6.4 km/h
Sensor: Nr:Datum:Temp:Abs-Feuchte:Windchill:Wind:
Aussen-T/F 1351 28-04-2015 16:30:00 13.1 C 6.05 g/m*3 13.1 C 12.9 km/h
1352 28-04-2015 16:35:00 13.1 C 6.28 g/m*3 13.1 C 14.5 km/h
1353 28-04-2015 16:40:00 13.3 C 6.01 g/m*3 13.3 C 17.7 km/h
1354 28-04-2015 16:45:00 13.8 C 6.67 g/m*3 13.8 C 16.1 km/h
1355 28-04-2015 16:50:00 14.4 C 6.06 g/m*3 14.4 C 12.9 km/h
1356 28-04-2015 16:55:00 15 C 6.28 g/m*3 15 C 17.7 km/h
1357 28-04-2015 17:00:00 14.7 C 5.79 g/m*3 14.7 C 14.5 km/h
1358 28-04-2015 17:05:00 14.5 C 5.85 g/m*3 14.5 C 19.3 km/h
1359 28-04-2015 17:10:00 14.2 C 5.86 g/m*3 14.2 C 19.3 km/h
1360 28-04-2015 17:15:00 13.8 C 5.48 g/m*3 13.8 C 25.7 km/h
1361 28-04-2015 17:20:00 13.4 C 5.81 g/m*3 13.4 C 17.7 km/h
1362 28-04-2015 17:25:00 13.8 C 6.08 g/m*3 13.8 C 19.3 km/h
1363 28-04-2015 17:30:00 14.3 C 6.14 g/m*3 14.3 C 14.5 km/h
1364 28-04-2015 17:35:00 14.6 C 6.01 g/m*3 14.6 C 12.9 km/h
1365 28-04-2015 17:40:00 14.5 C 5.72 g/m*3 14.5 C 11.3 km/h
1366 28-04-2015 17:45:00 14.3 C 5.65 g/m*3 14.3 C 16.1 km/h
1367 28-04-2015 17:50:00 14.2 C 5.62 g/m*3 14.2 C 11.3 km/h
1368 28-04-2015 17:55:00 13.7 C 5.45 g/m*3 13.7 C 19.3 km/h
1369 28-04-2015 18:00:00 13.3 C 5.55 g/m*3 13.3 C 12.9 km/h
1370 28-04-2015 18:05:00 12.9 C 5.52 g/m*3 12.9 C 6.4 km/h
1371 28-04-2015 18:10:00 12.9 C 5.64 g/m*3 12.9 C 11.3 km/h
1372 28-04-2015 18:15:00 13 C 5.67 g/m*3 13 C 11.3 km/h
1373 28-04-2015 18:20:00 13.6 C 5.88 g/m*3 13.6 C 9.7 km/h
1374 28-04-2015 18:25:00 14.2 C 5.98 g/m*3 14.2 C 11.3 km/h
1375 28-04-2015 18:30:00 14.7 C 5.92 g/m*3 14.7 C 14.5 km/h
Sensor: Nr:Datum:Temp:Abs-Feuchte:Windchill:Wind:
Aussen-T/F 1376 28-04-2015 18:35:00 14.6 C 5.76 g/m*3 14.6 C 11.3 km/h
1377 28-04-2015 18:40:00 13.9 C 5.63 g/m*3 13.9 C 4.8 km/h
1378 28-04-2015 18:45:00 13.6 C 5.77 g/m*3 13.6 C 6.4 km/h
1379 28-04-2015 18:50:00 13.7 C 5.92 g/m*3 13.7 C 1.6 km/h
1380 28-04-2015 18:55:00 14.1 C 5.7 g/m*3 14.1 C 8.1 km/h
1381 28-04-2015 19:00:00 14.4 C 6.3 g/m*3 14.4 C 6.4 km/h
1382 28-04-2015 19:05:00 14.7 C 5.92 g/m*3 14.7 C 6.4 km/h
1383 28-04-2015 19:10:00 14.7 C 5.54 g/m*3 14.7 C 4.8 km/h
1384 28-04-2015 19:15:00 14.4 C 5.19 g/m*3 14.4 C 11.3 km/h
1385 28-04-2015 19:20:00 14.2 C 5.25 g/m*3 14.2 C 6.4 km/h
1386 28-04-2015 19:25:00 14.1 C 5.46 g/m*3 14.1 C 9.7 km/h
1387 28-04-2015 19:30:00 13.9 C 5.04 g/m*3 13.9 C 14.5 km/h
1388 28-04-2015 19:35:00 13.7 C 5.21 g/m*3 13.7 C 4.8 km/h
1389 28-04-2015 19:40:00 13.4 C 5.35 g/m*3 13.4 C 3.2 km/h
1390 28-04-2015 19:45:00 13.3 C 5.2 g/m*3 13.3 C 6.4 km/h
1391 28-04-2015 19:50:00 13 C 4.88 g/m*3 13 C 8.1 km/h
1392 28-04-2015 19:55:00 12.8 C 4.82 g/m*3 12.8 C 4.8 km/h
1393 28-04-2015 20:00:00 12.8 C 4.48 g/m*3 12.8 C 11.3 km/h
1394 28-04-2015 20:05:00 12.5 C 4.62 g/m*3 12.5 C 9.7 km/h
1395 28-04-2015 20:10:00 12.2 C 4.42 g/m*3 12.2 C 11.3 km/h
1396 28-04-2015 20:15:00 11.9 C 4.45 g/m*3 11.9 C 8.1 km/h
1397 28-04-2015 20:20:00 11.6 C 4.78 g/m*3 11.6 C 8.1 km/h
1398 28-04-2015 20:25:00 11.2 C 5.47 g/m*3 11.2 C 1.6 km/h
1399 28-04-2015 20:30:00 10.6 C 5.76 g/m*3 10.6 C 4.8 km/h
1400 28-04-2015 20:35:00 9.9 C 5.98 g/m*3 9.9 C 1.6 km/h
Sensor: Nr:Datum:Temp:Abs-Feuchte:Windchill:Wind:
Aussen-T/F 1401 28-04-2015 20:40:00 9.4 C 6.24 g/m*3 9.4 C 0 km/h
1402 28-04-2015 20:45:00 8.9 C 6.04 g/m*3 8.9 C 1.6 km/h
1403 28-04-2015 20:50:00 8.7 C 5.97 g/m*3 7.13 C 9.7 km/h
1404 28-04-2015 20:55:00 8.4 C 5.85 g/m*3 8.4 C 1.6 km/h
1405 28-04-2015 21:00:00 8.2 C 5.95 g/m*3 8.2 C 1.6 km/h
1406 28-04-2015 21:05:00 7.9 C 5.91 g/m*3 7.9 C 3.2 km/h
1407 28-04-2015 21:10:00 7.6 C 5.8 g/m*3 7.6 C 1.6 km/h
1408 28-04-2015 21:15:00 7.5 C 5.92 g/m*3 7.5 C 4.8 km/h
1409 28-04-2015 21:20:00 7.3 C 5.85 g/m*3 7.3 C 3.2 km/h
1410 28-04-2015 21:25:00 7.2 C 5.81 g/m*3 7.2 C 3.2 km/h
1411 28-04-2015 21:30:00 7.1 C 5.85 g/m*3 7.1 C 4.8 km/h
1412 28-04-2015 21:35:00 7.1 C 6.01 g/m*3 7.1 C 4.8 km/h
1413 28-04-2015 21:40:00 6.9 C 5.93 g/m*3 6.9 C 3.2 km/h
1414 28-04-2015 21:45:00 6.8 C 5.89 g/m*3 6.8 C 4.8 km/h
1415 28-04-2015 21:50:00 6.7 C 5.85 g/m*3 6.7 C 3.2 km/h
1416 28-04-2015 21:55:00 6.7 C 5.93 g/m*3 6.7 C 3.2 km/h
1417 28-04-2015 22:00:00 6.6 C 5.89 g/m*3 6.6 C 4.8 km/h
1418 28-04-2015 22:05:00 6.5 C 5.85 g/m*3 6.5 C 4.8 km/h
1419 28-04-2015 22:10:00 6.4 C 5.74 g/m*3 6.4 C 4.8 km/h
1420 28-04-2015 22:15:00 6.4 C 5.66 g/m*3 6.4 C 3.2 km/h
1421 28-04-2015 22:20:00 6.3 C 5.63 g/m*3 6.3 C 3.2 km/h
1422 28-04-2015 22:25:00 6.3 C 5.77 g/m*3 6.3 C 1.6 km/h
1423 28-04-2015 22:30:00 6.2 C 5.74 g/m*3 6.2 C 1.6 km/h
1424 28-04-2015 22:35:00 6.1 C 5.7 g/m*3 6.1 C 3.2 km/h
1425 28-04-2015 22:40:00 5.9 C 5.7 g/m*3 5.9 C 0 km/h
Sensor: Nr:Datum:Temp:Abs-Feuchte:Windchill:Wind:
Aussen-T/F 1426 28-04-2015 22:45:00 5.8 C 5.59 g/m*3 5.8 C 0 km/h
1427 28-04-2015 22:50:00 5.7 C 5.55 g/m*3 5.7 C 0 km/h
1428 28-04-2015 22:55:00 5.5 C 5.48 g/m*3 5.5 C 0 km/h
1429 28-04-2015 23:00:00 5.4 C 5.51 g/m*3 5.4 C 0 km/h
1430 28-04-2015 23:05:00 5.3 C 5.48 g/m*3 5.3 C 0 km/h
1431 28-04-2015 23:10:00 5.2 C 5.51 g/m*3 5.2 C 0 km/h
1432 28-04-2015 23:15:00 5.1 C 5.54 g/m*3 5.1 C 0 km/h
1433 28-04-2015 23:20:00 4.9 C 5.54 g/m*3 4.9 C 0 km/h
1434 28-04-2015 23:25:00 4.9 C 5.54 g/m*3 4.9 C 0 km/h
1435 28-04-2015 23:30:00 4.8 C 5.5 g/m*3 4.8 C 0 km/h
1436 28-04-2015 23:35:00 4.8 C 5.5 g/m*3 4.8 C 0 km/h
1437 28-04-2015 23:40:00 4.7 C 5.4 g/m*3 4.7 C 0 km/h
1438 28-04-2015 23:45:00 4.6 C 5.36 g/m*3 4.6 C 0 km/h
1439 28-04-2015 23:50:00 4.6 C 5.36 g/m*3 4.6 C 0 km/h
1440 28-04-2015 23:55:00 4.5 C 5.39 g/m*3 4.5 C 0 km/h
1441 29-04-2015 00:00:00 4.5 C 5.39 g/m*3 4.5 C 1.6 km/h
1442 29-04-2015 00:05:00 4.4 C 5.35 g/m*3 4.4 C 0 km/h
1443 29-04-2015 00:10:00 4.4 C 5.42 g/m*3 4.4 C 0 km/h
1444 29-04-2015 00:15:00 4.3 C 5.38 g/m*3 4.3 C 1.6 km/h
1445 29-04-2015 00:20:00 4.3 C 5.45 g/m*3 4.3 C 3.2 km/h
1446 29-04-2015 00:25:00 4.3 C 5.45 g/m*3 4.3 C 0 km/h
1447 29-04-2015 00:30:00 4.2 C 5.35 g/m*3 4.2 C 0 km/h
1448 29-04-2015 00:35:00 4.1 C 5.31 g/m*3 4.1 C 1.6 km/h
1449 29-04-2015 00:40:00 4.1 C 5.38 g/m*3 4.1 C 0 km/h
1450 29-04-2015 00:45:00 4.1 C 5.38 g/m*3 4.1 C 0 km/h
Sensor: Nr:Datum:Temp:Abs-Feuchte:Windchill:Wind:
Aussen-T/F 1451 29-04-2015 00:50:00 4 C 5.34 g/m*3 4 C 1.6 km/h
1452 29-04-2015 00:55:00 3.9 C 5.24 g/m*3 3.9 C 0 km/h
1453 29-04-2015 01:00:00 3.9 C 5.24 g/m*3 3.9 C 1.6 km/h
1454 29-04-2015 01:05:00 3.8 C 5.27 g/m*3 3.8 C 0 km/h
1455 29-04-2015 01:10:00 3.7 C 5.23 g/m*3 3.7 C 0 km/h
1456 29-04-2015 01:15:00 3.6 C 5.26 g/m*3 3.6 C 0 km/h
1457 29-04-2015 01:20:00 3.4 C 5.19 g/m*3 3.4 C 0 km/h
1458 29-04-2015 01:25:00 3.3 C 5.16 g/m*3 3.3 C 0 km/h
1459 29-04-2015 01:30:00 3.2 C 5.18 g/m*3 3.2 C 0 km/h
1460 29-04-2015 01:35:00 3.2 C 5.24 g/m*3 3.2 C 0 km/h
1461 29-04-2015 01:40:00 3.2 C 5.24 g/m*3 3.2 C 0 km/h
1462 29-04-2015 01:45:00 3.1 C 5.27 g/m*3 3.1 C 0 km/h
1463 29-04-2015 01:50:00 3.1 C 5.27 g/m*3 3.1 C 0 km/h
1464 29-04-2015 01:55:00 3 C 5.23 g/m*3 3 C 1.6 km/h
1465 29-04-2015 02:00:00 2.9 C 5.2 g/m*3 2.9 C 0 km/h
1466 29-04-2015 02:05:00 2.9 C 5.2 g/m*3 2.9 C 0 km/h
1467 29-04-2015 02:10:00 2.8 C 5.16 g/m*3 2.8 C 0 km/h
1468 29-04-2015 02:15:00 2.8 C 5.16 g/m*3 2.8 C 0 km/h
1469 29-04-2015 02:20:00 2.8 C 5.16 g/m*3 2.8 C 0 km/h
1470 29-04-2015 02:25:00 2.7 C 5.13 g/m*3 2.7 C 0 km/h
1471 29-04-2015 02:30:00 2.7 C 5.13 g/m*3 2.7 C 1.6 km/h
1472 29-04-2015 02:35:00 2.6 C 5.09 g/m*3 2.6 C 0 km/h
1473 29-04-2015 02:40:00 2.6 C 5.09 g/m*3 2.6 C 0 km/h
1474 29-04-2015 02:45:00 2.5 C 5.06 g/m*3 2.5 C 0 km/h
1475 29-04-2015 02:50:00 2.4 C 5.02 g/m*3 2.4 C 0 km/h
Sensor: Nr:Datum:Temp:Abs-Feuchte:Windchill:Wind:
Aussen-T/F 1476 29-04-2015 02:55:00 2.4 C 5.02 g/m*3 2.4 C 0 km/h
1477 29-04-2015 03:00:00 2.3 C 5.05 g/m*3 2.3 C 0 km/h
1478 29-04-2015 03:05:00 2.2 C 5.01 g/m*3 2.2 C 1.6 km/h
1479 29-04-2015 03:10:00 2.2 C 5.01 g/m*3 2.2 C 0 km/h
1480 29-04-2015 03:15:00 2.2 C 5.01 g/m*3 2.2 C 0 km/h
1481 29-04-2015 03:20:00 2.1 C 5.04 g/m*3 2.1 C 0 km/h
1482 29-04-2015 03:25:00 2 C 4.95 g/m*3 2 C 1.6 km/h
1483 29-04-2015 03:30:00 2 C 4.95 g/m*3 2 C 0 km/h
1484 29-04-2015 03:35:00 1.9 C 4.91 g/m*3 1.9 C 0 km/h
1485 29-04-2015 03:40:00 1.8 C 4.88 g/m*3 1.8 C 0 km/h
1486 29-04-2015 03:45:00 1.8 C 4.93 g/m*3 1.8 C 0 km/h
1487 29-04-2015 03:50:00 1.8 C 4.93 g/m*3 1.8 C 0 km/h
1488 29-04-2015 03:55:00 1.7 C 4.9 g/m*3 1.7 C 0 km/h
1489 29-04-2015 04:00:00 1.7 C 4.9 g/m*3 1.7 C 0 km/h
1490 29-04-2015 04:05:00 1.7 C 4.9 g/m*3 1.7 C 0 km/h
1491 29-04-2015 04:10:00 1.6 C 4.87 g/m*3 1.6 C 0 km/h
1492 29-04-2015 04:15:00 1.6 C 4.87 g/m*3 1.6 C 0 km/h
1493 29-04-2015 04:20:00 1.5 C 4.83 g/m*3 1.5 C 0 km/h
1494 29-04-2015 04:25:00 1.4 C 4.8 g/m*3 1.4 C 0 km/h
1495 29-04-2015 04:30:00 1.4 C 4.85 g/m*3 1.4 C 0 km/h
1496 29-04-2015 04:35:00 1.4 C 4.85 g/m*3 1.4 C 0 km/h
1497 29-04-2015 04:40:00 1.3 C 4.82 g/m*3 1.3 C 0 km/h
1498 29-04-2015 04:45:00 1.3 C 4.82 g/m*3 1.3 C 0 km/h
1499 29-04-2015 04:50:00 1.3 C 4.82 g/m*3 1.3 C 0 km/h
1500 29-04-2015 04:55:00 1.2 C 4.79 g/m*3 1.2 C 0 km/h
Sensor: Nr:Datum:Temp:Abs-Feuchte:Windchill:Wind:
Aussen-T/F 1501 29-04-2015 05:00:00 1.2 C 4.79 g/m*3 1.2 C 0 km/h
1502 29-04-2015 05:05:00 1.2 C 4.79 g/m*3 1.2 C 1.6 km/h
1503 29-04-2015 05:10:00 1.2 C 4.79 g/m*3 1.2 C 0 km/h
1504 29-04-2015 05:15:00 1.1 C 4.76 g/m*3 1.1 C 0 km/h
1505 29-04-2015 05:20:00 1.1 C 4.76 g/m*3 1.1 C 0 km/h
1506 29-04-2015 05:25:00 1.1 C 4.76 g/m*3 1.1 C 0 km/h
1507 29-04-2015 05:30:00 1 C 4.72 g/m*3 1 C 0 km/h
1508 29-04-2015 05:35:00 0.9 C 4.74 g/m*3 0.9 C 0 km/h
1509 29-04-2015 05:40:00 0.9 C 4.74 g/m*3 0.9 C 0 km/h
1510 29-04-2015 05:45:00 0.9 C 4.74 g/m*3 0.9 C 1.6 km/h
1511 29-04-2015 05:50:00 0.9 C 4.74 g/m*3 0.9 C 0 km/h
1512 29-04-2015 05:55:00 0.9 C 4.74 g/m*3 0.9 C 0 km/h
1513 29-04-2015 06:00:00 0.8 C 4.71 g/m*3 0.8 C 0 km/h
1514 29-04-2015 06:05:00 0.8 C 4.71 g/m*3 0.8 C 0 km/h
1515 29-04-2015 06:10:00 0.7 C 4.68 g/m*3 0.7 C 0 km/h
1516 29-04-2015 06:15:00 0.7 C 4.68 g/m*3 0.7 C 0 km/h
1517 29-04-2015 06:20:00 0.7 C 4.73 g/m*3 0.7 C 0 km/h
1518 29-04-2015 06:25:00 0.7 C 4.73 g/m*3 0.7 C 0 km/h
1519 29-04-2015 06:30:00 0.7 C 4.73 g/m*3 0.7 C 0 km/h
1520 29-04-2015 06:35:00 0.7 C 4.73 g/m*3 0.7 C 0 km/h
1521 29-04-2015 06:40:00 0.7 C 4.73 g/m*3 0.7 C 0 km/h
1522 29-04-2015 06:45:00 0.7 C 4.73 g/m*3 0.7 C 0 km/h
1523 29-04-2015 06:50:00 0.7 C 4.73 g/m*3 0.7 C 0 km/h
1524 29-04-2015 06:55:00 0.8 C 4.76 g/m*3 0.8 C 0 km/h
1525 29-04-2015 07:00:00 0.8 C 4.76 g/m*3 0.8 C 0 km/h
Sensor: Nr:Datum:Temp:Abs-Feuchte:Windchill:Wind:
Aussen-T/F 1526 29-04-2015 07:05:00 0.8 C 4.76 g/m*3 0.8 C 0 km/h
1527 29-04-2015 07:10:00 0.8 C 4.76 g/m*3 0.8 C 0 km/h
1528 29-04-2015 07:15:00 0.9 C 4.79 g/m*3 0.9 C 0 km/h
1529 29-04-2015 07:20:00 0.9 C 4.79 g/m*3 0.9 C 0 km/h
1530 29-04-2015 07:25:00 0.9 C 4.79 g/m*3 0.9 C 0 km/h
1531 29-04-2015 07:30:00 1 C 4.83 g/m*3 1 C 0 km/h
1532 29-04-2015 07:35:00 1.1 C 4.86 g/m*3 1.1 C 0 km/h
1533 29-04-2015 07:40:00 1.1 C 4.86 g/m*3 1.1 C 0 km/h
1534 29-04-2015 07:45:00 1.2 C 4.89 g/m*3 1.2 C 0 km/h
1535 29-04-2015 07:50:00 1.3 C 4.98 g/m*3 1.3 C 0 km/h
1536 29-04-2015 07:55:00 1.4 C 4.96 g/m*3 1.4 C 0 km/h
1537 29-04-2015 08:00:00 1.5 C 5.05 g/m*3 1.5 C 0 km/h
1538 29-04-2015 08:05:00 1.7 C 5.12 g/m*3 1.7 C 0 km/h
1539 29-04-2015 08:10:00 1.8 C 5.1 g/m*3 1.8 C 0 km/h
1540 29-04-2015 08:15:00 1.8 C 5.1 g/m*3 1.8 C 0 km/h
1541 29-04-2015 08:20:00 2 C 5.17 g/m*3 2 C 0 km/h
1542 29-04-2015 08:25:00 2.2 C 5.24 g/m*3 2.2 C 0 km/h
1543 29-04-2015 08:30:00 2.3 C 5.27 g/m*3 2.3 C 0 km/h
1544 29-04-2015 08:35:00 2.5 C 5.29 g/m*3 2.5 C 0 km/h
1545 29-04-2015 08:40:00 2.7 C 5.36 g/m*3 2.7 C 0 km/h
1546 29-04-2015 08:45:00 2.8 C 5.4 g/m*3 2.8 C 0 km/h
1547 29-04-2015 08:50:00 3 C 5.47 g/m*3 3 C 0 km/h
1548 29-04-2015 08:55:00 3.2 C 5.48 g/m*3 3.2 C 0 km/h
1549 29-04-2015 09:00:00 3.4 C 5.44 g/m*3 3.4 C 0 km/h
1550 29-04-2015 09:05:00 3.6 C 5.51 g/m*3 3.6 C 0 km/h
Sensor: Nr:Datum:Temp:Abs-Feuchte:Windchill:Wind:
Aussen-T/F 1551 29-04-2015 09:10:00 3.9 C 5.62 g/m*3 3.9 C 0 km/h
1552 29-04-2015 09:15:00 4.1 C 5.63 g/m*3 4.1 C 0 km/h
1553 29-04-2015 09:20:00 4.3 C 5.64 g/m*3 4.3 C 0 km/h
1554 29-04-2015 09:25:00 4.5 C 5.72 g/m*3 4.5 C 0 km/h
1555 29-04-2015 09:30:00 4.7 C 5.73 g/m*3 4.7 C 0 km/h
1556 29-04-2015 09:35:00 4.9 C 5.74 g/m*3 4.9 C 0 km/h
1557 29-04-2015 09:40:00 5.2 C 5.92 g/m*3 5.2 C 0 km/h
1558 29-04-2015 09:45:00 5.4 C 5.93 g/m*3 5.4 C 0 km/h
1559 29-04-2015 09:50:00 5.7 C 5.98 g/m*3 5.7 C 0 km/h
1560 29-04-2015 09:55:00 5.9 C 5.98 g/m*3 5.9 C 0 km/h
1561 29-04-2015 10:00:00 6.1 C 5.92 g/m*3 6.1 C 1.6 km/h
1562 29-04-2015 10:05:00 6.2 C 5.96 g/m*3 6.2 C 0 km/h
1563 29-04-2015 10:10:00 6.4 C 6.11 g/m*3 6.4 C 0 km/h
1564 29-04-2015 10:15:00 6.7 C 6.23 g/m*3 6.7 C 0 km/h
1565 29-04-2015 10:20:00 6.9 C 6.24 g/m*3 6.9 C 1.6 km/h
1566 29-04-2015 10:25:00 7.2 C 6.36 g/m*3 7.2 C 1.6 km/h
1567 29-04-2015 10:30:00 7.4 C 6.36 g/m*3 7.4 C 1.6 km/h
1568 29-04-2015 10:35:00 7.6 C 6.36 g/m*3 7.6 C 1.6 km/h
1569 29-04-2015 10:40:00 7.9 C 6.57 g/m*3 7.9 C 1.6 km/h
1570 29-04-2015 10:45:00 8.2 C 6.7 g/m*3 8.2 C 1.6 km/h
1571 29-04-2015 10:50:00 8.5 C 6.74 g/m*3 8.5 C 1.6 km/h
1572 29-04-2015 10:55:00 8.8 C 6.7 g/m*3 8.8 C 1.6 km/h
1573 29-04-2015 11:00:00 9.1 C 6.65 g/m*3 9.1 C 1.6 km/h
1574 29-04-2015 11:05:00 9.3 C 6.56 g/m*3 9.3 C 3.2 km/h
1575 29-04-2015 11:10:00 9.7 C 7.1 g/m*3 9.7 C 1.6 km/h
Sensor: Nr:Datum:Temp:Abs-Feuchte:Windchill:Wind:
Aussen-T/F 1576 29-04-2015 11:15:00 10 C 6.77 g/m*3 10 C 3.2 km/h
1577 29-04-2015 11:20:00 10.3 C 6.61 g/m*3 10.3 C 1.6 km/h
1578 29-04-2015 11:25:00 10.5 C 6.69 g/m*3 10.5 C 0 km/h
1579 29-04-2015 11:30:00 10.7 C 6.97 g/m*3 10.7 C 1.6 km/h
1580 29-04-2015 11:35:00 10.9 C 6.56 g/m*3 10.9 C 1.6 km/h
1581 29-04-2015 11:40:00 11.1 C 6.75 g/m*3 11.1 C 1.6 km/h
1582 29-04-2015 11:45:00 11.2 C 6.69 g/m*3 11.2 C 4.8 km/h
1583 29-04-2015 11:50:00 11.4 C 6.16 g/m*3 11.4 C 4.8 km/h
1584 29-04-2015 11:55:00 11.7 C 6.17 g/m*3 11.7 C 1.6 km/h
1585 29-04-2015 12:00:00 12 C 6.07 g/m*3 12 C 4.8 km/h
1586 29-04-2015 12:05:00 12.2 C 5.5 g/m*3 12.2 C 3.2 km/h
1587 29-04-2015 12:10:00 12.5 C 5.94 g/m*3 12.5 C 3.2 km/h
1588 29-04-2015 12:15:00 12.7 C 5.79 g/m*3 12.7 C 1.6 km/h
1589 29-04-2015 12:20:00 13 C 6.12 g/m*3 13 C 9.7 km/h
1590 29-04-2015 12:25:00 13.3 C 5.89 g/m*3 13.3 C 9.7 km/h
1591 29-04-2015 12:30:00 13.6 C 6.24 g/m*3 13.6 C 4.8 km/h
1592 29-04-2015 12:35:00 13.9 C 5.99 g/m*3 13.9 C 4.8 km/h
1593 29-04-2015 12:40:00 14.4 C 6.18 g/m*3 14.4 C 6.4 km/h
1594 29-04-2015 12:45:00 14.7 C 6.3 g/m*3 14.7 C 6.4 km/h
1595 29-04-2015 12:50:00 14.9 C 6.12 g/m*3 14.9 C 9.7 km/h
1596 29-04-2015 12:55:00 14.8 C 5.83 g/m*3 14.8 C 4.8 km/h
1597 29-04-2015 13:00:00 14.9 C 6.12 g/m*3 14.9 C 3.2 km/h
1598 29-04-2015 13:05:00 15.1 C 5.29 g/m*3 15.1 C 9.7 km/h
1599 29-04-2015 13:10:00 14.8 C 5.7 g/m*3 14.8 C 9.7 km/h
1600 29-04-2015 13:15:00 14.7 C 5.67 g/m*3 14.7 C 4.8 km/h
Sensor: Nr:Datum:Temp:Abs-Feuchte:Windchill:Wind:
Aussen-T/F 1601 29-04-2015 13:20:00 14.7 C 6.17 g/m*3 14.7 C 3.2 km/h
1602 29-04-2015 13:25:00 14.7 C 5.16 g/m*3 14.7 C 12.9 km/h
1603 29-04-2015 13:30:00 14.7 C 5.54 g/m*3 14.7 C 11.3 km/h
1604 29-04-2015 13:35:00 14.8 C 5.7 g/m*3 14.8 C 9.7 km/h
1605 29-04-2015 13:40:00 14.9 C 5.48 g/m*3 14.9 C 11.3 km/h
1606 29-04-2015 13:45:00 14.8 C 5.45 g/m*3 14.8 C 6.4 km/h
1607 29-04-2015 13:50:00 14.7 C 5.92 g/m*3 14.7 C 4.8 km/h
1608 29-04-2015 13:55:00 14.8 C 6.33 g/m*3 14.8 C 9.7 km/h
1609 29-04-2015 14:00:00 14.9 C 5.35 g/m*3 14.9 C 9.7 km/h
1610 29-04-2015 14:05:00 14.7 C 5.67 g/m*3 14.7 C 4.8 km/h
1611 29-04-2015 14:10:00 14.5 C 5.72 g/m*3 14.5 C 9.7 km/h
1612 29-04-2015 14:15:00 14.4 C 5.44 g/m*3 14.4 C 11.3 km/h
1613 29-04-2015 14:20:00 14.4 C 5.69 g/m*3 14.4 C 12.9 km/h
1614 29-04-2015 14:25:00 14.7 C 6.04 g/m*3 14.7 C 1.6 km/h
1615 29-04-2015 14:30:00 14.8 C 5.95 g/m*3 14.8 C 4.8 km/h
1616 29-04-2015 14:35:00 15.1 C 6.32 g/m*3 15.1 C 6.4 km/h
1617 29-04-2015 14:40:00 15.7 C 6.42 g/m*3 15.7 C 11.3 km/h
1618 29-04-2015 14:45:00 16.1 C 5.76 g/m*3 16.1 C 4.8 km/h
1619 29-04-2015 14:50:00 16.2 C 5.65 g/m*3 16.2 C 9.7 km/h
1620 29-04-2015 14:55:00 16.3 C 5.83 g/m*3 16.3 C 9.7 km/h
1621 29-04-2015 15:00:00 16.3 C 5.41 g/m*3 16.3 C 9.7 km/h
1622 29-04-2015 15:05:00 16.2 C 5.38 g/m*3 16.2 C 8.1 km/h
1623 29-04-2015 15:10:00 16.1 C 5.48 g/m*3 16.1 C 6.4 km/h
1624 29-04-2015 15:15:00 15.8 C 5.79 g/m*3 15.8 C 6.4 km/h
1625 29-04-2015 15:20:00 15.7 C 5.89 g/m*3 15.7 C 4.8 km/h
Sensor: Nr:Datum:Temp:Abs-Feuchte:Windchill:Wind:
Aussen-T/F 1626 29-04-2015 15:25:00 15.5 C 5.68 g/m*3 15.5 C 6.4 km/h
1627 29-04-2015 15:30:00 15.4 C 5.78 g/m*3 15.4 C 3.2 km/h
1628 29-04-2015 15:35:00 15.3 C 6.01 g/m*3 15.3 C 6.4 km/h
1629 29-04-2015 15:40:00 15.4 C 5.65 g/m*3 15.4 C 6.4 km/h
1630 29-04-2015 15:45:00 15.7 C 6.29 g/m*3 15.7 C 4.8 km/h
1631 29-04-2015 15:50:00 15.7 C 5.89 g/m*3 15.7 C 8.1 km/h
1632 29-04-2015 15:55:00 15.8 C 6.06 g/m*3 15.8 C 1.6 km/h
1633 29-04-2015 16:00:00 15.8 C 5.92 g/m*3 15.8 C 3.2 km/h
1634 29-04-2015 16:05:00 15.9 C 5.82 g/m*3 15.9 C 8.1 km/h
1635 29-04-2015 16:10:00 15.8 C 5.65 g/m*3 15.8 C 9.7 km/h
1636 29-04-2015 16:15:00 15.5 C 5.68 g/m*3 15.5 C 6.4 km/h
1637 29-04-2015 16:20:00 15.4 C 6.31 g/m*3 15.4 C 4.8 km/h
1638 29-04-2015 16:25:00 15.4 C 5.78 g/m*3 15.4 C 3.2 km/h
1639 29-04-2015 16:30:00 15.5 C 5.95 g/m*3 15.5 C 6.4 km/h
1640 29-04-2015 16:35:00 15.6 C 6.25 g/m*3 15.6 C 6.4 km/h
1641 29-04-2015 16:40:00 15.8 C 6.46 g/m*3 15.8 C 4.8 km/h
1642 29-04-2015 16:45:00 16 C 5.59 g/m*3 16 C 4.8 km/h
1643 29-04-2015 16:50:00 16 C 6.27 g/m*3 16 C 4.8 km/h
1644 29-04-2015 16:55:00 16 C 6.13 g/m*3 16 C 1.6 km/h
1645 29-04-2015 17:00:00 16.1 C 6.31 g/m*3 16.1 C 3.2 km/h
1646 29-04-2015 17:05:00 16 C 5.99 g/m*3 16 C 4.8 km/h
1647 29-04-2015 17:10:00 15.8 C 6.06 g/m*3 15.8 C 3.2 km/h
1648 29-04-2015 17:15:00 15.5 C 5.82 g/m*3 15.5 C 3.2 km/h
1649 29-04-2015 17:20:00 15.3 C 6.01 g/m*3 15.3 C 4.8 km/h
1650 29-04-2015 17:25:00 15.3 C 6.4 g/m*3 15.3 C 4.8 km/h
Sensor: Nr:Datum:Temp:Abs-Feuchte:Windchill:Wind:
Aussen-T/F 1651 29-04-2015 17:30:00 15.2 C 5.97 g/m*3 15.2 C 1.6 km/h
1652 29-04-2015 17:35:00 15.2 C 7.14 g/m*3 15.2 C 1.6 km/h
1653 29-04-2015 17:40:00 15.3 C 6.79 g/m*3 15.3 C 3.2 km/h
1654 29-04-2015 17:45:00 15.3 C 6.14 g/m*3 15.3 C 6.4 km/h
1655 29-04-2015 17:50:00 15.4 C 6.44 g/m*3 15.4 C 3.2 km/h
1656 29-04-2015 17:55:00 15.5 C 6.48 g/m*3 15.5 C 3.2 km/h
1657 29-04-2015 18:00:00 15.5 C 6.08 g/m*3 15.5 C 3.2 km/h
1658 29-04-2015 18:05:00 15.4 C 6.18 g/m*3 15.4 C 1.6 km/h
1659 29-04-2015 18:10:00 15.3 C 7.84 g/m*3 15.3 C 0 km/h
1660 29-04-2015 18:15:00 15 C 8.46 g/m*3 15 C 3.2 km/h
1661 29-04-2015 18:20:00 14.6 C 8.51 g/m*3 14.6 C 3.2 km/h
1662 29-04-2015 18:25:00 14.3 C 8.72 g/m*3 14.3 C 0 km/h
1663 29-04-2015 18:30:00 14.1 C 8.62 g/m*3 14.1 C 1.6 km/h
1664 29-04-2015 18:35:00 14.1 C 8.74 g/m*3 14.1 C 0 km/h
1665 29-04-2015 18:40:00 14.1 C 8.62 g/m*3 14.1 C 0 km/h
1666 29-04-2015 18:45:00 14.1 C 8.98 g/m*3 14.1 C 1.6 km/h
1667 29-04-2015 18:50:00 14.2 C 8.91 g/m*3 14.2 C 0 km/h
1668 29-04-2015 18:55:00 14.2 C 8.55 g/m*3 14.2 C 0 km/h
1669 29-04-2015 19:00:00 14 C 8.56 g/m*3 14 C 1.6 km/h
1670 29-04-2015 19:05:00 13.8 C 8.58 g/m*3 13.8 C 1.6 km/h
1671 29-04-2015 19:10:00 13.5 C 7.02 g/m*3 13.5 C 3.2 km/h
1672 29-04-2015 19:15:00 13.5 C 6.55 g/m*3 13.5 C 6.4 km/h
1673 29-04-2015 19:20:00 13.6 C 7.41 g/m*3 13.6 C 3.2 km/h
1674 29-04-2015 19:25:00 13.6 C 7.53 g/m*3 13.6 C 3.2 km/h
1675 29-04-2015 19:30:00 13.4 C 7.21 g/m*3 13.4 C 9.7 km/h
Sensor: Nr:Datum:Temp:Abs-Feuchte:Windchill:Wind:
Aussen-T/F 1676 29-04-2015 19:35:00 13.3 C 7.39 g/m*3 13.3 C 3.2 km/h
1677 29-04-2015 19:40:00 13.2 C 7.58 g/m*3 13.2 C 3.2 km/h
1678 29-04-2015 19:45:00 12.9 C 7.66 g/m*3 12.9 C 3.2 km/h
1679 29-04-2015 19:50:00 12.7 C 7.57 g/m*3 12.7 C 1.6 km/h
1680 29-04-2015 19:55:00 12.5 C 7.81 g/m*3 12.5 C 3.2 km/h
1681 29-04-2015 20:00:00 12.3 C 7.38 g/m*3 12.3 C 1.6 km/h
1682 29-04-2015 20:05:00 12.2 C 7.55 g/m*3 12.2 C 3.2 km/h
1683 29-04-2015 20:10:00 12.1 C 7.72 g/m*3 12.1 C 3.2 km/h
1684 29-04-2015 20:15:00 11.8 C 7.68 g/m*3 11.8 C 3.2 km/h
1685 29-04-2015 20:20:00 11.5 C 7.33 g/m*3 11.5 C 3.2 km/h
1686 29-04-2015 20:25:00 11.3 C 7.55 g/m*3 11.3 C 4.8 km/h
1687 29-04-2015 20:30:00 11.2 C 7.5 g/m*3 11.2 C 3.2 km/h
1688 29-04-2015 20:35:00 11 C 7.41 g/m*3 11 C 3.2 km/h
1689 29-04-2015 20:40:00 10.9 C 7.46 g/m*3 10.9 C 3.2 km/h
1690 29-04-2015 20:45:00 10.7 C 7.27 g/m*3 10.7 C 3.2 km/h
1691 29-04-2015 20:50:00 10.7 C 7.46 g/m*3 10.7 C 3.2 km/h
1692 29-04-2015 20:55:00 10.5 C 7.37 g/m*3 10.5 C 4.8 km/h
1693 29-04-2015 21:00:00 10.4 C 7.32 g/m*3 10.4 C 3.2 km/h
1694 29-04-2015 21:05:00 10.4 C 7.32 g/m*3 10.4 C 1.6 km/h
1695 29-04-2015 21:10:00 10.3 C 7.28 g/m*3 10.3 C 1.6 km/h
1696 29-04-2015 21:15:00 10.3 C 7.37 g/m*3 10.3 C 3.2 km/h
1697 29-04-2015 21:20:00 10.3 C 7.37 g/m*3 10.3 C 1.6 km/h
1698 29-04-2015 21:25:00 10.2 C 7.33 g/m*3 10.2 C 1.6 km/h
1699 29-04-2015 21:30:00 10.2 C 7.42 g/m*3 10.2 C 1.6 km/h
1700 29-04-2015 21:35:00 10 C 7.24 g/m*3 10 C 1.6 km/h
Sensor: Nr:Datum:Temp:Abs-Feuchte:Windchill:Wind:
Aussen-T/F 1701 29-04-2015 21:40:00 9.9 C 7.28 g/m*3 9.9 C 0 km/h
1702 29-04-2015 21:45:00 9.8 C 7.14 g/m*3 9.8 C 1.6 km/h
1703 29-04-2015 21:50:00 9.8 C 7.24 g/m*3 9.8 C 1.6 km/h
1704 29-04-2015 21:55:00 9.7 C 7.19 g/m*3 9.7 C 1.6 km/h
1705 29-04-2015 22:00:00 9.6 C 7.15 g/m*3 9.6 C 0 km/h
1706 29-04-2015 22:05:00 9.6 C 7.15 g/m*3 9.6 C 1.6 km/h
1707 29-04-2015 22:10:00 9.4 C 7.05 g/m*3 9.4 C 1.6 km/h
1708 29-04-2015 22:15:00 9.4 C 7.05 g/m*3 9.4 C 1.6 km/h
1709 29-04-2015 22:20:00 9.3 C 7.19 g/m*3 9.3 C 1.6 km/h
1710 29-04-2015 22:25:00 9.3 C 7.1 g/m*3 9.3 C 0 km/h
1711 29-04-2015 22:30:00 9.3 C 7.1 g/m*3 9.3 C 0 km/h
1712 29-04-2015 22:35:00 9.3 C 7.19 g/m*3 9.3 C 1.6 km/h
1713 29-04-2015 22:40:00 9.2 C 7.05 g/m*3 9.2 C 0 km/h
1714 29-04-2015 22:45:00 9.2 C 7.14 g/m*3 9.2 C 0 km/h
1715 29-04-2015 22:50:00 9.1 C 7.1 g/m*3 9.1 C 0 km/h
1716 29-04-2015 22:55:00 9 C 7.05 g/m*3 9 C 0 km/h
1717 29-04-2015 23:00:00 8.9 C 7.01 g/m*3 8.9 C 0 km/h
1718 29-04-2015 23:05:00 8.9 C 7.01 g/m*3 8.9 C 1.6 km/h
1719 29-04-2015 23:10:00 8.9 C 6.92 g/m*3 8.9 C 1.6 km/h
1720 29-04-2015 23:15:00 9.1 C 7.1 g/m*3 9.1 C 3.2 km/h
1721 29-04-2015 23:20:00 9.2 C 7.14 g/m*3 9.2 C 1.6 km/h
1722 29-04-2015 23:25:00 9.2 C 7.05 g/m*3 9.2 C 0 km/h
1723 29-04-2015 23:30:00 9.1 C 7.19 g/m*3 9.1 C 1.6 km/h
1724 29-04-2015 23:35:00 9.1 C 7.1 g/m*3 9.1 C 3.2 km/h
1725 29-04-2015 23:40:00 9.1 C 7.1 g/m*3 9.1 C 1.6 km/h
Sensor: Nr:Datum:Temp:Abs-Feuchte:Windchill:Wind:
Aussen-T/F 1726 29-04-2015 23:45:00 9 C 7.05 g/m*3 9 C 0 km/h
1727 29-04-2015 23:50:00 8.9 C 6.83 g/m*3 8.9 C 0 km/h
1728 29-04-2015 23:55:00 8.9 C 6.92 g/m*3 8.9 C 0 km/h
1729 30-04-2015 00:00:00 8.9 C 6.92 g/m*3 8.9 C 0 km/h
1730 30-04-2015 00:05:00 8.9 C 6.83 g/m*3 8.9 C 1.6 km/h
1731 30-04-2015 00:10:00 8.9 C 6.83 g/m*3 8.9 C 1.6 km/h
1732 30-04-2015 00:15:00 8.9 C 6.83 g/m*3 8.9 C 1.6 km/h
1733 30-04-2015 00:20:00 8.9 C 6.92 g/m*3 8.9 C 0 km/h
1734 30-04-2015 00:25:00 8.9 C 6.83 g/m*3 8.9 C 1.6 km/h
1735 30-04-2015 00:30:00 8.9 C 6.75 g/m*3 8.9 C 0 km/h
1736 30-04-2015 00:35:00 8.9 C 6.75 g/m*3 8.9 C 0 km/h
1737 30-04-2015 00:40:00 9 C 6.79 g/m*3 9 C 1.6 km/h
1738 30-04-2015 00:45:00 9 C 6.79 g/m*3 9 C 0 km/h
1739 30-04-2015 00:50:00 8.9 C 6.83 g/m*3 8.9 C 1.6 km/h
1740 30-04-2015 00:55:00 8.9 C 6.83 g/m*3 8.9 C 1.6 km/h
1741 30-04-2015 01:00:00 8.9 C 6.83 g/m*3 8.9 C 1.6 km/h
1742 30-04-2015 01:05:00 8.9 C 6.92 g/m*3 8.9 C 1.6 km/h
1743 30-04-2015 01:10:00 8.8 C 6.88 g/m*3 8.8 C 1.6 km/h
1744 30-04-2015 01:15:00 8.8 C 6.79 g/m*3 8.8 C 3.2 km/h
1745 30-04-2015 01:20:00 8.8 C 6.88 g/m*3 8.8 C 1.6 km/h
1746 30-04-2015 01:25:00 8.8 C 6.79 g/m*3 8.8 C 1.6 km/h
1747 30-04-2015 01:30:00 8.8 C 6.88 g/m*3 8.8 C 1.6 km/h
1748 30-04-2015 01:35:00 8.8 C 6.79 g/m*3 8.8 C 0 km/h
1749 30-04-2015 01:40:00 8.7 C 6.92 g/m*3 8.7 C 0 km/h
1750 30-04-2015 01:45:00 8.6 C 6.96 g/m*3 8.6 C 0 km/h
Sensor: Nr:Datum:Temp:Abs-Feuchte:Windchill:Wind:
Aussen-T/F 1751 30-04-2015 01:50:00 8.6 C 6.79 g/m*3 8.6 C 0 km/h
1752 30-04-2015 01:55:00 8.5 C 6.92 g/m*3 8.5 C 1.6 km/h
1753 30-04-2015 02:00:00 8.5 C 6.74 g/m*3 8.5 C 1.6 km/h
1754 30-04-2015 02:05:00 8.4 C 6.87 g/m*3 8.4 C 0 km/h
1755 30-04-2015 02:10:00 8.4 C 6.79 g/m*3 8.4 C 1.6 km/h
1756 30-04-2015 02:15:00 8.4 C 6.79 g/m*3 8.4 C 0 km/h
1757 30-04-2015 02:20:00 8.4 C 6.79 g/m*3 8.4 C 1.6 km/h
1758 30-04-2015 02:25:00 8.4 C 6.79 g/m*3 8.4 C 1.6 km/h
1759 30-04-2015 02:30:00 8.3 C 6.74 g/m*3 8.3 C 0 km/h
1760 30-04-2015 02:35:00 8.3 C 6.74 g/m*3 8.3 C 1.6 km/h
1761 30-04-2015 02:40:00 8.3 C 6.74 g/m*3 8.3 C 1.6 km/h
1762 30-04-2015 02:45:00 8.3 C 6.74 g/m*3 8.3 C 0 km/h
1763 30-04-2015 02:50:00 8.3 C 6.83 g/m*3 8.3 C 3.2 km/h
1764 30-04-2015 02:55:00 8.2 C 6.78 g/m*3 8.2 C 0 km/h
1765 30-04-2015 03:00:00 8.1 C 6.74 g/m*3 8.1 C 1.6 km/h
1766 30-04-2015 03:05:00 8.1 C 6.82 g/m*3 8.1 C 1.6 km/h
1767 30-04-2015 03:10:00 7.9 C 6.74 g/m*3 7.9 C 0 km/h
1768 30-04-2015 03:15:00 7.9 C 6.74 g/m*3 7.9 C 1.6 km/h
1769 30-04-2015 03:20:00 7.9 C 6.74 g/m*3 7.9 C 1.6 km/h
1770 30-04-2015 03:25:00 7.9 C 6.74 g/m*3 7.9 C 1.6 km/h
1771 30-04-2015 03:30:00 7.9 C 6.82 g/m*3 7.9 C 0 km/h
1772 30-04-2015 03:35:00 7.8 C 6.77 g/m*3 7.8 C 0 km/h
1773 30-04-2015 03:40:00 7.8 C 6.69 g/m*3 7.8 C 0 km/h
1774 30-04-2015 03:45:00 7.9 C 6.74 g/m*3 7.9 C 0 km/h
1775 30-04-2015 03:50:00 7.9 C 6.82 g/m*3 7.9 C 0 km/h
Sensor: Nr:Datum:Temp:Abs-Feuchte:Windchill:Wind:
Aussen-T/F 1776 30-04-2015 03:55:00 7.8 C 6.77 g/m*3 7.8 C 0 km/h
1777 30-04-2015 04:00:00 7.8 C 6.86 g/m*3 7.8 C 0 km/h
1778 30-04-2015 04:05:00 7.7 C 6.73 g/m*3 7.7 C 1.6 km/h
1779 30-04-2015 04:10:00 7.7 C 6.73 g/m*3 7.7 C 0 km/h
1780 30-04-2015 04:15:00 7.6 C 6.69 g/m*3 7.6 C 0 km/h
1781 30-04-2015 04:20:00 7.4 C 6.68 g/m*3 7.4 C 1.6 km/h
1782 30-04-2015 04:25:00 7.3 C 6.72 g/m*3 7.3 C 1.6 km/h
1783 30-04-2015 04:30:00 7.2 C 6.67 g/m*3 7.2 C 0 km/h
1784 30-04-2015 04:35:00 7.1 C 6.71 g/m*3 7.1 C 1.6 km/h
1785 30-04-2015 04:40:00 7.1 C 6.71 g/m*3 7.1 C 1.6 km/h
1786 30-04-2015 04:45:00 7.2 C 6.67 g/m*3 7.2 C 0 km/h
1787 30-04-2015 04:50:00 7.3 C 6.72 g/m*3 7.3 C 1.6 km/h
1788 30-04-2015 04:55:00 7.3 C 6.72 g/m*3 7.3 C 1.6 km/h
1789 30-04-2015 05:00:00 7.4 C 6.76 g/m*3 7.4 C 1.6 km/h
1790 30-04-2015 05:05:00 7.4 C 6.68 g/m*3 7.4 C 1.6 km/h
1791 30-04-2015 05:10:00 7.4 C 6.68 g/m*3 7.4 C 1.6 km/h
1792 30-04-2015 05:15:00 7.4 C 6.68 g/m*3 7.4 C 1.6 km/h
1793 30-04-2015 05:20:00 7.4 C 6.68 g/m*3 7.4 C 1.6 km/h
1794 30-04-2015 05:25:00 7.3 C 6.72 g/m*3 7.3 C 0 km/h
1795 30-04-2015 05:30:00 7.2 C 6.67 g/m*3 7.2 C 0 km/h
1796 30-04-2015 05:35:00 7.2 C 6.67 g/m*3 7.2 C 1.6 km/h
1797 30-04-2015 05:40:00 7.1 C 6.63 g/m*3 7.1 C 3.2 km/h
1798 30-04-2015 05:45:00 7.2 C 6.67 g/m*3 7.2 C 4.8 km/h
1799 30-04-2015 05:50:00 7.2 C 6.67 g/m*3 7.2 C 1.6 km/h
1800 30-04-2015 05:55:00 7.2 C 6.67 g/m*3 7.2 C 0 km/h
Sensor: Nr:Datum:Temp:Abs-Feuchte:Windchill:Wind:
Aussen-T/F 1801 30-04-2015 06:00:00 7.3 C 6.79 g/m*3 7.3 C 0 km/h
1802 30-04-2015 06:05:00 7.3 C 6.79 g/m*3 7.3 C 0 km/h
1803 30-04-2015 06:10:00 7.3 C 6.79 g/m*3 7.3 C 0 km/h
1804 30-04-2015 06:15:00 7.2 C 6.83 g/m*3 7.2 C 1.6 km/h
1805 30-04-2015 06:20:00 7.1 C 6.79 g/m*3 7.1 C 1.6 km/h
1806 30-04-2015 06:25:00 7.1 C 6.79 g/m*3 7.1 C 0 km/h
1807 30-04-2015 06:30:00 7.1 C 6.86 g/m*3 7.1 C 0 km/h
1808 30-04-2015 06:35:00 7 C 6.82 g/m*3 7 C 0 km/h
1809 30-04-2015 06:40:00 6.9 C 6.77 g/m*3 6.9 C 0 km/h
1810 30-04-2015 06:45:00 6.9 C 6.77 g/m*3 6.9 C 0 km/h
1811 30-04-2015 06:50:00 6.9 C 6.77 g/m*3 6.9 C 0 km/h
1812 30-04-2015 06:55:00 6.8 C 6.73 g/m*3 6.8 C 0 km/h
1813 30-04-2015 07:00:00 6.7 C 6.76 g/m*3 6.7 C 0 km/h
1814 30-04-2015 07:05:00 6.7 C 6.76 g/m*3 6.7 C 1.6 km/h
1815 30-04-2015 07:10:00 6.6 C 6.72 g/m*3 6.6 C 1.6 km/h
1816 30-04-2015 07:15:00 6.6 C 6.72 g/m*3 6.6 C 1.6 km/h
1817 30-04-2015 07:20:00 6.5 C 6.67 g/m*3 6.5 C 0 km/h
1818 30-04-2015 07:25:00 6.6 C 6.79 g/m*3 6.6 C 0 km/h
1819 30-04-2015 07:30:00 6.8 C 6.88 g/m*3 6.8 C 0 km/h
1820 30-04-2015 07:35:00 7 C 6.9 g/m*3 7 C 0 km/h
1821 30-04-2015 07:40:00 7.3 C 7.03 g/m*3 7.3 C 4.8 km/h
1822 30-04-2015 07:45:00 7.5 C 7.04 g/m*3 7.5 C 3.2 km/h
1823 30-04-2015 07:50:00 7.8 C 7.1 g/m*3 7.8 C 0 km/h
1824 30-04-2015 07:55:00 8.1 C 7.16 g/m*3 8.1 C 4.8 km/h
1825 30-04-2015 08:00:00 8.3 C 7.08 g/m*3 6.66 C 9.7 km/h
Sensor: Nr:Datum:Temp:Abs-Feuchte:Windchill:Wind:
Aussen-T/F 1826 30-04-2015 08:05:00 8.6 C 7.13 g/m*3 7.01 C 9.7 km/h
1827 30-04-2015 08:10:00 8.8 C 7.05 g/m*3 6.11 C 17.7 km/h
1828 30-04-2015 08:15:00 9.1 C 7.19 g/m*3 6.48 C 17.7 km/h
1829 30-04-2015 08:20:00 9.2 C 7.14 g/m*3 7.46 C 11.3 km/h
1830 30-04-2015 08:25:00 9.3 C 7.19 g/m*3 7.12 C 14.5 km/h
1831 30-04-2015 08:30:00 9.4 C 7.15 g/m*3 7.46 C 12.9 km/h
1832 30-04-2015 08:35:00 9.6 C 7.24 g/m*3 8.21 C 9.7 km/h
1833 30-04-2015 08:40:00 9.7 C 7.19 g/m*3 8.06 C 11.3 km/h
1834 30-04-2015 08:45:00 9.8 C 7.14 g/m*3 7.94 C 12.9 km/h
1835 30-04-2015 08:50:00 9.8 C 7.14 g/m*3 7.73 C 14.5 km/h
1836 30-04-2015 08:55:00 9.9 C 7.1 g/m*3 8.3 C 11.3 km/h
1837 30-04-2015 09:00:00 9.9 C 7.19 g/m*3 8.87 C 8.1 km/h
1838 30-04-2015 09:05:00 10 C 7.14 g/m*3 8.42 C 11.3 km/h
1839 30-04-2015 09:10:00 9.9 C 7.1 g/m*3 8.56 C 9.7 km/h
1840 30-04-2015 09:15:00 9.8 C 7.05 g/m*3 7.36 C 17.7 km/h
1841 30-04-2015 09:20:00 9.8 C 7.05 g/m*3 8.18 C 11.3 km/h
1842 30-04-2015 09:25:00 9.9 C 7.1 g/m*3 7.16 C 20.9 km/h
1843 30-04-2015 09:30:00 10.1 C 7.09 g/m*3 7.91 C 16.1 km/h
1844 30-04-2015 09:35:00 10.2 C 7.23 g/m*3 8.66 C 11.3 km/h
1845 30-04-2015 09:40:00 10.3 C 7.09 g/m*3 8.34 C 14.5 km/h
1846 30-04-2015 09:45:00 10.5 C 7.18 g/m*3 8.23 C 17.7 km/h
1847 30-04-2015 09:50:00 10.6 C 7.12 g/m*3 8.92 C 12.9 km/h
1848 30-04-2015 09:55:00 10.8 C 7.22 g/m*3 8.96 C 14.5 km/h
1849 30-04-2015 10:00:00 10.8 C 7.12 g/m*3 8.96 C 14.5 km/h
1850 30-04-2015 10:05:00 10.8 C 7.22 g/m*3 8.78 C 16.1 km/h
Sensor: Nr:Datum:Temp:Abs-Feuchte:Windchill:Wind:
Aussen-T/F 1851 30-04-2015 10:10:00 11.1 C 7.35 g/m*3 11.1 C 16.1 km/h
1852 30-04-2015 10:15:00 11.3 C 7.34 g/m*3 11.3 C 14.5 km/h
1853 30-04-2015 10:20:00 11.4 C 7.29 g/m*3 11.4 C 11.3 km/h
1854 30-04-2015 10:25:00 11.4 C 7.29 g/m*3 11.4 C 14.5 km/h
1855 30-04-2015 10:30:00 11.6 C 7.38 g/m*3 11.6 C 9.7 km/h
1856 30-04-2015 10:35:00 11.6 C 7.38 g/m*3 11.6 C 16.1 km/h
1857 30-04-2015 10:40:00 11.7 C 7.32 g/m*3 11.7 C 16.1 km/h
1858 30-04-2015 10:45:00 11.8 C 7.47 g/m*3 11.8 C 12.9 km/h
1859 30-04-2015 10:50:00 11.9 C 7.41 g/m*3 11.9 C 12.9 km/h
1860 30-04-2015 10:55:00 11.9 C 7.52 g/m*3 11.9 C 8.1 km/h
1861 30-04-2015 11:00:00 12 C 7.46 g/m*3 12 C 12.9 km/h
1862 30-04-2015 11:05:00 12.1 C 7.61 g/m*3 12.1 C 11.3 km/h
1863 30-04-2015 11:10:00 12.1 C 7.61 g/m*3 12.1 C 8.1 km/h
1864 30-04-2015 11:15:00 12.2 C 7.66 g/m*3 12.2 C 4.8 km/h
1865 30-04-2015 11:20:00 12.2 C 7.66 g/m*3 12.2 C 9.7 km/h
1866 30-04-2015 11:25:00 12.4 C 7.65 g/m*3 12.4 C 9.7 km/h
1867 30-04-2015 11:30:00 12.6 C 7.63 g/m*3 12.6 C 14.5 km/h
1868 30-04-2015 11:35:00 12.7 C 7.68 g/m*3 12.7 C 11.3 km/h
1869 30-04-2015 11:40:00 12.8 C 7.62 g/m*3 12.8 C 12.9 km/h
1870 30-04-2015 11:45:00 12.9 C 7.66 g/m*3 12.9 C 12.9 km/h
1871 30-04-2015 11:50:00 13.1 C 7.76 g/m*3 13.1 C 9.7 km/h
1872 30-04-2015 11:55:00 13.2 C 7.69 g/m*3 13.2 C 14.5 km/h
1873 30-04-2015 12:00:00 13.3 C 7.39 g/m*3 13.3 C 14.5 km/h
1874 30-04-2015 12:05:00 13.3 C 7.63 g/m*3 13.3 C 12.9 km/h
1875 30-04-2015 12:10:00 13.2 C 7.58 g/m*3 13.2 C 12.9 km/h
Sensor: Nr:Datum:Temp:Abs-Feuchte:Windchill:Wind:
Aussen-T/F 1876 30-04-2015 12:15:00 13.2 C 7.58 g/m*3 13.2 C 14.5 km/h
1877 30-04-2015 12:20:00 13.2 C 7.58 g/m*3 13.2 C 19.3 km/h
1878 30-04-2015 12:25:00 13.1 C 7.53 g/m*3 13.1 C 9.7 km/h
1879 30-04-2015 12:30:00 13.1 C 7.53 g/m*3 13.1 C 17.7 km/h
1880 30-04-2015 12:35:00 13.2 C 7.58 g/m*3 13.2 C 12.9 km/h
1881 30-04-2015 12:40:00 13.3 C 7.63 g/m*3 13.3 C 11.3 km/h
1882 30-04-2015 12:45:00 13.9 C 8.03 g/m*3 13.9 C 12.9 km/h
1883 30-04-2015 12:50:00 14.3 C 7.99 g/m*3 14.3 C 20.9 km/h
1884 30-04-2015 12:55:00 14.4 C 7.91 g/m*3 14.4 C 9.7 km/h
1885 30-04-2015 13:00:00 14.6 C 8.01 g/m*3 14.6 C 14.5 km/h
1886 30-04-2015 13:05:00 14.5 C 7.84 g/m*3 14.5 C 17.7 km/h
1887 30-04-2015 13:10:00 14.4 C 7.91 g/m*3 14.4 C 14.5 km/h
1888 30-04-2015 13:15:00 14.5 C 7.96 g/m*3 14.5 C 20.9 km/h
1889 30-04-2015 13:20:00 14.4 C 7.79 g/m*3 14.4 C 11.3 km/h
1890 30-04-2015 13:25:00 14.2 C 8.06 g/m*3 14.2 C 20.9 km/h
1891 30-04-2015 13:30:00 14 C 8.08 g/m*3 14 C 19.3 km/h
1892 30-04-2015 13:35:00 13.8 C 8.22 g/m*3 13.8 C 19.3 km/h
1893 30-04-2015 13:40:00 13.7 C 8.05 g/m*3 13.7 C 12.9 km/h
1894 30-04-2015 13:45:00 13.6 C 8 g/m*3 13.6 C 17.7 km/h
1895 30-04-2015 13:50:00 13.8 C 8.58 g/m*3 13.8 C 19.3 km/h
1896 30-04-2015 13:55:00 13.8 C 8.34 g/m*3 13.8 C 11.3 km/h
1897 30-04-2015 14:00:00 13.7 C 8.53 g/m*3 13.7 C 11.3 km/h
1898 30-04-2015 14:05:00 13.7 C 8.53 g/m*3 13.7 C 12.9 km/h
1899 30-04-2015 14:10:00 13.7 C 8.41 g/m*3 13.7 C 12.9 km/h
1900 30-04-2015 14:15:00 13.6 C 8.47 g/m*3 13.6 C 6.4 km/h
Sensor: Nr:Datum:Temp:Abs-Feuchte:Windchill:Wind:
Aussen-T/F 1901 30-04-2015 14:20:00 13.3 C 8.55 g/m*3 13.3 C 9.7 km/h
1902 30-04-2015 14:25:00 13.1 C 8.79 g/m*3 13.1 C 4.8 km/h
1903 30-04-2015 14:30:00 12.9 C 8.68 g/m*3 12.9 C 8.1 km/h
1904 30-04-2015 14:35:00 12.4 C 8.74 g/m*3 12.4 C 14.5 km/h
1905 30-04-2015 14:40:00 11.4 C 8.42 g/m*3 11.4 C 12.9 km/h
1906 30-04-2015 14:45:00 11.1 C 8.56 g/m*3 11.1 C 9.7 km/h
1907 30-04-2015 14:50:00 11.1 C 8.66 g/m*3 11.1 C 9.7 km/h
1908 30-04-2015 14:55:00 11.2 C 8.82 g/m*3 11.2 C 4.8 km/h
1909 30-04-2015 15:00:00 11.3 C 8.77 g/m*3 11.3 C 6.4 km/h
1910 30-04-2015 15:05:00 11.4 C 8.72 g/m*3 11.4 C 14.5 km/h
1911 30-04-2015 15:10:00 11.6 C 8.94 g/m*3 11.6 C 12.9 km/h
1912 30-04-2015 15:15:00 11.9 C 9 g/m*3 11.9 C 12.9 km/h
1913 30-04-2015 15:20:00 12.2 C 8.85 g/m*3 12.2 C 16.1 km/h
1914 30-04-2015 15:25:00 12.3 C 9.01 g/m*3 12.3 C 16.1 km/h
1915 30-04-2015 15:30:00 12.4 C 8.63 g/m*3 12.4 C 16.1 km/h
1916 30-04-2015 15:35:00 12.4 C 8.74 g/m*3 12.4 C 14.5 km/h
1917 30-04-2015 15:40:00 12.3 C 8.58 g/m*3 12.3 C 16.1 km/h
1918 30-04-2015 15:45:00 12.2 C 8.31 g/m*3 12.2 C 17.7 km/h
1919 30-04-2015 15:50:00 12 C 8.21 g/m*3 12 C 19.3 km/h
1920 30-04-2015 15:55:00 11.8 C 8.42 g/m*3 11.8 C 12.9 km/h
1921 30-04-2015 16:00:00 11.6 C 8.63 g/m*3 11.6 C 4.8 km/h
1922 30-04-2015 16:05:00 11.5 C 8.47 g/m*3 11.5 C 6.4 km/h
1923 30-04-2015 16:10:00 11.5 C 8.57 g/m*3 11.5 C 11.3 km/h
1924 30-04-2015 16:15:00 11.6 C 8.63 g/m*3 11.6 C 17.7 km/h
1925 30-04-2015 16:20:00 11.9 C 8.58 g/m*3 11.9 C 17.7 km/h
Sensor: Nr:Datum:Temp:Abs-Feuchte:Windchill:Wind:
Aussen-T/F 1926 30-04-2015 16:25:00 12.1 C 8.69 g/m*3 12.1 C 8.1 km/h
1927 30-04-2015 16:30:00 12.1 C 8.58 g/m*3 12.1 C 11.3 km/h
1928 30-04-2015 16:35:00 12.1 C 8.47 g/m*3 12.1 C 19.3 km/h
1929 30-04-2015 16:40:00 12 C 8.31 g/m*3 12 C 16.1 km/h
1930 30-04-2015 16:45:00 11.9 C 8.37 g/m*3 11.9 C 12.9 km/h
1931 30-04-2015 16:50:00 11.8 C 8.42 g/m*3 11.8 C 14.5 km/h
1932 30-04-2015 16:55:00 11.8 C 8.42 g/m*3 11.8 C 14.5 km/h
1933 30-04-2015 17:00:00 11.7 C 8.37 g/m*3 11.7 C 16.1 km/h
1934 30-04-2015 17:05:00 11.6 C 8.32 g/m*3 11.6 C 8.1 km/h
1935 30-04-2015 17:10:00 11.4 C 8.31 g/m*3 11.4 C 16.1 km/h
1936 30-04-2015 17:15:00 11.3 C 8.26 g/m*3 11.3 C 6.4 km/h
1937 30-04-2015 17:20:00 11.3 C 8.26 g/m*3 11.3 C 19.3 km/h
1938 30-04-2015 17:25:00 11.2 C 8.21 g/m*3 11.2 C 14.5 km/h
1939 30-04-2015 17:30:00 11.1 C 8.16 g/m*3 11.1 C 9.7 km/h
1940 30-04-2015 17:35:00 11.1 C 8.16 g/m*3 11.1 C 14.5 km/h
1941 30-04-2015 17:40:00 10.9 C 8.16 g/m*3 9.51 C 11.3 km/h
1942 30-04-2015 17:45:00 10.9 C 8.26 g/m*3 9.51 C 11.3 km/h
1943 30-04-2015 17:50:00 10.8 C 8.2 g/m*3 9.16 C 12.9 km/h
1944 30-04-2015 17:55:00 10.8 C 8.2 g/m*3 9.93 C 8.1 km/h
1945 30-04-2015 18:00:00 10.8 C 8.2 g/m*3 9.38 C 11.3 km/h
1946 30-04-2015 18:05:00 10.7 C 8.05 g/m*3 8.84 C 14.5 km/h
1947 30-04-2015 18:10:00 10.6 C 7.91 g/m*3 8.71 C 14.5 km/h
1948 30-04-2015 18:15:00 10.6 C 8 g/m*3 8.53 C 16.1 km/h
1949 30-04-2015 18:20:00 10.5 C 7.95 g/m*3 8.59 C 14.5 km/h
1950 30-04-2015 18:25:00 10.4 C 7.9 g/m*3 8.67 C 12.9 km/h
Sensor: Nr:Datum:Temp:Abs-Feuchte:Windchill:Wind:
Aussen-T/F 1951 30-04-2015 18:30:00 10.4 C 8 g/m*3 9.16 C 9.7 km/h
1952 30-04-2015 18:35:00 10.3 C 7.95 g/m*3 8.34 C 14.5 km/h
1953 30-04-2015 18:40:00 10.3 C 7.95 g/m*3 8.78 C 11.3 km/h
1954 30-04-2015 18:45:00 10.3 C 7.85 g/m*3 9.04 C 9.7 km/h
1955 30-04-2015 18:50:00 10.3 C 7.95 g/m*3 8.55 C 12.9 km/h
1956 30-04-2015 18:55:00 10.3 C 7.85 g/m*3 8.55 C 12.9 km/h
1957 30-04-2015 19:00:00 10.3 C 7.85 g/m*3 9.04 C 9.7 km/h
1958 30-04-2015 19:05:00 10.2 C 7.8 g/m*3 8.22 C 14.5 km/h
1959 30-04-2015 19:10:00 10.2 C 7.9 g/m*3 8.92 C 9.7 km/h
1960 30-04-2015 19:15:00 10.1 C 7.94 g/m*3 8.54 C 11.3 km/h
1961 30-04-2015 19:20:00 10.1 C 7.94 g/m*3 9.48 C 6.4 km/h
1962 30-04-2015 19:25:00 10 C 7.89 g/m*3 9.37 C 6.4 km/h
1963 30-04-2015 19:30:00 10 C 7.89 g/m*3 8.42 C 11.3 km/h
1964 30-04-2015 19:35:00 10 C 7.89 g/m*3 10 C 3.2 km/h
1965 30-04-2015 19:40:00 10 C 7.89 g/m*3 8.68 C 9.7 km/h
1966 30-04-2015 19:45:00 10 C 7.8 g/m*3 8.19 C 12.9 km/h
1967 30-04-2015 19:50:00 10 C 7.89 g/m*3 9.37 C 6.4 km/h
1968 30-04-2015 19:55:00 9.9 C 7.84 g/m*3 9.25 C 6.4 km/h
1969 30-04-2015 20:00:00 9.9 C 7.94 g/m*3 9.25 C 6.4 km/h
1970 30-04-2015 20:05:00 9.8 C 7.89 g/m*3 9.8 C 4.8 km/h
1971 30-04-2015 20:10:00 9.8 C 7.89 g/m*3 8.75 C 8.1 km/h
1972 30-04-2015 20:15:00 9.7 C 7.93 g/m*3 9.7 C 4.8 km/h
1973 30-04-2015 20:20:00 9.7 C 7.84 g/m*3 8.63 C 8.1 km/h
1974 30-04-2015 20:25:00 9.7 C 7.84 g/m*3 9.7 C 3.2 km/h
1975 30-04-2015 20:30:00 9.7 C 7.93 g/m*3 9.7 C 4.8 km/h
Sensor: Nr:Datum:Temp:Abs-Feuchte:Windchill:Wind:
Aussen-T/F 1976 30-04-2015 20:35:00 9.7 C 8.02 g/m*3 9.7 C 3.2 km/h
1977 30-04-2015 20:40:00 9.6 C 7.97 g/m*3 9.6 C 1.6 km/h
1978 30-04-2015 20:45:00 9.4 C 7.96 g/m*3 9.4 C 0 km/h
1979 30-04-2015 20:50:00 9.3 C 8 g/m*3 9.3 C 3.2 km/h
1980 30-04-2015 20:55:00 9.2 C 7.95 g/m*3 9.2 C 1.6 km/h
1981 30-04-2015 21:00:00 9.2 C 7.95 g/m*3 9.2 C 1.6 km/h
1982 30-04-2015 21:05:00 9.1 C 7.99 g/m*3 9.1 C 0 km/h
1983 30-04-2015 21:10:00 9.1 C 7.99 g/m*3 9.1 C 1.6 km/h
1984 30-04-2015 21:15:00 9.1 C 7.9 g/m*3 7.61 C 9.7 km/h
1985 30-04-2015 21:20:00 9.1 C 7.9 g/m*3 9.1 C 3.2 km/h
1986 30-04-2015 21:25:00 9 C 7.93 g/m*3 9 C 0 km/h
1987 30-04-2015 21:30:00 9 C 7.93 g/m*3 9 C 1.6 km/h
1988 30-04-2015 21:35:00 9 C 7.93 g/m*3 9 C 0 km/h
1989 30-04-2015 21:40:00 8.9 C 7.97 g/m*3 8.9 C 0 km/h
1990 30-04-2015 21:45:00 8.9 C 7.97 g/m*3 8.9 C 3.2 km/h
1991 30-04-2015 21:50:00 8.9 C 7.97 g/m*3 8.9 C 1.6 km/h
1992 30-04-2015 21:55:00 8.9 C 8.06 g/m*3 8.9 C 1.6 km/h
1993 30-04-2015 22:00:00 8.8 C 8.01 g/m*3 8.8 C 1.6 km/h
1994 30-04-2015 22:05:00 8.8 C 8.01 g/m*3 8.8 C 0 km/h
1995 30-04-2015 22:10:00 8.7 C 7.96 g/m*3 8.7 C 3.2 km/h
1996 30-04-2015 22:15:00 8.7 C 8.04 g/m*3 8.7 C 1.6 km/h
1997 30-04-2015 22:20:00 8.6 C 7.99 g/m*3 8.6 C 1.6 km/h
1998 30-04-2015 22:25:00 8.6 C 7.99 g/m*3 8.6 C 3.2 km/h
1999 30-04-2015 22:30:00 8.4 C 7.89 g/m*3 8.4 C 3.2 km/h
2000 30-04-2015 22:35:00 8.3 C 7.75 g/m*3 8.3 C 3.2 km/h
Sensor: Nr:Datum:Temp:Abs-Feuchte:Windchill:Wind:
Aussen-T/F 2001 30-04-2015 22:40:00 8.3 C 7.75 g/m*3 8.3 C 3.2 km/h
2002 30-04-2015 22:45:00 8.2 C 7.7 g/m*3 8.2 C 3.2 km/h
2003 30-04-2015 22:50:00 8.2 C 7.7 g/m*3 8.2 C 1.6 km/h
2004 30-04-2015 22:55:00 8.2 C 7.7 g/m*3 8.2 C 3.2 km/h
2005 30-04-2015 23:00:00 8.2 C 7.7 g/m*3 8.2 C 3.2 km/h
2006 30-04-2015 23:05:00 8.1 C 7.66 g/m*3 8.1 C 1.6 km/h
2007 30-04-2015 23:10:00 8.1 C 7.66 g/m*3 8.1 C 4.8 km/h
2008 30-04-2015 23:15:00 8 C 7.61 g/m*3 8 C 0 km/h
2009 30-04-2015 23:20:00 7.9 C 7.64 g/m*3 7.9 C 1.6 km/h
2010 30-04-2015 23:25:00 7.8 C 7.59 g/m*3 7.8 C 1.6 km/h
2011 30-04-2015 23:30:00 7.7 C 7.54 g/m*3 7.7 C 1.6 km/h
2012 30-04-2015 23:35:00 7.5 C 7.44 g/m*3 7.5 C 1.6 km/h
2013 30-04-2015 23:40:00 7.4 C 7.4 g/m*3 7.4 C 1.6 km/h
2014 30-04-2015 23:45:00 7.3 C 7.35 g/m*3 7.3 C 1.6 km/h
2015 30-04-2015 23:50:00 7.2 C 7.3 g/m*3 7.2 C 3.2 km/h
2016 30-04-2015 23:55:00 7 C 7.21 g/m*3 7 C 0 km/h
2017 01-05-2015 00:00:00 6.8 C 7.11 g/m*3 6.8 C 1.6 km/h
2018 01-05-2015 00:05:00 6.7 C 7.07 g/m*3 6.7 C 1.6 km/h
2019 01-05-2015 00:10:00 6.6 C 7.02 g/m*3 6.6 C 0 km/h
2020 01-05-2015 00:15:00 6.5 C 6.97 g/m*3 6.5 C 0 km/h
2021 01-05-2015 00:20:00 6.3 C 6.88 g/m*3 6.3 C 0 km/h
2022 01-05-2015 00:25:00 6.2 C 6.84 g/m*3 6.2 C 0 km/h
2023 01-05-2015 00:30:00 6.1 C 6.87 g/m*3 6.1 C 0 km/h
2024 01-05-2015 00:35:00 6.1 C 6.87 g/m*3 6.1 C 3.2 km/h
2025 01-05-2015 00:40:00 6 C 6.82 g/m*3 6 C 3.2 km/h
Sensor: Nr:Datum:Temp:Abs-Feuchte:Windchill:Wind:
Aussen-T/F 2026 01-05-2015 00:45:00 6 C 6.82 g/m*3 6 C 0 km/h
2027 01-05-2015 00:50:00 5.9 C 6.78 g/m*3 5.9 C 1.6 km/h
2028 01-05-2015 00:55:00 6 C 6.82 g/m*3 6 C 1.6 km/h
2029 01-05-2015 01:00:00 6.1 C 6.94 g/m*3 6.1 C 0 km/h
2030 01-05-2015 01:05:00 6.2 C 6.99 g/m*3 6.2 C 1.6 km/h
2031 01-05-2015 01:10:00 6.1 C 6.94 g/m*3 6.1 C 0 km/h
2032 01-05-2015 01:15:00 6 C 6.82 g/m*3 6 C 0 km/h
2033 01-05-2015 01:20:00 6 C 6.9 g/m*3 6 C 0 km/h
2034 01-05-2015 01:25:00 5.9 C 6.85 g/m*3 5.9 C 0 km/h
2035 01-05-2015 01:30:00 6 C 6.9 g/m*3 6 C 0 km/h
2036 01-05-2015 01:35:00 6 C 6.9 g/m*3 6 C 0 km/h
2037 01-05-2015 01:40:00 6 C 6.9 g/m*3 6 C 0 km/h
2038 01-05-2015 01:45:00 5.9 C 6.85 g/m*3 5.9 C 0 km/h
2039 01-05-2015 01:50:00 5.8 C 6.81 g/m*3 5.8 C 0 km/h
2040 01-05-2015 01:55:00 5.7 C 6.76 g/m*3 5.7 C 0 km/h
2041 01-05-2015 02:00:00 5.7 C 6.76 g/m*3 5.7 C 0 km/h
2042 01-05-2015 02:05:00 5.7 C 6.76 g/m*3 5.7 C 0 km/h
2043 01-05-2015 02:10:00 5.7 C 6.76 g/m*3 5.7 C 0 km/h
2044 01-05-2015 02:15:00 5.7 C 6.76 g/m*3 5.7 C 1.6 km/h
2045 01-05-2015 02:20:00 5.7 C 6.76 g/m*3 5.7 C 0 km/h
2046 01-05-2015 02:25:00 5.7 C 6.76 g/m*3 5.7 C 1.6 km/h
2047 01-05-2015 02:30:00 5.6 C 6.72 g/m*3 5.6 C 0 km/h
2048 01-05-2015 02:35:00 5.5 C 6.67 g/m*3 5.5 C 1.6 km/h
2049 01-05-2015 02:40:00 5.5 C 6.67 g/m*3 5.5 C 0 km/h
2050 01-05-2015 02:45:00 5.5 C 6.67 g/m*3 5.5 C 0 km/h
Sensor: Nr:Datum:Temp:Abs-Feuchte:Windchill:Wind:
Aussen-T/F 2051 01-05-2015 02:50:00 5.5 C 6.67 g/m*3 5.5 C 0 km/h
2052 01-05-2015 02:55:00 5.4 C 6.63 g/m*3 5.4 C 3.2 km/h
2053 01-05-2015 03:00:00 5.4 C 6.63 g/m*3 5.4 C 1.6 km/h
2054 01-05-2015 03:05:00 5.2 C 6.54 g/m*3 5.2 C 0 km/h
2055 01-05-2015 03:10:00 5.1 C 6.5 g/m*3 5.1 C 0 km/h
2056 01-05-2015 03:15:00 4.9 C 6.41 g/m*3 4.9 C 0 km/h
2057 01-05-2015 03:20:00 4.8 C 6.37 g/m*3 4.8 C 0 km/h
2058 01-05-2015 03:25:00 4.8 C 6.37 g/m*3 4.8 C 0 km/h
2059 01-05-2015 03:30:00 4.7 C 6.33 g/m*3 4.7 C 0 km/h
2060 01-05-2015 03:35:00 4.7 C 6.33 g/m*3 4.7 C 0 km/h
2061 01-05-2015 03:40:00 4.6 C 6.29 g/m*3 4.6 C 0 km/h
2062 01-05-2015 03:45:00 4.6 C 6.29 g/m*3 4.6 C 0 km/h
2063 01-05-2015 03:50:00 4.5 C 6.24 g/m*3 4.5 C 0 km/h
2064 01-05-2015 03:55:00 4.4 C 6.2 g/m*3 4.4 C 0 km/h
2065 01-05-2015 04:00:00 4.3 C 6.16 g/m*3 4.3 C 0 km/h
2066 01-05-2015 04:05:00 4.3 C 6.16 g/m*3 4.3 C 0 km/h
2067 01-05-2015 04:10:00 4.3 C 6.16 g/m*3 4.3 C 0 km/h
2068 01-05-2015 04:15:00 4.2 C 6.12 g/m*3 4.2 C 0 km/h
2069 01-05-2015 04:20:00 4.1 C 6.08 g/m*3 4.1 C 0 km/h
2070 01-05-2015 04:25:00 4.1 C 6.08 g/m*3 4.1 C 0 km/h
2071 01-05-2015 04:30:00 4.1 C 6.08 g/m*3 4.1 C 0 km/h
2072 01-05-2015 04:35:00 4.1 C 6.08 g/m*3 4.1 C 0 km/h
2073 01-05-2015 04:40:00 4.1 C 6.08 g/m*3 4.1 C 0 km/h
2074 01-05-2015 04:45:00 4 C 6.04 g/m*3 4 C 1.6 km/h
2075 01-05-2015 04:50:00 4 C 6.04 g/m*3 4 C 0 km/h
Sensor: Nr:Datum:Temp:Abs-Feuchte:Windchill:Wind:
Aussen-T/F 2076 01-05-2015 04:55:00 4 C 6.04 g/m*3 4 C 0 km/h
2077 01-05-2015 05:00:00 4 C 6.04 g/m*3 4 C 0 km/h
2078 01-05-2015 05:05:00 4 C 6.04 g/m*3 4 C 0 km/h
2079 01-05-2015 05:10:00 4 C 6.04 g/m*3 4 C 1.6 km/h
2080 01-05-2015 05:15:00 4.1 C 6.08 g/m*3 4.1 C 0 km/h
2081 01-05-2015 05:20:00 4.2 C 6.19 g/m*3 4.2 C 0 km/h
2082 01-05-2015 05:25:00 4.2 C 6.19 g/m*3 4.2 C 0 km/h
2083 01-05-2015 05:30:00 4.3 C 6.23 g/m*3 4.3 C 0 km/h
2084 01-05-2015 05:35:00 4.3 C 6.23 g/m*3 4.3 C 0 km/h
2085 01-05-2015 05:40:00 4.4 C 6.27 g/m*3 4.4 C 0 km/h
2086 01-05-2015 05:45:00 4.4 C 6.27 g/m*3 4.4 C 0 km/h
2087 01-05-2015 05:50:00 4.4 C 6.27 g/m*3 4.4 C 0 km/h
2088 01-05-2015 05:55:00 4.4 C 6.27 g/m*3 4.4 C 0 km/h
2089 01-05-2015 06:00:00 4.4 C 6.27 g/m*3 4.4 C 0 km/h
2090 01-05-2015 06:05:00 4.3 C 6.23 g/m*3 4.3 C 0 km/h
2091 01-05-2015 06:10:00 4.3 C 6.23 g/m*3 4.3 C 0 km/h
2092 01-05-2015 06:15:00 4.3 C 6.23 g/m*3 4.3 C 0 km/h
2093 01-05-2015 06:20:00 4.3 C 6.23 g/m*3 4.3 C 0 km/h
2094 01-05-2015 06:25:00 4.3 C 6.23 g/m*3 4.3 C 0 km/h
2095 01-05-2015 06:30:00 4.3 C 6.23 g/m*3 4.3 C 1.6 km/h
2096 01-05-2015 06:35:00 4.3 C 6.23 g/m*3 4.3 C 0 km/h
2097 01-05-2015 06:40:00 4.3 C 6.23 g/m*3 4.3 C 0 km/h
2098 01-05-2015 06:45:00 4.3 C 6.23 g/m*3 4.3 C 0 km/h
2099 01-05-2015 06:50:00 4.4 C 6.27 g/m*3 4.4 C 0 km/h
2100 01-05-2015 06:55:00 4.4 C 6.27 g/m*3 4.4 C 0 km/h
Sensor: Nr:Datum:Temp:Abs-Feuchte:Windchill:Wind:
Aussen-T/F 2101 01-05-2015 07:00:00 4.5 C 6.31 g/m*3 4.5 C 1.6 km/h
2102 01-05-2015 07:05:00 4.5 C 6.31 g/m*3 4.5 C 0 km/h
2103 01-05-2015 07:10:00 4.5 C 6.31 g/m*3 4.5 C 0 km/h
2104 01-05-2015 07:15:00 4.5 C 6.31 g/m*3 4.5 C 0 km/h
2105 01-05-2015 07:20:00 4.6 C 6.35 g/m*3 4.6 C 0 km/h
2106 01-05-2015 07:25:00 4.6 C 6.35 g/m*3 4.6 C 0 km/h
2107 01-05-2015 07:30:00 4.6 C 6.35 g/m*3 4.6 C 0 km/h
2108 01-05-2015 07:35:00 4.6 C 6.35 g/m*3 4.6 C 0 km/h
2109 01-05-2015 07:40:00 4.7 C 6.39 g/m*3 4.7 C 0 km/h
2110 01-05-2015 07:45:00 4.7 C 6.39 g/m*3 4.7 C 0 km/h
2111 01-05-2015 07:50:00 4.7 C 6.39 g/m*3 4.7 C 0 km/h
2112 01-05-2015 07:55:00 4.7 C 6.39 g/m*3 4.7 C 0 km/h
2113 01-05-2015 08:00:00 4.7 C 6.39 g/m*3 4.7 C 0 km/h
2114 01-05-2015 08:05:00 4.8 C 6.44 g/m*3 4.8 C 1.6 km/h
2115 01-05-2015 08:10:00 4.8 C 6.44 g/m*3 4.8 C 0 km/h
2116 01-05-2015 08:15:00 4.9 C 6.48 g/m*3 4.9 C 0 km/h
2117 01-05-2015 08:20:00 5 C 6.52 g/m*3 5 C 1.6 km/h
2118 01-05-2015 08:25:00 5.1 C 6.57 g/m*3 5.1 C 0 km/h
2119 01-05-2015 08:30:00 5.2 C 6.61 g/m*3 5.2 C 0 km/h
2120 01-05-2015 08:35:00 5.3 C 6.65 g/m*3 5.3 C 0 km/h
2121 01-05-2015 08:40:00 5.3 C 6.65 g/m*3 5.3 C 1.6 km/h
2122 01-05-2015 08:45:00 5.4 C 6.7 g/m*3 5.4 C 1.6 km/h
2123 01-05-2015 08:50:00 5.4 C 6.7 g/m*3 5.4 C 0 km/h
2124 01-05-2015 08:55:00 5.6 C 6.79 g/m*3 5.6 C 0 km/h
2125 01-05-2015 09:00:00 5.7 C 6.83 g/m*3 5.7 C 0 km/h
Sensor: Nr:Datum:Temp:Abs-Feuchte:Windchill:Wind:
Aussen-T/F 2126 01-05-2015 09:05:00 5.7 C 6.83 g/m*3 5.7 C 0 km/h
2127 01-05-2015 09:10:00 5.8 C 6.88 g/m*3 5.8 C 0 km/h
2128 01-05-2015 09:15:00 5.8 C 6.88 g/m*3 5.8 C 0 km/h
2129 01-05-2015 09:20:00 5.8 C 6.88 g/m*3 5.8 C 0 km/h
2130 01-05-2015 09:25:00 5.9 C 6.92 g/m*3 5.9 C 0 km/h
2131 01-05-2015 09:30:00 6.1 C 7.01 g/m*3 6.1 C 0 km/h
2132 01-05-2015 09:35:00 6.2 C 7.06 g/m*3 6.2 C 0 km/h
2133 01-05-2015 09:40:00 6.3 C 7.11 g/m*3 6.3 C 3.2 km/h
2134 01-05-2015 09:45:00 6.3 C 7.11 g/m*3 6.3 C 3.2 km/h
2135 01-05-2015 09:50:00 6.4 C 7.15 g/m*3 6.4 C 3.2 km/h
2136 01-05-2015 09:55:00 6.4 C 7.15 g/m*3 6.4 C 1.6 km/h
2137 01-05-2015 10:00:00 6.4 C 7.15 g/m*3 6.4 C 1.6 km/h
2138 01-05-2015 10:05:00 6.6 C 7.25 g/m*3 6.6 C 3.2 km/h
2139 01-05-2015 10:10:00 6.6 C 7.25 g/m*3 6.6 C 0 km/h
2140 01-05-2015 10:15:00 6.7 C 7.29 g/m*3 6.7 C 1.6 km/h
2141 01-05-2015 10:20:00 6.7 C 7.29 g/m*3 6.7 C 3.2 km/h
2142 01-05-2015 10:25:00 6.8 C 7.34 g/m*3 6.8 C 3.2 km/h
2143 01-05-2015 10:30:00 6.8 C 7.34 g/m*3 6.8 C 0 km/h
2144 01-05-2015 10:35:00 6.9 C 7.39 g/m*3 6.9 C 0 km/h
2145 01-05-2015 10:40:00 7 C 7.44 g/m*3 7 C 0 km/h
2146 01-05-2015 10:45:00 7.1 C 7.49 g/m*3 7.1 C 3.2 km/h
2147 01-05-2015 10:50:00 7.1 C 7.49 g/m*3 7.1 C 1.6 km/h
2148 01-05-2015 10:55:00 7.2 C 7.54 g/m*3 7.2 C 0 km/h
2149 01-05-2015 11:00:00 7.2 C 7.54 g/m*3 7.2 C 3.2 km/h
2150 01-05-2015 11:05:00 7.2 C 7.54 g/m*3 7.2 C 1.6 km/h
Sensor: Nr:Datum:Temp:Abs-Feuchte:Windchill:Wind:
Aussen-T/F 2151 01-05-2015 11:10:00 7.3 C 7.58 g/m*3 7.3 C 1.6 km/h
2152 01-05-2015 11:15:00 7.4 C 7.63 g/m*3 6.37 C 6.4 km/h
2153 01-05-2015 11:20:00 7.5 C 7.68 g/m*3 6.48 C 6.4 km/h
2154 01-05-2015 11:25:00 7.6 C 7.73 g/m*3 6.6 C 6.4 km/h
2155 01-05-2015 11:30:00 7.6 C 7.65 g/m*3 7.6 C 3.2 km/h
2156 01-05-2015 11:35:00 7.7 C 7.7 g/m*3 7.7 C 4.8 km/h
2157 01-05-2015 11:40:00 7.8 C 7.75 g/m*3 7.8 C 3.2 km/h
2158 01-05-2015 11:45:00 8.1 C 7.9 g/m*3 8.1 C 3.2 km/h
2159 01-05-2015 11:50:00 8.2 C 7.87 g/m*3 8.2 C 3.2 km/h
2160 01-05-2015 11:55:00 8.3 C 7.92 g/m*3 8.3 C 1.6 km/h
2161 01-05-2015 12:00:00 8.6 C 8.08 g/m*3 8.6 C 4.8 km/h
2162 01-05-2015 12:05:00 8.8 C 8.18 g/m*3 7.98 C 6.4 km/h
2163 01-05-2015 12:10:00 9 C 8.2 g/m*3 9 C 4.8 km/h
2164 01-05-2015 12:15:00 9.2 C 8.22 g/m*3 9.2 C 3.2 km/h
2165 01-05-2015 12:20:00 9.4 C 8.32 g/m*3 9.4 C 3.2 km/h
2166 01-05-2015 12:25:00 9.7 C 8.39 g/m*3 9.02 C 6.4 km/h
2167 01-05-2015 12:30:00 9.8 C 8.26 g/m*3 8.75 C 8.1 km/h
2168 01-05-2015 12:35:00 10.1 C 8.42 g/m*3 10.1 C 4.8 km/h
2169 01-05-2015 12:40:00 10.2 C 8.28 g/m*3 10.2 C 3.2 km/h
2170 01-05-2015 12:45:00 10.3 C 8.43 g/m*3 10.3 C 3.2 km/h
2171 01-05-2015 12:50:00 10.6 C 8.49 g/m*3 10.6 C 4.8 km/h
2172 01-05-2015 12:55:00 10.8 C 8.7 g/m*3 10.8 C 4.8 km/h
2173 01-05-2015 13:00:00 11 C 8.51 g/m*3 11 C 4.8 km/h
2174 01-05-2015 13:05:00 11.2 C 8.51 g/m*3 11.2 C 3.2 km/h
2175 01-05-2015 13:10:00 11.4 C 8.62 g/m*3 11.4 C 6.4 km/h
Sensor: Nr:Datum:Temp:Abs-Feuchte:Windchill:Wind:
Aussen-T/F 2176 01-05-2015 13:15:00 11.7 C 8.26 g/m*3 11.7 C 4.8 km/h
2177 01-05-2015 13:20:00 11.9 C 8.15 g/m*3 11.9 C 6.4 km/h
2178 01-05-2015 13:25:00 12.1 C 8.36 g/m*3 12.1 C 6.4 km/h
2179 01-05-2015 13:30:00 12.2 C 8.09 g/m*3 12.2 C 4.8 km/h
2180 01-05-2015 13:35:00 12.3 C 8.14 g/m*3 12.3 C 4.8 km/h
2181 01-05-2015 13:40:00 12.5 C 8.25 g/m*3 12.5 C 8.1 km/h
2182 01-05-2015 13:45:00 12.6 C 7.97 g/m*3 12.6 C 4.8 km/h
2183 01-05-2015 13:50:00 12.8 C 8.4 g/m*3 12.8 C 8.1 km/h
2184 01-05-2015 13:55:00 12.9 C 8.11 g/m*3 12.9 C 8.1 km/h
2185 01-05-2015 14:00:00 13.1 C 7.99 g/m*3 13.1 C 8.1 km/h
2186 01-05-2015 14:05:00 13.2 C 7.92 g/m*3 13.2 C 8.1 km/h
2187 01-05-2015 14:10:00 13.2 C 7.69 g/m*3 13.2 C 9.7 km/h
2188 01-05-2015 14:15:00 13.2 C 7.23 g/m*3 13.2 C 9.7 km/h
2189 01-05-2015 14:20:00 13.3 C 7.39 g/m*3 13.3 C 8.1 km/h
2190 01-05-2015 14:25:00 13.2 C 7.23 g/m*3 13.2 C 9.7 km/h
2191 01-05-2015 14:30:00 13.2 C 6.66 g/m*3 13.2 C 4.8 km/h
2192 01-05-2015 14:35:00 13.2 C 6.66 g/m*3 13.2 C 4.8 km/h
2193 01-05-2015 14:40:00 13.1 C 6.85 g/m*3 13.1 C 11.3 km/h
2194 01-05-2015 14:45:00 13.1 C 6.05 g/m*3 13.1 C 11.3 km/h
2195 01-05-2015 14:50:00 13.2 C 6.77 g/m*3 13.2 C 6.4 km/h
2196 01-05-2015 14:55:00 13.3 C 6.01 g/m*3 13.3 C 6.4 km/h
2197 01-05-2015 15:00:00 13.3 C 6.01 g/m*3 13.3 C 4.8 km/h
2198 01-05-2015 15:05:00 13.2 C 6.2 g/m*3 13.2 C 8.1 km/h
2199 01-05-2015 15:10:00 13.3 C 6.01 g/m*3 13.3 C 6.4 km/h
2200 01-05-2015 15:15:00 13.3 C 5.89 g/m*3 13.3 C 6.4 km/h
Sensor: Nr:Datum:Temp:Abs-Feuchte:Windchill:Wind:
Aussen-T/F 2201 01-05-2015 15:20:00 13.3 C 6.01 g/m*3 13.3 C 6.4 km/h
2202 01-05-2015 15:25:00 13.3 C 6.01 g/m*3 13.3 C 8.1 km/h
2203 01-05-2015 15:30:00 13.4 C 6.28 g/m*3 13.4 C 1.6 km/h
2204 01-05-2015 15:35:00 13.4 C 6.04 g/m*3 13.4 C 6.4 km/h
2205 01-05-2015 15:40:00 13.3 C 6.12 g/m*3 13.3 C 8.1 km/h
2206 01-05-2015 15:45:00 13.3 C 6.24 g/m*3 13.3 C 6.4 km/h
2207 01-05-2015 15:50:00 13.3 C 6.35 g/m*3 13.3 C 4.8 km/h
2208 01-05-2015 15:55:00 13.3 C 6.12 g/m*3 13.3 C 3.2 km/h
2209 01-05-2015 16:00:00 13.2 C 5.97 g/m*3 13.2 C 0 km/h
2210 01-05-2015 16:05:00 13.2 C 5.86 g/m*3 13.2 C 4.8 km/h
2211 01-05-2015 16:10:00 13.2 C 6.09 g/m*3 13.2 C 4.8 km/h
2212 01-05-2015 16:15:00 13.2 C 5.97 g/m*3 13.2 C 6.4 km/h
2213 01-05-2015 16:20:00 13.2 C 6.2 g/m*3 13.2 C 6.4 km/h
2214 01-05-2015 16:25:00 13.2 C 6.2 g/m*3 13.2 C 9.7 km/h
2215 01-05-2015 16:30:00 13.2 C 6.2 g/m*3 13.2 C 6.4 km/h
2216 01-05-2015 16:35:00 13.2 C 6.43 g/m*3 13.2 C 8.1 km/h
2217 01-05-2015 16:40:00 13.2 C 6.2 g/m*3 13.2 C 4.8 km/h
2218 01-05-2015 16:45:00 13.2 C 6.09 g/m*3 13.2 C 3.2 km/h
2219 01-05-2015 16:50:00 13.3 C 6.35 g/m*3 13.3 C 6.4 km/h
2220 01-05-2015 16:55:00 13.3 C 6.35 g/m*3 13.3 C 4.8 km/h
2221 01-05-2015 17:00:00 13.3 C 6.59 g/m*3 13.3 C 1.6 km/h
2222 01-05-2015 17:05:00 13.3 C 6.47 g/m*3 13.3 C 3.2 km/h
2223 01-05-2015 17:10:00 13.2 C 6.54 g/m*3 13.2 C 3.2 km/h
2224 01-05-2015 17:15:00 13.1 C 6.05 g/m*3 13.1 C 3.2 km/h
2225 01-05-2015 17:20:00 13.1 C 6.16 g/m*3 13.1 C 3.2 km/h
Sensor: Nr:Datum:Temp:Abs-Feuchte:Windchill:Wind:
Aussen-T/F 2226 01-05-2015 17:25:00 13.1 C 6.05 g/m*3 13.1 C 9.7 km/h
2227 01-05-2015 17:30:00 13 C 5.9 g/m*3 13 C 8.1 km/h
2228 01-05-2015 17:35:00 13.1 C 6.16 g/m*3 13.1 C 6.4 km/h
2229 01-05-2015 17:40:00 13.1 C 6.16 g/m*3 13.1 C 6.4 km/h
2230 01-05-2015 17:45:00 13.2 C 5.86 g/m*3 13.2 C 6.4 km/h
2231 01-05-2015 17:50:00 13.2 C 6.2 g/m*3 13.2 C 6.4 km/h
2232 01-05-2015 17:55:00 13.2 C 5.97 g/m*3 13.2 C 6.4 km/h
2233 01-05-2015 18:00:00 13.1 C 5.93 g/m*3 13.1 C 6.4 km/h
2234 01-05-2015 18:05:00 13.1 C 5.82 g/m*3 13.1 C 4.8 km/h
2235 01-05-2015 18:10:00 13.1 C 6.05 g/m*3 13.1 C 4.8 km/h
2236 01-05-2015 18:15:00 13 C 6.01 g/m*3 13 C 3.2 km/h
2237 01-05-2015 18:20:00 13 C 6.12 g/m*3 13 C 4.8 km/h
2238 01-05-2015 18:25:00 12.9 C 5.86 g/m*3 12.9 C 6.4 km/h
2239 01-05-2015 18:30:00 12.9 C 6.09 g/m*3 12.9 C 1.6 km/h
2240 01-05-2015 18:35:00 12.8 C 6.27 g/m*3 12.8 C 0 km/h
2241 01-05-2015 18:40:00 12.8 C 6.16 g/m*3 12.8 C 0 km/h
2242 01-05-2015 18:45:00 12.8 C 6.16 g/m*3 12.8 C 3.2 km/h
2243 01-05-2015 18:50:00 12.8 C 6.16 g/m*3 12.8 C 6.4 km/h
2244 01-05-2015 18:55:00 12.8 C 5.94 g/m*3 12.8 C 3.2 km/h
2245 01-05-2015 19:00:00 12.8 C 6.83 g/m*3 12.8 C 3.2 km/h
2246 01-05-2015 19:05:00 12.6 C 6.97 g/m*3 12.6 C 0 km/h
2247 01-05-2015 19:10:00 12.4 C 7.65 g/m*3 12.4 C 0 km/h
2248 01-05-2015 19:15:00 12.2 C 7.34 g/m*3 12.2 C 0 km/h
2249 01-05-2015 19:20:00 12.1 C 7.61 g/m*3 12.1 C 0 km/h
2250 01-05-2015 19:25:00 11.8 C 7.68 g/m*3 11.8 C 0 km/h
Sensor: Nr:Datum:Temp:Abs-Feuchte:Windchill:Wind:
Aussen-T/F 2251 01-05-2015 19:30:00 11.7 C 7.74 g/m*3 11.7 C 0 km/h
2252 01-05-2015 19:35:00 11.6 C 7.59 g/m*3 11.6 C 0 km/h
2253 01-05-2015 19:40:00 11.3 C 7.45 g/m*3 11.3 C 0 km/h
2254 01-05-2015 19:45:00 11.1 C 7.45 g/m*3 11.1 C 0 km/h
2255 01-05-2015 19:50:00 10.9 C 7.26 g/m*3 10.9 C 1.6 km/h
2256 01-05-2015 19:55:00 10.7 C 7.27 g/m*3 10.7 C 1.6 km/h
2257 01-05-2015 20:00:00 10.6 C 7.22 g/m*3 10.6 C 0 km/h
2258 01-05-2015 20:05:00 10.5 C 7.18 g/m*3 10.5 C 1.6 km/h
2259 01-05-2015 20:10:00 10.3 C 7.18 g/m*3 10.3 C 1.6 km/h
2260 01-05-2015 20:15:00 10.2 C 7.14 g/m*3 10.2 C 1.6 km/h
2261 01-05-2015 20:20:00 10.1 C 7.09 g/m*3 10.1 C 1.6 km/h
2262 01-05-2015 20:25:00 9.9 C 7 g/m*3 9.9 C 1.6 km/h
2263 01-05-2015 20:30:00 9.8 C 7.05 g/m*3 9.8 C 1.6 km/h
2264 01-05-2015 20:35:00 9.6 C 7.05 g/m*3 9.6 C 1.6 km/h
2265 01-05-2015 20:40:00 9.3 C 6.92 g/m*3 9.3 C 3.2 km/h
2266 01-05-2015 20:45:00 9.2 C 6.79 g/m*3 9.2 C 3.2 km/h
2267 01-05-2015 20:50:00 9 C 6.79 g/m*3 9 C 3.2 km/h
2268 01-05-2015 20:55:00 8.9 C 6.83 g/m*3 8.9 C 3.2 km/h
2269 01-05-2015 21:00:00 8.8 C 6.88 g/m*3 8.8 C 3.2 km/h
2270 01-05-2015 21:05:00 8.7 C 6.92 g/m*3 8.7 C 3.2 km/h
2271 01-05-2015 21:10:00 8.5 C 6.74 g/m*3 8.5 C 3.2 km/h
2272 01-05-2015 21:15:00 8.4 C 6.79 g/m*3 8.4 C 3.2 km/h
2273 01-05-2015 21:20:00 8.3 C 6.83 g/m*3 8.3 C 1.6 km/h
2274 01-05-2015 21:25:00 8.3 C 6.91 g/m*3 8.3 C 3.2 km/h
2275 01-05-2015 21:30:00 8.2 C 6.87 g/m*3 8.2 C 3.2 km/h
Sensor: Nr:Datum:Temp:Abs-Feuchte:Windchill:Wind:
Aussen-T/F 2276 01-05-2015 21:35:00 8.1 C 6.82 g/m*3 8.1 C 3.2 km/h
2277 01-05-2015 21:40:00 8 C 6.78 g/m*3 8 C 3.2 km/h
2278 01-05-2015 21:45:00 7.9 C 6.74 g/m*3 7.9 C 1.6 km/h
2279 01-05-2015 21:50:00 7.9 C 6.9 g/m*3 7.9 C 1.6 km/h
2280 01-05-2015 21:55:00 7.8 C 6.86 g/m*3 7.8 C 0 km/h
2281 01-05-2015 22:00:00 7.7 C 6.81 g/m*3 7.7 C 0 km/h
2282 01-05-2015 22:05:00 7.6 C 6.85 g/m*3 7.6 C 0 km/h
2283 01-05-2015 22:10:00 7.5 C 6.8 g/m*3 7.5 C 0 km/h
2284 01-05-2015 22:15:00 7.4 C 6.76 g/m*3 7.4 C 1.6 km/h
2285 01-05-2015 22:20:00 7.3 C 6.72 g/m*3 7.3 C 0 km/h
2286 01-05-2015 22:25:00 7.2 C 6.67 g/m*3 7.2 C 0 km/h
2287 01-05-2015 22:30:00 7.1 C 6.63 g/m*3 7.1 C 1.6 km/h
2288 01-05-2015 22:35:00 6.9 C 6.47 g/m*3 6.9 C 0 km/h
2289 01-05-2015 22:40:00 6.9 C 6.54 g/m*3 6.9 C 0 km/h
2290 01-05-2015 22:45:00 6.8 C 6.5 g/m*3 6.8 C 0 km/h
2291 01-05-2015 22:50:00 6.7 C 6.46 g/m*3 6.7 C 0 km/h
2292 01-05-2015 22:55:00 6.6 C 6.49 g/m*3 6.6 C 0 km/h
2293 01-05-2015 23:00:00 6.5 C 6.45 g/m*3 6.5 C 0 km/h
2294 01-05-2015 23:05:00 6.4 C 6.33 g/m*3 6.4 C 0 km/h
2295 01-05-2015 23:10:00 6.2 C 6.25 g/m*3 6.2 C 0 km/h
2296 01-05-2015 23:15:00 6.2 C 6.32 g/m*3 6.2 C 0 km/h
2297 01-05-2015 23:25:00 6.1 C 6.28 g/m*3 6.1 C 0 km/h
2298 01-05-2015 23:30:00 6 C 6.24 g/m*3 6 C 0 km/h
2299 01-05-2015 23:35:00 5.9 C 6.27 g/m*3 5.9 C 0 km/h
2300 01-05-2015 23:40:00 5.9 C 6.35 g/m*3 5.9 C 0 km/h
Sensor: Nr:Datum:Temp:Abs-Feuchte:Windchill:Wind:
Aussen-T/F 2301 01-05-2015 23:45:00 5.9 C 6.35 g/m*3 5.9 C 0 km/h
2302 01-05-2015 23:50:00 5.9 C 6.35 g/m*3 5.9 C 0 km/h
2303 01-05-2015 23:55:00 5.8 C 6.23 g/m*3 5.8 C 0 km/h
2304 02-05-2015 00:00:00 5.8 C 6.3 g/m*3 5.8 C 0 km/h
2305 02-05-2015 00:05:00 5.8 C 6.3 g/m*3 5.8 C 0 km/h
2306 02-05-2015 00:10:00 5.7 C 6.26 g/m*3 5.7 C 0 km/h
2307 02-05-2015 00:15:00 5.6 C 6.22 g/m*3 5.6 C 0 km/h
2308 02-05-2015 00:20:00 5.7 C 6.33 g/m*3 5.7 C 0 km/h
2309 02-05-2015 00:25:00 5.7 C 6.4 g/m*3 5.7 C 0 km/h
2310 02-05-2015 00:30:00 5.8 C 6.45 g/m*3 5.8 C 0 km/h
2311 02-05-2015 00:35:00 5.8 C 6.38 g/m*3 5.8 C 0 km/h
2312 02-05-2015 00:40:00 5.8 C 6.38 g/m*3 5.8 C 0 km/h
2313 02-05-2015 00:45:00 5.7 C 6.33 g/m*3 5.7 C 0 km/h
2314 02-05-2015 00:50:00 5.7 C 6.33 g/m*3 5.7 C 0 km/h
2315 02-05-2015 00:55:00 5.6 C 6.29 g/m*3 5.6 C 0 km/h
2316 02-05-2015 01:00:00 5.6 C 6.29 g/m*3 5.6 C 0 km/h
2317 02-05-2015 01:05:00 5.6 C 6.36 g/m*3 5.6 C 0 km/h
2318 02-05-2015 01:10:00 5.6 C 6.36 g/m*3 5.6 C 0 km/h
2319 02-05-2015 01:15:00 5.6 C 6.36 g/m*3 5.6 C 0 km/h
2320 02-05-2015 01:20:00 5.6 C 6.43 g/m*3 5.6 C 0 km/h
2321 02-05-2015 01:25:00 5.6 C 6.43 g/m*3 5.6 C 0 km/h
2322 02-05-2015 01:30:00 5.5 C 6.32 g/m*3 5.5 C 0 km/h
2323 02-05-2015 01:35:00 5.4 C 6.28 g/m*3 5.4 C 0 km/h
2324 02-05-2015 01:40:00 5.3 C 6.24 g/m*3 5.3 C 0 km/h
2325 02-05-2015 01:45:00 5.2 C 6.2 g/m*3 5.2 C 0 km/h
Sensor: Nr:Datum:Temp:Abs-Feuchte:Windchill:Wind:
Aussen-T/F 2326 02-05-2015 01:50:00 5.1 C 6.22 g/m*3 5.1 C 0 km/h
2327 02-05-2015 01:55:00 5.1 C 6.22 g/m*3 5.1 C 0 km/h
2328 02-05-2015 02:00:00 5 C 6.25 g/m*3 5 C 0 km/h
2329 02-05-2015 02:05:00 4.9 C 6.21 g/m*3 4.9 C 0 km/h
2330 02-05-2015 02:10:00 4.9 C 6.21 g/m*3 4.9 C 0 km/h
2331 02-05-2015 02:15:00 4.8 C 6.17 g/m*3 4.8 C 0 km/h
2332 02-05-2015 02:20:00 4.8 C 6.17 g/m*3 4.8 C 0 km/h
2333 02-05-2015 02:25:00 4.7 C 6.13 g/m*3 4.7 C 0 km/h
2334 02-05-2015 02:30:00 4.6 C 6.09 g/m*3 4.6 C 0 km/h
2335 02-05-2015 02:35:00 4.6 C 6.09 g/m*3 4.6 C 0 km/h
2336 02-05-2015 02:40:00 4.6 C 6.15 g/m*3 4.6 C 0 km/h
2337 02-05-2015 02:45:00 4.4 C 6.07 g/m*3 4.4 C 0 km/h
2338 02-05-2015 02:50:00 4.4 C 6.07 g/m*3 4.4 C 0 km/h
2339 02-05-2015 02:55:00 4.4 C 6.07 g/m*3 4.4 C 0 km/h
2340 02-05-2015 03:00:00 4.4 C 6.07 g/m*3 4.4 C 0 km/h
2341 02-05-2015 03:05:00 4.4 C 6.07 g/m*3 4.4 C 0 km/h
2342 02-05-2015 03:10:00 4.3 C 6.03 g/m*3 4.3 C 0 km/h
2343 02-05-2015 03:15:00 4.3 C 6.1 g/m*3 4.3 C 0 km/h
2344 02-05-2015 03:20:00 4.3 C 6.1 g/m*3 4.3 C 0 km/h
2345 02-05-2015 03:25:00 4.3 C 6.1 g/m*3 4.3 C 0 km/h
2346 02-05-2015 03:30:00 4.2 C 5.99 g/m*3 4.2 C 0 km/h
2347 02-05-2015 03:35:00 4.2 C 5.99 g/m*3 4.2 C 0 km/h
2348 02-05-2015 03:40:00 4.1 C 5.95 g/m*3 4.1 C 0 km/h
2349 02-05-2015 03:45:00 4 C 5.91 g/m*3 4 C 0 km/h
2350 02-05-2015 03:50:00 3.9 C 5.94 g/m*3 3.9 C 0 km/h
Sensor: Nr:Datum:Temp:Abs-Feuchte:Windchill:Wind:
Aussen-T/F 2351 02-05-2015 03:55:00 3.8 C 5.9 g/m*3 3.8 C 0 km/h
2352 02-05-2015 04:00:00 3.8 C 5.9 g/m*3 3.8 C 0 km/h
2353 02-05-2015 04:05:00 3.8 C 5.9 g/m*3 3.8 C 0 km/h
2354 02-05-2015 04:10:00 3.7 C 5.86 g/m*3 3.7 C 0 km/h
2355 02-05-2015 04:15:00 3.7 C 5.86 g/m*3 3.7 C 0 km/h
2356 02-05-2015 04:20:00 3.7 C 5.86 g/m*3 3.7 C 0 km/h
2357 02-05-2015 04:25:00 3.7 C 5.86 g/m*3 3.7 C 0 km/h
2358 02-05-2015 04:30:00 3.6 C 5.82 g/m*3 3.6 C 0 km/h
2359 02-05-2015 04:35:00 3.6 C 5.82 g/m*3 3.6 C 1.6 km/h
2360 02-05-2015 04:40:00 3.5 C 5.78 g/m*3 3.5 C 0 km/h
2361 02-05-2015 04:45:00 3.5 C 5.78 g/m*3 3.5 C 0 km/h
2362 02-05-2015 04:50:00 3.5 C 5.78 g/m*3 3.5 C 0 km/h
2363 02-05-2015 04:55:00 3.4 C 5.74 g/m*3 3.4 C 0 km/h
2364 02-05-2015 05:00:00 3.3 C 5.7 g/m*3 3.3 C 0 km/h
2365 02-05-2015 05:05:00 3.2 C 5.66 g/m*3 3.2 C 0 km/h
2366 02-05-2015 05:10:00 3.1 C 5.63 g/m*3 3.1 C 0 km/h
2367 02-05-2015 05:15:00 3 C 5.59 g/m*3 3 C 0 km/h
2368 02-05-2015 05:20:00 2.9 C 5.55 g/m*3 2.9 C 0 km/h
2369 02-05-2015 05:25:00 2.8 C 5.51 g/m*3 2.8 C 0 km/h
2370 02-05-2015 05:30:00 2.8 C 5.51 g/m*3 2.8 C 0 km/h
2371 02-05-2015 05:35:00 2.8 C 5.51 g/m*3 2.8 C 0 km/h
2372 02-05-2015 05:40:00 2.8 C 5.57 g/m*3 2.8 C 3.2 km/h
2373 02-05-2015 05:45:00 2.8 C 5.57 g/m*3 2.8 C 0 km/h
2374 02-05-2015 05:50:00 2.8 C 5.51 g/m*3 2.8 C 0 km/h
2375 02-05-2015 05:55:00 2.8 C 5.57 g/m*3 2.8 C 0 km/h
Sensor: Nr:Datum:Temp:Abs-Feuchte:Windchill:Wind:
Aussen-T/F 2376 02-05-2015 06:00:00 2.8 C 5.57 g/m*3 2.8 C 0 km/h
2377 02-05-2015 06:05:00 2.8 C 5.57 g/m*3 2.8 C 0 km/h
2378 02-05-2015 06:10:00 2.9 C 5.61 g/m*3 2.9 C 0 km/h
2379 02-05-2015 06:15:00 2.9 C 5.61 g/m*3 2.9 C 0 km/h
2380 02-05-2015 06:20:00 2.9 C 5.61 g/m*3 2.9 C 0 km/h
2381 02-05-2015 06:25:00 2.9 C 5.61 g/m*3 2.9 C 0 km/h
2382 02-05-2015 06:30:00 2.9 C 5.61 g/m*3 2.9 C 0 km/h
2383 02-05-2015 06:35:00 2.9 C 5.61 g/m*3 2.9 C 0 km/h
2384 02-05-2015 06:40:00 3 C 5.65 g/m*3 3 C 0 km/h
2385 02-05-2015 06:45:00 3.1 C 5.69 g/m*3 3.1 C 0 km/h
2386 02-05-2015 06:50:00 3.2 C 5.72 g/m*3 3.2 C 3.2 km/h
2387 02-05-2015 06:55:00 3.2 C 5.72 g/m*3 3.2 C 1.6 km/h
2388 02-05-2015 07:00:00 3.3 C 5.76 g/m*3 3.3 C 0 km/h
2389 02-05-2015 07:05:00 3.4 C 5.8 g/m*3 3.4 C 1.6 km/h
2390 02-05-2015 07:10:00 3.4 C 5.8 g/m*3 3.4 C 3.2 km/h
2391 02-05-2015 07:15:00 3.5 C 5.84 g/m*3 3.5 C 3.2 km/h
2392 02-05-2015 07:20:00 3.6 C 5.88 g/m*3 3.6 C 4.8 km/h
2393 02-05-2015 07:25:00 3.7 C 5.92 g/m*3 3.7 C 3.2 km/h
2394 02-05-2015 07:30:00 3.7 C 5.92 g/m*3 3.7 C 4.8 km/h
2395 02-05-2015 07:35:00 3.8 C 5.96 g/m*3 3.8 C 3.2 km/h
2396 02-05-2015 07:40:00 3.8 C 6.02 g/m*3 3.8 C 4.8 km/h
2397 02-05-2015 07:45:00 3.9 C 6.06 g/m*3 3.9 C 3.2 km/h
2398 02-05-2015 07:50:00 4.1 C 6.14 g/m*3 4.1 C 3.2 km/h
2399 02-05-2015 07:55:00 4.1 C 6.14 g/m*3 4.1 C 4.8 km/h
2400 02-05-2015 08:00:00 4.2 C 6.19 g/m*3 4.2 C 1.6 km/h
Sensor: Nr:Datum:Temp:Abs-Feuchte:Windchill:Wind:
Aussen-T/F 2401 02-05-2015 08:05:00 4.3 C 6.23 g/m*3 4.3 C 1.6 km/h
2402 02-05-2015 08:10:00 4.3 C 6.23 g/m*3 4.3 C 3.2 km/h
2403 02-05-2015 08:15:00 4.5 C 6.31 g/m*3 4.5 C 1.6 km/h
2404 02-05-2015 08:20:00 4.6 C 6.35 g/m*3 4.6 C 1.6 km/h
2405 02-05-2015 08:25:00 4.7 C 6.39 g/m*3 4.7 C 0 km/h
2406 02-05-2015 08:30:00 4.8 C 6.44 g/m*3 4.8 C 0 km/h
2407 02-05-2015 08:35:00 4.9 C 6.48 g/m*3 4.9 C 0 km/h
2408 02-05-2015 08:40:00 4.9 C 6.48 g/m*3 4.9 C 0 km/h
2409 02-05-2015 08:45:00 5.1 C 6.57 g/m*3 5.1 C 0 km/h
2410 02-05-2015 08:50:00 5.2 C 6.61 g/m*3 5.2 C 3.2 km/h
2411 02-05-2015 08:55:00 5.3 C 6.65 g/m*3 5.3 C 0 km/h
2412 02-05-2015 09:00:00 5.5 C 6.74 g/m*3 5.5 C 1.6 km/h
2413 02-05-2015 09:05:00 5.7 C 6.83 g/m*3 5.7 C 0 km/h
2414 02-05-2015 09:10:00 5.8 C 6.88 g/m*3 5.8 C 1.6 km/h
2415 02-05-2015 09:15:00 6 C 6.9 g/m*3 6 C 0 km/h
2416 02-05-2015 09:20:00 6.1 C 6.94 g/m*3 6.1 C 1.6 km/h
2417 02-05-2015 09:25:00 6.3 C 7.03 g/m*3 6.3 C 0 km/h
2418 02-05-2015 09:30:00 6.5 C 7.05 g/m*3 6.5 C 1.6 km/h
2419 02-05-2015 09:35:00 6.7 C 7.07 g/m*3 6.7 C 3.2 km/h
2420 02-05-2015 09:40:00 7 C 7.21 g/m*3 7 C 1.6 km/h
2421 02-05-2015 09:45:00 7.3 C 7.27 g/m*3 7.3 C 3.2 km/h
2422 02-05-2015 09:50:00 7.6 C 7.25 g/m*3 7.6 C 1.6 km/h
2423 02-05-2015 09:55:00 7.7 C 7.14 g/m*3 7.7 C 3.2 km/h
2424 02-05-2015 10:00:00 7.8 C 7.1 g/m*3 7.8 C 0 km/h
2425 02-05-2015 10:05:00 8 C 7.19 g/m*3 8 C 1.6 km/h
Sensor: Nr:Datum:Temp:Abs-Feuchte:Windchill:Wind:
Aussen-T/F 2426 02-05-2015 10:10:00 8.1 C 7.16 g/m*3 8.1 C 0 km/h
2427 02-05-2015 10:15:00 8.2 C 7.2 g/m*3 8.2 C 3.2 km/h
2428 02-05-2015 10:20:00 8.3 C 7.25 g/m*3 8.3 C 1.6 km/h
2429 02-05-2015 10:25:00 8.4 C 7.13 g/m*3 8.4 C 1.6 km/h
2430 02-05-2015 10:30:00 8.5 C 7.09 g/m*3 8.5 C 1.6 km/h
2431 02-05-2015 10:35:00 8.6 C 7.05 g/m*3 8.6 C 0 km/h
2432 02-05-2015 10:40:00 8.8 C 7.31 g/m*3 8.8 C 3.2 km/h
2433 02-05-2015 10:45:00 9.2 C 7.5 g/m*3 9.2 C 0 km/h
2434 02-05-2015 10:50:00 9.6 C 7.33 g/m*3 9.6 C 4.8 km/h
2435 02-05-2015 10:55:00 9.9 C 7.28 g/m*3 9.9 C 3.2 km/h
2436 02-05-2015 11:00:00 10.3 C 7.37 g/m*3 10.3 C 1.6 km/h
2437 02-05-2015 11:05:00 10.8 C 7.61 g/m*3 10.8 C 3.2 km/h
2438 02-05-2015 11:10:00 11.3 C 7.55 g/m*3 11.3 C 1.6 km/h
2439 02-05-2015 11:15:00 11.6 C 7.69 g/m*3 11.6 C 1.6 km/h
2440 02-05-2015 11:20:00 11.8 C 7.68 g/m*3 11.8 C 0 km/h
2441 02-05-2015 11:25:00 12 C 7.89 g/m*3 12 C 1.6 km/h
2442 02-05-2015 11:30:00 12.3 C 7.93 g/m*3 12.3 C 4.8 km/h
2443 02-05-2015 11:35:00 12.5 C 7.92 g/m*3 12.5 C 1.6 km/h
2444 02-05-2015 11:40:00 12.7 C 8.01 g/m*3 12.7 C 1.6 km/h
2445 02-05-2015 11:45:00 12.9 C 7.89 g/m*3 12.9 C 3.2 km/h
2446 02-05-2015 11:50:00 13.1 C 7.87 g/m*3 13.1 C 0 km/h
2447 02-05-2015 11:55:00 13.2 C 8.04 g/m*3 13.2 C 3.2 km/h
2448 02-05-2015 12:00:00 13.4 C 7.9 g/m*3 13.4 C 3.2 km/h
2449 02-05-2015 12:05:00 13.6 C 7.53 g/m*3 13.6 C 1.6 km/h
2450 02-05-2015 12:10:00 13.7 C 7.46 g/m*3 13.7 C 3.2 km/h
Sensor: Nr:Datum:Temp:Abs-Feuchte:Windchill:Wind:
Aussen-T/F 2451 02-05-2015 12:15:00 13.9 C 7.67 g/m*3 13.9 C 1.6 km/h
2452 02-05-2015 12:20:00 14 C 7.6 g/m*3 14 C 6.4 km/h
2453 02-05-2015 12:25:00 14.2 C 7.94 g/m*3 14.2 C 6.4 km/h
2454 02-05-2015 12:30:00 14.6 C 7.76 g/m*3 14.6 C 4.8 km/h
2455 02-05-2015 12:35:00 14.7 C 7.43 g/m*3 14.7 C 6.4 km/h
2456 02-05-2015 12:40:00 14.7 C 7.68 g/m*3 14.7 C 4.8 km/h
2457 02-05-2015 12:45:00 14.8 C 7.6 g/m*3 14.8 C 1.6 km/h
2458 02-05-2015 12:50:00 14.9 C 7.65 g/m*3 14.9 C 3.2 km/h
2459 02-05-2015 12:55:00 15 C 7.44 g/m*3 15 C 3.2 km/h
2460 02-05-2015 13:00:00 15.2 C 7.79 g/m*3 15.2 C 3.2 km/h
2461 02-05-2015 13:05:00 15.4 C 7.75 g/m*3 15.4 C 4.8 km/h
2462 02-05-2015 13:10:00 15.6 C 7.31 g/m*3 15.6 C 4.8 km/h
2463 02-05-2015 13:15:00 15.6 C 7.31 g/m*3 15.6 C 6.4 km/h
2464 02-05-2015 13:20:00 15.6 C 7.45 g/m*3 15.6 C 4.8 km/h
2465 02-05-2015 13:25:00 15.8 C 7.27 g/m*3 15.8 C 6.4 km/h
2466 02-05-2015 13:30:00 15.9 C 7.04 g/m*3 15.9 C 4.8 km/h
2467 02-05-2015 13:35:00 16.1 C 7.81 g/m*3 16.1 C 1.6 km/h
2468 02-05-2015 13:40:00 16.4 C 7.96 g/m*3 16.4 C 4.8 km/h
2469 02-05-2015 13:45:00 16.6 C 7.63 g/m*3 16.6 C 6.4 km/h
2470 02-05-2015 13:50:00 16.4 C 6.98 g/m*3 16.4 C 6.4 km/h
2471 02-05-2015 13:55:00 16.2 C 7.03 g/m*3 16.2 C 4.8 km/h
2472 02-05-2015 14:00:00 16.3 C 7.08 g/m*3 16.3 C 8.1 km/h
2473 02-05-2015 14:05:00 16.2 C 7.03 g/m*3 16.2 C 9.7 km/h
2474 02-05-2015 14:10:00 16.2 C 6.9 g/m*3 16.2 C 3.2 km/h
2475 02-05-2015 14:15:00 16.1 C 7.54 g/m*3 16.1 C 6.4 km/h
Sensor: Nr:Datum:Temp:Abs-Feuchte:Windchill:Wind:
Aussen-T/F 2476 02-05-2015 14:20:00 16.3 C 7.21 g/m*3 16.3 C 6.4 km/h
2477 02-05-2015 14:25:00 16.3 C 7.35 g/m*3 16.3 C 6.4 km/h
2478 02-05-2015 14:30:00 16.5 C 7.16 g/m*3 16.5 C 4.8 km/h
2479 02-05-2015 14:35:00 16.7 C 7.25 g/m*3 16.7 C 6.4 km/h
2480 02-05-2015 14:40:00 16.9 C 7.48 g/m*3 16.9 C 8.1 km/h
2481 02-05-2015 14:45:00 17.2 C 7.61 g/m*3 17.2 C 8.1 km/h
2482 02-05-2015 14:50:00 17.3 C 7.51 g/m*3 17.3 C 6.4 km/h
2483 02-05-2015 14:55:00 17.3 C 7.37 g/m*3 17.3 C 6.4 km/h
2484 02-05-2015 15:00:00 17.5 C 7.6 g/m*3 17.5 C 4.8 km/h
2485 02-05-2015 15:05:00 17.4 C 7.11 g/m*3 17.4 C 6.4 km/h
2486 02-05-2015 15:10:00 17.4 C 6.97 g/m*3 17.4 C 3.2 km/h
2487 02-05-2015 15:15:00 17.5 C 7.31 g/m*3 17.5 C 6.4 km/h
2488 02-05-2015 15:20:00 17.6 C 7.35 g/m*3 17.6 C 4.8 km/h
2489 02-05-2015 15:25:00 17.7 C 7.24 g/m*3 17.7 C 4.8 km/h
2490 02-05-2015 15:30:00 17.5 C 7.45 g/m*3 17.5 C 4.8 km/h
2491 02-05-2015 15:35:00 17.3 C 7.22 g/m*3 17.3 C 4.8 km/h
2492 02-05-2015 15:40:00 17.3 C 7.07 g/m*3 17.3 C 3.2 km/h
2493 02-05-2015 15:45:00 17.4 C 7.41 g/m*3 17.4 C 3.2 km/h
2494 02-05-2015 15:50:00 17.6 C 7.2 g/m*3 17.6 C 9.7 km/h
2495 02-05-2015 15:55:00 17.4 C 7.26 g/m*3 17.4 C 3.2 km/h
2496 02-05-2015 16:00:00 17.2 C 7.03 g/m*3 17.2 C 4.8 km/h
2497 02-05-2015 16:05:00 17.1 C 6.99 g/m*3 17.1 C 1.6 km/h
2498 02-05-2015 16:10:00 17 C 6.95 g/m*3 17 C 1.6 km/h
2499 02-05-2015 16:15:00 17 C 7.52 g/m*3 17 C 3.2 km/h
2500 02-05-2015 16:20:00 17 C 7.52 g/m*3 17 C 1.6 km/h
Sensor: Nr:Datum:Temp:Abs-Feuchte:Windchill:Wind:
Aussen-T/F 2501 02-05-2015 16:25:00 17 C 6.8 g/m*3 17 C 0 km/h
2502 02-05-2015 16:30:00 17 C 7.67 g/m*3 17 C 3.2 km/h
2503 02-05-2015 16:35:00 16.9 C 7.19 g/m*3 16.9 C 1.6 km/h
2504 02-05-2015 16:40:00 16.9 C 7.34 g/m*3 16.9 C 3.2 km/h
2505 02-05-2015 16:45:00 16.8 C 7.43 g/m*3 16.8 C 4.8 km/h
2506 02-05-2015 16:50:00 16.8 C 7.01 g/m*3 16.8 C 4.8 km/h
2507 02-05-2015 16:55:00 16.6 C 7.2 g/m*3 16.6 C 4.8 km/h
2508 02-05-2015 17:00:00 16.4 C 6.98 g/m*3 16.4 C 6.4 km/h
2509 02-05-2015 17:05:00 16.4 C 7.12 g/m*3 16.4 C 4.8 km/h
2510 02-05-2015 17:10:00 16.4 C 6.98 g/m*3 16.4 C 3.2 km/h
2511 02-05-2015 17:15:00 16.4 C 7.12 g/m*3 16.4 C 0 km/h
2512 02-05-2015 17:20:00 16.5 C 7.44 g/m*3 16.5 C 1.6 km/h
2513 02-05-2015 17:25:00 16.6 C 7.35 g/m*3 16.6 C 1.6 km/h
2514 02-05-2015 17:30:00 16.6 C 7.35 g/m*3 16.6 C 3.2 km/h
2515 02-05-2015 17:35:00 16.5 C 7.44 g/m*3 16.5 C 4.8 km/h
2516 02-05-2015 17:40:00 16.4 C 7.54 g/m*3 16.4 C 4.8 km/h
2517 02-05-2015 17:45:00 16.4 C 7.54 g/m*3 16.4 C 1.6 km/h
2518 02-05-2015 17:50:00 16.4 C 7.68 g/m*3 16.4 C 1.6 km/h
2519 02-05-2015 17:55:00 16.6 C 7.63 g/m*3 16.6 C 3.2 km/h
2520 02-05-2015 18:00:00 16.4 C 7.4 g/m*3 16.4 C 4.8 km/h
2521 02-05-2015 18:05:00 16.4 C 7.96 g/m*3 16.4 C 4.8 km/h
2522 02-05-2015 18:10:00 16.3 C 7.63 g/m*3 16.3 C 9.7 km/h
2523 02-05-2015 18:15:00 16.3 C 7.91 g/m*3 16.3 C 3.2 km/h
2524 02-05-2015 18:20:00 16.2 C 7.45 g/m*3 16.2 C 4.8 km/h
2525 02-05-2015 18:25:00 16.2 C 7.86 g/m*3 16.2 C 1.6 km/h
Sensor: Nr:Datum:Temp:Abs-Feuchte:Windchill:Wind:
Aussen-T/F 2526 02-05-2015 18:30:00 16 C 7.63 g/m*3 16 C 1.6 km/h
2527 02-05-2015 18:35:00 15.9 C 7.72 g/m*3 15.9 C 1.6 km/h
2528 02-05-2015 18:40:00 15.8 C 7.67 g/m*3 15.8 C 4.8 km/h
2529 02-05-2015 18:45:00 15.8 C 7.67 g/m*3 15.8 C 0 km/h
2530 02-05-2015 18:50:00 15.7 C 8.43 g/m*3 15.7 C 0 km/h
2531 02-05-2015 18:55:00 15.6 C 8.51 g/m*3 15.6 C 0 km/h
2532 02-05-2015 19:00:00 15.4 C 7.62 g/m*3 15.4 C 0 km/h
2533 02-05-2015 19:05:00 15.4 C 8.93 g/m*3 15.4 C 0 km/h
2534 02-05-2015 19:10:00 15.2 C 8.31 g/m*3 15.2 C 1.6 km/h
2535 02-05-2015 19:15:00 15.1 C 8.9 g/m*3 15.1 C 1.6 km/h
2536 02-05-2015 19:20:00 15.1 C 9.16 g/m*3 15.1 C 0 km/h
2537 02-05-2015 19:25:00 14.8 C 9.12 g/m*3 14.8 C 0 km/h
2538 02-05-2015 19:30:00 14.7 C 9.32 g/m*3 14.7 C 0 km/h
2539 02-05-2015 19:35:00 14.5 C 8.95 g/m*3 14.5 C 0 km/h
2540 02-05-2015 19:40:00 14.3 C 9.21 g/m*3 14.3 C 0 km/h
2541 02-05-2015 19:45:00 14.1 C 9.1 g/m*3 14.1 C 0 km/h
2542 02-05-2015 19:50:00 14 C 9.29 g/m*3 14 C 0 km/h
2543 02-05-2015 19:55:00 13.9 C 9.35 g/m*3 13.9 C 1.6 km/h
2544 02-05-2015 20:00:00 13.8 C 9.17 g/m*3 13.8 C 0 km/h
2545 02-05-2015 20:05:00 13.7 C 9.24 g/m*3 13.7 C 0 km/h
2546 02-05-2015 20:10:00 13.6 C 9.18 g/m*3 13.6 C 0 km/h
2547 02-05-2015 20:15:00 13.4 C 9.07 g/m*3 13.4 C 0 km/h
2548 02-05-2015 20:20:00 13.2 C 9.07 g/m*3 13.2 C 0 km/h
2549 02-05-2015 20:25:00 12.9 C 8.9 g/m*3 12.9 C 0 km/h
2550 02-05-2015 20:30:00 12.7 C 8.91 g/m*3 12.7 C 1.6 km/h
Sensor: Nr:Datum:Temp:Abs-Feuchte:Windchill:Wind:
Aussen-T/F 2551 02-05-2015 20:35:00 12.4 C 8.74 g/m*3 12.4 C 1.6 km/h
2552 02-05-2015 20:40:00 12.2 C 8.63 g/m*3 12.2 C 1.6 km/h
2553 02-05-2015 20:45:00 11.9 C 8.58 g/m*3 11.9 C 3.2 km/h
2554 02-05-2015 20:50:00 11.7 C 8.58 g/m*3 11.7 C 1.6 km/h
2555 02-05-2015 20:55:00 11.5 C 8.57 g/m*3 11.5 C 3.2 km/h
2556 02-05-2015 21:00:00 11.3 C 8.36 g/m*3 11.3 C 3.2 km/h
2557 02-05-2015 21:05:00 11.2 C 8.31 g/m*3 11.2 C 3.2 km/h
2558 02-05-2015 21:10:00 11 C 8.21 g/m*3 11 C 3.2 km/h
2559 02-05-2015 21:15:00 10.9 C 8.16 g/m*3 10.9 C 3.2 km/h
2560 02-05-2015 21:20:00 10.8 C 8.2 g/m*3 10.8 C 3.2 km/h
2561 02-05-2015 21:25:00 10.7 C 8.25 g/m*3 10.7 C 3.2 km/h
2562 02-05-2015 21:30:00 10.6 C 8.3 g/m*3 10.6 C 3.2 km/h
2563 02-05-2015 21:35:00 10.6 C 8.3 g/m*3 10.6 C 3.2 km/h
2564 02-05-2015 21:40:00 10.5 C 8.24 g/m*3 10.5 C 3.2 km/h
2565 02-05-2015 21:45:00 10.5 C 8.15 g/m*3 10.5 C 4.8 km/h
2566 02-05-2015 21:50:00 10.4 C 8.19 g/m*3 10.4 C 3.2 km/h
2567 02-05-2015 21:55:00 10.4 C 8.19 g/m*3 10.4 C 4.8 km/h
2568 02-05-2015 22:00:00 10.3 C 8.14 g/m*3 10.3 C 4.8 km/h
2569 02-05-2015 22:05:00 10.3 C 8.14 g/m*3 10.3 C 4.8 km/h
2570 02-05-2015 22:10:00 10.2 C 8.09 g/m*3 10.2 C 3.2 km/h
2571 02-05-2015 22:15:00 10.2 C 8.09 g/m*3 10.2 C 3.2 km/h
2572 02-05-2015 22:20:00 10.2 C 8.09 g/m*3 10.2 C 3.2 km/h
2573 02-05-2015 22:25:00 10.2 C 8.09 g/m*3 10.2 C 3.2 km/h
2574 02-05-2015 22:30:00 10.2 C 8.09 g/m*3 10.2 C 3.2 km/h
2575 02-05-2015 22:35:00 10.2 C 8.09 g/m*3 10.2 C 0 km/h
Sensor: Nr:Datum:Temp:Abs-Feuchte:Windchill:Wind:
Aussen-T/F 2576 02-05-2015 22:40:00 10.2 C 8.09 g/m*3 10.2 C 0 km/h
2577 02-05-2015 22:45:00 10.2 C 8.09 g/m*3 10.2 C 0 km/h
2578 02-05-2015 22:50:00 10.2 C 8.09 g/m*3 10.2 C 0 km/h
2579 02-05-2015 22:55:00 10.1 C 8.13 g/m*3 10.1 C 0 km/h
2580 02-05-2015 23:00:00 10 C 8.17 g/m*3 10 C 0 km/h
2581 02-05-2015 23:05:00 10 C 8.17 g/m*3 10 C 0 km/h
2582 02-05-2015 23:10:00 9.9 C 8.12 g/m*3 9.9 C 0 km/h
2583 02-05-2015 23:15:00 10 C 8.27 g/m*3 10 C 0 km/h
2584 02-05-2015 23:20:00 10 C 8.27 g/m*3 10 C 0 km/h
2585 02-05-2015 23:25:00 10 C 8.27 g/m*3 10 C 0 km/h
2586 02-05-2015 23:30:00 10.1 C 8.32 g/m*3 10.1 C 0 km/h
2587 02-05-2015 23:35:00 10.1 C 8.32 g/m*3 10.1 C 0 km/h
2588 02-05-2015 23:40:00 10.2 C 8.37 g/m*3 10.2 C 0 km/h
2589 02-05-2015 23:45:00 10.2 C 8.37 g/m*3 10.2 C 0 km/h
2590 02-05-2015 23:50:00 10.3 C 8.43 g/m*3 10.3 C 0 km/h
2591 02-05-2015 23:55:00 10.3 C 8.43 g/m*3 10.3 C 0 km/h
2592 03-05-2015 00:00:00 10.4 C 8.58 g/m*3 10.4 C 0 km/h
2593 03-05-2015 00:05:00 10.4 C 8.48 g/m*3 10.4 C 0 km/h
2594 03-05-2015 00:10:00 10.3 C 8.33 g/m*3 10.3 C 0 km/h
2595 03-05-2015 00:15:00 10.3 C 8.43 g/m*3 10.3 C 0 km/h
2596 03-05-2015 00:20:00 10.3 C 8.43 g/m*3 10.3 C 0 km/h
2597 03-05-2015 00:25:00 10.3 C 8.43 g/m*3 10.3 C 0 km/h
2598 03-05-2015 00:30:00 10.3 C 8.52 g/m*3 10.3 C 0 km/h
2599 03-05-2015 00:35:00 10.3 C 8.52 g/m*3 10.3 C 0 km/h
2600 03-05-2015 00:40:00 10.3 C 8.52 g/m*3 10.3 C 0 km/h
Sensor: Nr:Datum:Temp:Abs-Feuchte:Windchill:Wind:
Aussen-T/F 2601 03-05-2015 00:45:00 10.3 C 8.52 g/m*3 10.3 C 0 km/h
2602 03-05-2015 00:50:00 10.3 C 8.52 g/m*3 10.3 C 0 km/h
2603 03-05-2015 00:55:00 10.3 C 8.52 g/m*3 10.3 C 0 km/h
2604 03-05-2015 01:00:00 10.3 C 8.52 g/m*3 10.3 C 0 km/h
2605 03-05-2015 01:05:00 10.4 C 8.67 g/m*3 10.4 C 0 km/h
2606 03-05-2015 01:10:00 10.4 C 8.67 g/m*3 10.4 C 0 km/h
2607 03-05-2015 01:15:00 10.4 C 8.67 g/m*3 10.4 C 0 km/h
2608 03-05-2015 01:20:00 10.4 C 8.67 g/m*3 10.4 C 0 km/h
2609 03-05-2015 01:25:00 10.4 C 8.67 g/m*3 10.4 C 0 km/h
2610 03-05-2015 01:30:00 10.5 C 8.63 g/m*3 10.5 C 0 km/h
2611 03-05-2015 01:35:00 10.4 C 8.58 g/m*3 10.4 C 0 km/h
2612 03-05-2015 01:40:00 10.5 C 8.63 g/m*3 10.5 C 0 km/h
2613 03-05-2015 01:45:00 10.4 C 8.67 g/m*3 10.4 C 0 km/h
2614 03-05-2015 01:50:00 10.5 C 8.73 g/m*3 10.5 C 0 km/h
2615 03-05-2015 01:55:00 10.4 C 8.67 g/m*3 10.4 C 0 km/h
2616 03-05-2015 02:00:00 10.5 C 8.73 g/m*3 10.5 C 0 km/h
2617 03-05-2015 02:05:00 10.5 C 8.73 g/m*3 10.5 C 0 km/h
2618 03-05-2015 02:10:00 10.5 C 8.73 g/m*3 10.5 C 0 km/h
2619 03-05-2015 02:15:00 10.5 C 8.73 g/m*3 10.5 C 0 km/h
2620 03-05-2015 02:20:00 10.5 C 8.73 g/m*3 10.5 C 0 km/h
2621 03-05-2015 02:25:00 10.5 C 8.73 g/m*3 10.5 C 0 km/h
2622 03-05-2015 02:30:00 10.5 C 8.73 g/m*3 10.5 C 0 km/h
2623 03-05-2015 02:35:00 10.5 C 8.73 g/m*3 10.5 C 0 km/h
2624 03-05-2015 02:40:00 10.5 C 8.73 g/m*3 10.5 C 0 km/h
2625 03-05-2015 02:45:00 10.4 C 8.67 g/m*3 10.4 C 0 km/h
Sensor: Nr:Datum:Temp:Abs-Feuchte:Windchill:Wind:
Aussen-T/F 2626 03-05-2015 02:50:00 10.4 C 8.67 g/m*3 10.4 C 0 km/h
2627 03-05-2015 02:55:00 10.4 C 8.67 g/m*3 10.4 C 0 km/h
2628 03-05-2015 03:00:00 10.4 C 8.77 g/m*3 10.4 C 0 km/h
2629 03-05-2015 03:05:00 10.4 C 8.77 g/m*3 10.4 C 1.6 km/h
2630 03-05-2015 03:10:00 10.4 C 8.77 g/m*3 10.4 C 1.6 km/h
2631 03-05-2015 03:15:00 10.4 C 8.77 g/m*3 10.4 C 1.6 km/h
2632 03-05-2015 03:20:00 10.4 C 8.77 g/m*3 10.4 C 0 km/h
2633 03-05-2015 03:25:00 10.3 C 8.71 g/m*3 10.3 C 0 km/h
2634 03-05-2015 03:30:00 10.3 C 8.71 g/m*3 10.3 C 0 km/h
2635 03-05-2015 03:35:00 10.3 C 8.71 g/m*3 10.3 C 1.6 km/h
2636 03-05-2015 03:40:00 10.3 C 8.71 g/m*3 10.3 C 1.6 km/h
2637 03-05-2015 03:45:00 10.4 C 8.87 g/m*3 10.4 C 0 km/h
2638 03-05-2015 03:50:00 10.4 C 8.87 g/m*3 10.4 C 0 km/h
2639 03-05-2015 03:55:00 10.4 C 8.87 g/m*3 10.4 C 0 km/h
2640 03-05-2015 04:00:00 10.4 C 8.87 g/m*3 10.4 C 0 km/h
2641 03-05-2015 04:05:00 10.4 C 8.87 g/m*3 10.4 C 0 km/h
2642 03-05-2015 04:10:00 10.4 C 8.87 g/m*3 10.4 C 0 km/h
2643 03-05-2015 04:15:00 10.5 C 8.92 g/m*3 10.5 C 0 km/h
2644 03-05-2015 04:20:00 10.5 C 8.92 g/m*3 10.5 C 0 km/h
2645 03-05-2015 04:25:00 10.6 C 8.98 g/m*3 10.6 C 0 km/h
2646 03-05-2015 04:30:00 10.6 C 8.98 g/m*3 10.6 C 0 km/h
2647 03-05-2015 04:35:00 10.7 C 9.04 g/m*3 10.7 C 1.6 km/h
2648 03-05-2015 04:40:00 10.7 C 9.04 g/m*3 10.7 C 1.6 km/h
2649 03-05-2015 04:45:00 10.7 C 9.04 g/m*3 10.7 C 0 km/h
2650 03-05-2015 04:50:00 10.7 C 9.04 g/m*3 10.7 C 0 km/h
Sensor: Nr:Datum:Temp:Abs-Feuchte:Windchill:Wind:
Aussen-T/F 2651 03-05-2015 04:55:00 10.7 C 9.04 g/m*3 10.7 C 0 km/h
2652 03-05-2015 05:00:00 10.7 C 9.04 g/m*3 10.7 C 0 km/h
2653 03-05-2015 05:05:00 10.7 C 9.04 g/m*3 10.7 C 0 km/h
2654 03-05-2015 05:10:00 10.7 C 9.04 g/m*3 10.7 C 0 km/h
2655 03-05-2015 05:15:00 10.6 C 8.98 g/m*3 10.6 C 0 km/h
2656 03-05-2015 05:20:00 10.6 C 8.98 g/m*3 10.6 C 0 km/h
2657 03-05-2015 05:25:00 10.7 C 9.04 g/m*3 10.7 C 0 km/h
2658 03-05-2015 05:30:00 10.7 C 9.04 g/m*3 10.7 C 0 km/h
2659 03-05-2015 05:35:00 10.7 C 9.04 g/m*3 10.7 C 0 km/h
2660 03-05-2015 05:40:00 10.7 C 9.04 g/m*3 10.7 C 0 km/h
2661 03-05-2015 05:45:00 10.7 C 9.04 g/m*3 10.7 C 0 km/h
2662 03-05-2015 05:50:00 10.7 C 9.04 g/m*3 10.7 C 0 km/h
2663 03-05-2015 05:55:00 10.7 C 9.04 g/m*3 10.7 C 0 km/h
2664 03-05-2015 06:00:00 10.7 C 9.13 g/m*3 10.7 C 0 km/h
2665 03-05-2015 06:05:00 10.7 C 9.13 g/m*3 10.7 C 0 km/h
2666 03-05-2015 06:10:00 10.7 C 9.13 g/m*3 10.7 C 0 km/h
2667 03-05-2015 06:15:00 10.7 C 9.13 g/m*3 10.7 C 0 km/h
2668 03-05-2015 06:20:00 10.7 C 9.13 g/m*3 10.7 C 0 km/h
2669 03-05-2015 06:25:00 10.7 C 9.13 g/m*3 10.7 C 0 km/h
2670 03-05-2015 06:30:00 10.7 C 9.13 g/m*3 10.7 C 0 km/h
2671 03-05-2015 06:35:00 10.7 C 9.13 g/m*3 10.7 C 0 km/h
2672 03-05-2015 06:40:00 10.8 C 9.19 g/m*3 10.8 C 0 km/h
2673 03-05-2015 06:45:00 10.8 C 9.19 g/m*3 10.8 C 0 km/h
2674 03-05-2015 06:50:00 10.8 C 9.19 g/m*3 10.8 C 0 km/h
2675 03-05-2015 06:55:00 10.8 C 9.19 g/m*3 10.8 C 0 km/h
Sensor: Nr:Datum:Temp:Abs-Feuchte:Windchill:Wind:
Aussen-T/F 2676 03-05-2015 07:00:00 10.9 C 9.25 g/m*3 10.9 C 0 km/h
2677 03-05-2015 07:05:00 10.9 C 9.25 g/m*3 10.9 C 0 km/h
2678 03-05-2015 07:10:00 11 C 9.31 g/m*3 11 C 0 km/h
2679 03-05-2015 07:15:00 11.1 C 9.37 g/m*3 11.1 C 0 km/h
2680 03-05-2015 07:20:00 11.2 C 9.43 g/m*3 11.2 C 0 km/h
2681 03-05-2015 07:25:00 11.2 C 9.43 g/m*3 11.2 C 0 km/h
2682 03-05-2015 07:30:00 11.3 C 9.49 g/m*3 11.3 C 0 km/h
2683 03-05-2015 07:35:00 11.3 C 9.49 g/m*3 11.3 C 0 km/h
2684 03-05-2015 07:40:00 11.4 C 9.44 g/m*3 11.4 C 0 km/h
2685 03-05-2015 07:45:00 11.4 C 9.44 g/m*3 11.4 C 0 km/h
2686 03-05-2015 07:50:00 11.5 C 9.5 g/m*3 11.5 C 0 km/h
2687 03-05-2015 07:55:00 11.6 C 9.56 g/m*3 11.6 C 0 km/h
2688 03-05-2015 08:00:00 11.7 C 9.62 g/m*3 11.7 C 0 km/h
2689 03-05-2015 08:05:00 11.7 C 9.62 g/m*3 11.7 C 0 km/h
2690 03-05-2015 08:10:00 11.8 C 9.68 g/m*3 11.8 C 1.6 km/h
2691 03-05-2015 08:15:00 11.9 C 9.74 g/m*3 11.9 C 3.2 km/h
2692 03-05-2015 08:20:00 12.1 C 9.87 g/m*3 12.1 C 0 km/h
2693 03-05-2015 08:25:00 12.1 C 9.87 g/m*3 12.1 C 0 km/h
2694 03-05-2015 08:30:00 12.2 C 9.93 g/m*3 12.2 C 0 km/h
2695 03-05-2015 08:35:00 12.3 C 9.99 g/m*3 12.3 C 1.6 km/h
2696 03-05-2015 08:40:00 12.4 C 10.05 g/m*3 12.4 C 0 km/h
2697 03-05-2015 08:45:00 12.5 C 10.11 g/m*3 12.5 C 1.6 km/h
2698 03-05-2015 08:50:00 12.6 C 10.18 g/m*3 12.6 C 1.6 km/h
2699 03-05-2015 08:55:00 12.7 C 10.24 g/m*3 12.7 C 3.2 km/h
2700 03-05-2015 09:00:00 12.8 C 10.3 g/m*3 12.8 C 1.6 km/h
Sensor: Nr:Datum:Temp:Abs-Feuchte:Windchill:Wind:
Aussen-T/F 2701 03-05-2015 09:05:00 13 C 10.43 g/m*3 13 C 4.8 km/h
2702 03-05-2015 09:10:00 13.2 C 10.45 g/m*3 13.2 C 4.8 km/h
2703 03-05-2015 09:15:00 13.4 C 10.58 g/m*3 13.4 C 1.6 km/h
2704 03-05-2015 09:20:00 13.6 C 10.59 g/m*3 13.6 C 3.2 km/h
2705 03-05-2015 09:25:00 13.7 C 10.54 g/m*3 13.7 C 1.6 km/h
2706 03-05-2015 09:30:00 13.8 C 10.6 g/m*3 13.8 C 4.8 km/h
2707 03-05-2015 09:35:00 13.9 C 10.67 g/m*3 13.9 C 4.8 km/h
2708 03-05-2015 09:40:00 13.9 C 10.43 g/m*3 13.9 C 4.8 km/h
2709 03-05-2015 09:45:00 14.1 C 10.56 g/m*3 14.1 C 6.4 km/h
2710 03-05-2015 09:50:00 14.2 C 10.62 g/m*3 14.2 C 4.8 km/h
2711 03-05-2015 09:55:00 14.3 C 10.57 g/m*3 14.3 C 6.4 km/h
2712 03-05-2015 10:00:00 14.3 C 10.57 g/m*3 14.3 C 3.2 km/h
2713 03-05-2015 10:05:00 14.4 C 10.63 g/m*3 14.4 C 3.2 km/h
2714 03-05-2015 10:10:00 14.5 C 10.57 g/m*3 14.5 C 4.8 km/h
2715 03-05-2015 10:15:00 14.6 C 10.76 g/m*3 14.6 C 4.8 km/h
2716 03-05-2015 10:20:00 14.7 C 10.83 g/m*3 14.7 C 8.1 km/h
2717 03-05-2015 10:25:00 14.8 C 10.89 g/m*3 14.8 C 3.2 km/h
2718 03-05-2015 10:30:00 14.8 C 10.89 g/m*3 14.8 C 3.2 km/h
2719 03-05-2015 10:35:00 14.9 C 10.96 g/m*3 14.9 C 4.8 km/h
2720 03-05-2015 10:40:00 15.1 C 10.97 g/m*3 15.1 C 4.8 km/h
2721 03-05-2015 10:45:00 15.1 C 10.84 g/m*3 15.1 C 6.4 km/h
2722 03-05-2015 10:50:00 15.3 C 11.1 g/m*3 15.3 C 8.1 km/h
2723 03-05-2015 10:55:00 15.4 C 11.17 g/m*3 15.4 C 8.1 km/h
2724 03-05-2015 11:00:00 15.6 C 11.17 g/m*3 15.6 C 6.4 km/h
2725 03-05-2015 11:05:00 15.9 C 11.38 g/m*3 15.9 C 6.4 km/h
Sensor: Nr:Datum:Temp:Abs-Feuchte:Windchill:Wind:
Aussen-T/F 2726 03-05-2015 11:10:00 16.1 C 11.24 g/m*3 16.1 C 6.4 km/h
2727 03-05-2015 11:15:00 16.2 C 11.31 g/m*3 16.2 C 3.2 km/h
2728 03-05-2015 11:20:00 16.2 C 11.31 g/m*3 16.2 C 4.8 km/h
2729 03-05-2015 11:25:00 16.2 C 11.45 g/m*3 16.2 C 4.8 km/h
2730 03-05-2015 11:30:00 16.3 C 11.38 g/m*3 16.3 C 3.2 km/h
2731 03-05-2015 11:35:00 16.4 C 11.31 g/m*3 16.4 C 3.2 km/h
2732 03-05-2015 11:40:00 16.6 C 11.72 g/m*3 16.6 C 6.4 km/h
2733 03-05-2015 11:45:00 16.9 C 11.51 g/m*3 16.9 C 6.4 km/h
2734 03-05-2015 11:50:00 17.1 C 11.5 g/m*3 17.1 C 8.1 km/h
2735 03-05-2015 11:55:00 17.2 C 11.57 g/m*3 17.2 C 6.4 km/h
2736 03-05-2015 12:00:00 17.2 C 11.57 g/m*3 17.2 C 4.8 km/h
2737 03-05-2015 12:05:00 17 C 11.43 g/m*3 17 C 6.4 km/h
2738 03-05-2015 12:10:00 16.8 C 11.58 g/m*3 16.8 C 8.1 km/h
2739 03-05-2015 12:15:00 16.6 C 11.58 g/m*3 16.6 C 3.2 km/h
2740 03-05-2015 12:20:00 16.6 C 11.58 g/m*3 16.6 C 6.4 km/h
2741 03-05-2015 12:25:00 16.7 C 11.8 g/m*3 16.7 C 3.2 km/h
2742 03-05-2015 12:30:00 16.7 C 11.8 g/m*3 16.7 C 6.4 km/h
2743 03-05-2015 12:35:00 16.7 C 11.51 g/m*3 16.7 C 4.8 km/h
2744 03-05-2015 12:40:00 16.8 C 11.87 g/m*3 16.8 C 3.2 km/h
2745 03-05-2015 12:45:00 17.1 C 11.94 g/m*3 17.1 C 6.4 km/h
2746 03-05-2015 12:50:00 17.2 C 11.86 g/m*3 17.2 C 4.8 km/h
2747 03-05-2015 12:55:00 17.2 C 12.01 g/m*3 17.2 C 3.2 km/h
2748 03-05-2015 13:00:00 17.4 C 12 g/m*3 17.4 C 4.8 km/h
2749 03-05-2015 13:05:00 17.6 C 12.3 g/m*3 17.6 C 4.8 km/h
2750 03-05-2015 13:10:00 17.8 C 12.14 g/m*3 17.8 C 8.1 km/h
Sensor: Nr:Datum:Temp:Abs-Feuchte:Windchill:Wind:
Aussen-T/F 2751 03-05-2015 13:15:00 17.9 C 12.06 g/m*3 17.9 C 6.4 km/h
2752 03-05-2015 13:20:00 17.9 C 12.06 g/m*3 17.9 C 9.7 km/h
2753 03-05-2015 13:25:00 17.8 C 11.99 g/m*3 17.8 C 8.1 km/h
2754 03-05-2015 13:30:00 17.8 C 11.99 g/m*3 17.8 C 1.6 km/h
2755 03-05-2015 13:35:00 17.6 C 12 g/m*3 17.6 C 3.2 km/h
2756 03-05-2015 13:40:00 17.5 C 12.08 g/m*3 17.5 C 4.8 km/h
2757 03-05-2015 13:45:00 17.5 C 11.93 g/m*3 17.5 C 9.7 km/h
2758 03-05-2015 13:50:00 17.4 C 12 g/m*3 17.4 C 8.1 km/h
2759 03-05-2015 13:55:00 17.4 C 12 g/m*3 17.4 C 11.3 km/h
2760 03-05-2015 14:00:00 17.5 C 12.08 g/m*3 17.5 C 6.4 km/h
2761 03-05-2015 14:05:00 17.5 C 12.08 g/m*3 17.5 C 9.7 km/h
2762 03-05-2015 14:10:00 17.5 C 12.08 g/m*3 17.5 C 9.7 km/h
2763 03-05-2015 14:15:00 17.5 C 12.08 g/m*3 17.5 C 6.4 km/h
2764 03-05-2015 14:20:00 17.5 C 12.08 g/m*3 17.5 C 4.8 km/h
2765 03-05-2015 14:25:00 17.5 C 12.08 g/m*3 17.5 C 6.4 km/h
2766 03-05-2015 14:30:00 17.6 C 12.15 g/m*3 17.6 C 4.8 km/h
2767 03-05-2015 14:35:00 17.7 C 12.07 g/m*3 17.7 C 3.2 km/h
2768 03-05-2015 14:40:00 17.8 C 11.99 g/m*3 17.8 C 11.3 km/h
2769 03-05-2015 14:45:00 17.8 C 12.14 g/m*3 17.8 C 16.1 km/h
2770 03-05-2015 14:50:00 17.7 C 12.22 g/m*3 17.7 C 11.3 km/h
2771 03-05-2015 14:55:00 17.6 C 12.45 g/m*3 17.6 C 6.4 km/h
2772 03-05-2015 15:00:00 17.4 C 12.45 g/m*3 17.4 C 0 km/h
2773 03-05-2015 15:05:00 17.3 C 12.52 g/m*3 17.3 C 6.4 km/h
2774 03-05-2015 15:10:00 17.3 C 12.52 g/m*3 17.3 C 0 km/h
2775 03-05-2015 15:15:00 17.2 C 12.45 g/m*3 17.2 C 1.6 km/h
Sensor: Nr:Datum:Temp:Abs-Feuchte:Windchill:Wind:
Aussen-T/F 2776 03-05-2015 15:20:00 17.1 C 12.81 g/m*3 17.1 C 0 km/h
2777 03-05-2015 15:25:00 16.9 C 12.51 g/m*3 16.9 C 3.2 km/h
2778 03-05-2015 15:30:00 16.8 C 12.58 g/m*3 16.8 C 0 km/h
2779 03-05-2015 15:35:00 16.7 C 12.51 g/m*3 16.7 C 3.2 km/h
2780 03-05-2015 15:40:00 16.7 C 12.51 g/m*3 16.7 C 1.6 km/h
2781 03-05-2015 15:45:00 16.8 C 12.72 g/m*3 16.8 C 1.6 km/h
2782 03-05-2015 15:50:00 16.7 C 12.65 g/m*3 16.7 C 3.2 km/h
2783 03-05-2015 15:55:00 16.6 C 12.57 g/m*3 16.6 C 1.6 km/h
2784 03-05-2015 16:00:00 16.5 C 12.64 g/m*3 16.5 C 0 km/h
2785 03-05-2015 16:05:00 16.3 C 12.62 g/m*3 16.3 C 0 km/h
2786 03-05-2015 16:10:00 16.2 C 12.41 g/m*3 16.2 C 0 km/h
2787 03-05-2015 16:15:00 16.1 C 12.47 g/m*3 16.1 C 4.8 km/h
2788 03-05-2015 16:20:00 15.8 C 12.25 g/m*3 15.8 C 6.4 km/h
2789 03-05-2015 16:25:00 15.8 C 12.25 g/m*3 15.8 C 0 km/h
2790 03-05-2015 16:30:00 15.7 C 12.31 g/m*3 15.7 C 1.6 km/h
2791 03-05-2015 16:35:00 15.7 C 12.31 g/m*3 15.7 C 0 km/h
2792 03-05-2015 16:40:00 15.6 C 12.23 g/m*3 15.6 C 0 km/h
2793 03-05-2015 16:45:00 15.5 C 12.29 g/m*3 15.5 C 1.6 km/h
2794 03-05-2015 16:50:00 15.4 C 12.22 g/m*3 15.4 C 0 km/h
2795 03-05-2015 16:55:00 15.4 C 12.22 g/m*3 15.4 C 0 km/h
2796 03-05-2015 17:00:00 15.5 C 12.29 g/m*3 15.5 C 0 km/h
2797 03-05-2015 17:05:00 15.6 C 12.5 g/m*3 15.6 C 0 km/h
2798 03-05-2015 17:10:00 15.7 C 12.58 g/m*3 15.7 C 0 km/h
2799 03-05-2015 17:15:00 15.8 C 12.65 g/m*3 15.8 C 0 km/h
2800 03-05-2015 17:20:00 15.8 C 12.65 g/m*3 15.8 C 0 km/h
Sensor: Nr:Datum:Temp:Abs-Feuchte:Windchill:Wind:
Aussen-T/F 2801 03-05-2015 17:25:00 15.7 C 12.58 g/m*3 15.7 C 0 km/h
2802 03-05-2015 17:30:00 15.7 C 12.58 g/m*3 15.7 C 0 km/h
2803 03-05-2015 17:35:00 15.6 C 12.5 g/m*3 15.6 C 0 km/h
2804 03-05-2015 17:40:00 15.6 C 12.5 g/m*3 15.6 C 0 km/h
2805 03-05-2015 17:45:00 15.6 C 12.5 g/m*3 15.6 C 1.6 km/h
2806 03-05-2015 17:50:00 15.6 C 12.5 g/m*3 15.6 C 0 km/h
2807 03-05-2015 17:55:00 15.6 C 12.5 g/m*3 15.6 C 0 km/h
2808 03-05-2015 18:00:00 15.6 C 12.63 g/m*3 15.6 C 0 km/h
2809 03-05-2015 18:05:00 15.7 C 12.71 g/m*3 15.7 C 0 km/h
2810 03-05-2015 18:10:00 15.5 C 12.43 g/m*3 15.5 C 0 km/h
2811 03-05-2015 18:15:00 15.4 C 12.35 g/m*3 15.4 C 0 km/h
2812 03-05-2015 18:20:00 15.4 C 12.35 g/m*3 15.4 C 0 km/h
2813 03-05-2015 18:25:00 15.3 C 12.28 g/m*3 15.3 C 0 km/h
2814 03-05-2015 18:30:00 15.3 C 12.28 g/m*3 15.3 C 0 km/h
2815 03-05-2015 18:35:00 15.3 C 12.28 g/m*3 15.3 C 0 km/h
2816 03-05-2015 19:35:00 14.9 C 12.11 g/m*3 14.9 C 0 km/h
2817 03-05-2015 19:40:00 15 C 12.18 g/m*3 15 C 0 km/h
2818 03-05-2015 19:45:00 15.1 C 12.39 g/m*3 15.1 C 0 km/h
2819 03-05-2015 19:50:00 15.1 C 12.39 g/m*3 15.1 C 0 km/h
2820 03-05-2015 19:55:00 15.2 C 12.46 g/m*3 15.2 C 0 km/h
2821 03-05-2015 20:00:00 15.2 C 12.46 g/m*3 15.2 C 0 km/h
2822 03-05-2015 20:05:00 15.2 C 12.46 g/m*3 15.2 C 0 km/h
2823 03-05-2015 20:10:00 15.2 C 12.46 g/m*3 15.2 C 0 km/h
2824 03-05-2015 20:15:00 15.2 C 12.46 g/m*3 15.2 C 0 km/h
2825 03-05-2015 20:20:00 15.2 C 12.46 g/m*3 15.2 C 0 km/h
Sensor: Nr:Datum:Temp:Abs-Feuchte:Windchill:Wind:
Aussen-T/F 2826 03-05-2015 20:25:00 15.2 C 12.46 g/m*3 15.2 C 0 km/h
2827 03-05-2015 20:30:00 15.1 C 12.39 g/m*3 15.1 C 0 km/h
2828 03-05-2015 20:35:00 15.1 C 12.39 g/m*3 15.1 C 0 km/h
2829 03-05-2015 20:40:00 15.1 C 12.39 g/m*3 15.1 C 0 km/h
2830 03-05-2015 20:45:00 15 C 12.31 g/m*3 15 C 0 km/h
2831 03-05-2015 20:50:00 15 C 12.31 g/m*3 15 C 0 km/h
2832 03-05-2015 20:55:00 15 C 12.31 g/m*3 15 C 0 km/h
2833 03-05-2015 21:00:00 15 C 12.31 g/m*3 15 C 1.6 km/h
2834 03-05-2015 21:05:00 14.9 C 12.24 g/m*3 14.9 C 0 km/h
2835 03-05-2015 21:10:00 14.9 C 12.24 g/m*3 14.9 C 0 km/h
2836 03-05-2015 21:15:00 14.9 C 12.24 g/m*3 14.9 C 0 km/h
2837 03-05-2015 21:20:00 14.9 C 12.24 g/m*3 14.9 C 3.2 km/h
2838 03-05-2015 21:25:00 14.9 C 12.24 g/m*3 14.9 C 1.6 km/h
2839 03-05-2015 21:30:00 14.8 C 12.16 g/m*3 14.8 C 1.6 km/h
2840 03-05-2015 21:35:00 14.8 C 12.16 g/m*3 14.8 C 1.6 km/h
2841 03-05-2015 21:40:00 14.8 C 12.16 g/m*3 14.8 C 3.2 km/h
2842 03-05-2015 21:45:00 14.9 C 12.24 g/m*3 14.9 C 4.8 km/h
2843 03-05-2015 21:50:00 15 C 12.31 g/m*3 15 C 3.2 km/h
2844 03-05-2015 21:55:00 15 C 12.31 g/m*3 15 C 4.8 km/h
2845 03-05-2015 22:00:00 15.1 C 12.39 g/m*3 15.1 C 3.2 km/h
2846 03-05-2015 22:05:00 15.2 C 12.46 g/m*3 15.2 C 3.2 km/h
2847 03-05-2015 22:10:00 15.1 C 12.39 g/m*3 15.1 C 4.8 km/h
2848 03-05-2015 22:15:00 15 C 12.31 g/m*3 15 C 3.2 km/h
2849 03-05-2015 22:20:00 14.9 C 12.11 g/m*3 14.9 C 3.2 km/h
2850 03-05-2015 22:25:00 14.8 C 12.03 g/m*3 14.8 C 3.2 km/h
Sensor: Nr:Datum:Temp:Abs-Feuchte:Windchill:Wind:
Aussen-T/F 2851 03-05-2015 22:30:00 14.9 C 12.11 g/m*3 14.9 C 3.2 km/h
2852 03-05-2015 22:35:00 14.9 C 12.11 g/m*3 14.9 C 3.2 km/h
2853 03-05-2015 22:40:00 14.9 C 12.11 g/m*3 14.9 C 3.2 km/h
2854 03-05-2015 22:45:00 15 C 12.18 g/m*3 15 C 4.8 km/h
2855 03-05-2015 22:50:00 15 C 12.18 g/m*3 15 C 3.2 km/h
2856 03-05-2015 22:55:00 15.1 C 12.26 g/m*3 15.1 C 8.1 km/h
2857 03-05-2015 23:00:00 14.9 C 11.98 g/m*3 14.9 C 1.6 km/h
2858 03-05-2015 23:05:00 14.8 C 12.03 g/m*3 14.8 C 3.2 km/h
2859 03-05-2015 23:10:00 14.8 C 11.91 g/m*3 14.8 C 1.6 km/h
2860 03-05-2015 23:15:00 14.6 C 11.76 g/m*3 14.6 C 1.6 km/h
2861 03-05-2015 23:20:00 14.7 C 11.96 g/m*3 14.7 C 3.2 km/h
2862 03-05-2015 23:25:00 14.7 C 11.96 g/m*3 14.7 C 3.2 km/h
2863 03-05-2015 23:30:00 14.7 C 11.96 g/m*3 14.7 C 3.2 km/h
2864 03-05-2015 23:35:00 14.6 C 11.76 g/m*3 14.6 C 1.6 km/h
2865 03-05-2015 23:40:00 14.4 C 11.62 g/m*3 14.4 C 3.2 km/h
2866 03-05-2015 23:45:00 14.4 C 11.74 g/m*3 14.4 C 3.2 km/h
2867 03-05-2015 23:50:00 14.7 C 11.96 g/m*3 14.7 C 4.8 km/h
2868 03-05-2015 23:55:00 14.8 C 12.03 g/m*3 14.8 C 3.2 km/h
2869 04-05-2015 00:00:00 15 C 12.18 g/m*3 15 C 3.2 km/h
2870 04-05-2015 00:05:00 15 C 12.05 g/m*3 15 C 1.6 km/h
2871 04-05-2015 00:10:00 14.9 C 11.98 g/m*3 14.9 C 4.8 km/h
2872 04-05-2015 00:15:00 14.9 C 11.98 g/m*3 14.9 C 3.2 km/h
2873 04-05-2015 00:20:00 14.8 C 11.91 g/m*3 14.8 C 1.6 km/h
2874 04-05-2015 00:25:00 14.7 C 11.83 g/m*3 14.7 C 1.6 km/h
2875 04-05-2015 00:30:00 14.5 C 11.69 g/m*3 14.5 C 1.6 km/h
Sensor: Nr:Datum:Temp:Abs-Feuchte:Windchill:Wind:
Aussen-T/F 2876 04-05-2015 00:35:00 14.3 C 11.55 g/m*3 14.3 C 0 km/h
2877 04-05-2015 00:40:00 14.1 C 11.41 g/m*3 14.1 C 1.6 km/h
2878 04-05-2015 00:45:00 14.1 C 11.53 g/m*3 14.1 C 0 km/h
2879 04-05-2015 00:50:00 14 C 11.46 g/m*3 14 C 1.6 km/h
2880 04-05-2015 00:55:00 13.9 C 11.39 g/m*3 13.9 C 0 km/h
2881 04-05-2015 01:00:00 13.9 C 11.39 g/m*3 13.9 C 3.2 km/h
2882 04-05-2015 01:05:00 13.8 C 11.32 g/m*3 13.8 C 1.6 km/h
2883 04-05-2015 01:10:00 13.8 C 11.32 g/m*3 13.8 C 0 km/h
2884 04-05-2015 01:15:00 13.7 C 11.25 g/m*3 13.7 C 0 km/h
2885 04-05-2015 01:20:00 13.6 C 11.18 g/m*3 13.6 C 1.6 km/h
2886 04-05-2015 01:25:00 13.6 C 11.18 g/m*3 13.6 C 1.6 km/h
2887 04-05-2015 01:30:00 13.7 C 11.37 g/m*3 13.7 C 1.6 km/h
2888 04-05-2015 01:35:00 13.7 C 11.37 g/m*3 13.7 C 0 km/h
2889 04-05-2015 01:40:00 13.7 C 11.37 g/m*3 13.7 C 0 km/h
2890 04-05-2015 01:45:00 13.8 C 11.44 g/m*3 13.8 C 0 km/h
2891 04-05-2015 01:50:00 13.8 C 11.44 g/m*3 13.8 C 0 km/h
2892 04-05-2015 01:55:00 13.8 C 11.44 g/m*3 13.8 C 0 km/h
2893 04-05-2015 02:00:00 13.8 C 11.44 g/m*3 13.8 C 0 km/h
2894 04-05-2015 02:05:00 13.8 C 11.44 g/m*3 13.8 C 0 km/h
2895 04-05-2015 02:10:00 13.8 C 11.44 g/m*3 13.8 C 0 km/h
2896 04-05-2015 02:15:00 13.8 C 11.44 g/m*3 13.8 C 0 km/h
2897 04-05-2015 02:20:00 13.8 C 11.44 g/m*3 13.8 C 0 km/h
2898 04-05-2015 02:25:00 13.9 C 11.51 g/m*3 13.9 C 1.6 km/h
2899 04-05-2015 02:30:00 13.8 C 11.44 g/m*3 13.8 C 1.6 km/h
2900 04-05-2015 02:35:00 13.8 C 11.44 g/m*3 13.8 C 1.6 km/h
Sensor: Nr:Datum:Temp:Abs-Feuchte:Windchill:Wind:
Aussen-T/F 2901 04-05-2015 02:40:00 13.7 C 11.37 g/m*3 13.7 C 3.2 km/h
2902 04-05-2015 02:45:00 13.7 C 11.37 g/m*3 13.7 C 1.6 km/h
2903 04-05-2015 02:50:00 13.7 C 11.37 g/m*3 13.7 C 1.6 km/h
2904 04-05-2015 02:55:00 13.6 C 11.3 g/m*3 13.6 C 0 km/h
2905 04-05-2015 03:00:00 13.4 C 11.16 g/m*3 13.4 C 0 km/h
2906 04-05-2015 03:05:00 13.4 C 11.16 g/m*3 13.4 C 0 km/h
2907 04-05-2015 03:10:00 13.3 C 11.09 g/m*3 13.3 C 0 km/h
2908 04-05-2015 03:15:00 13.2 C 11.02 g/m*3 13.2 C 0 km/h
2909 04-05-2015 03:20:00 13.2 C 11.02 g/m*3 13.2 C 3.2 km/h
2910 04-05-2015 03:25:00 13.2 C 11.02 g/m*3 13.2 C 0 km/h
2911 04-05-2015 03:30:00 13.2 C 11.02 g/m*3 13.2 C 0 km/h
2912 04-05-2015 03:35:00 13 C 10.89 g/m*3 13 C 0 km/h
2913 04-05-2015 03:40:00 12.9 C 10.82 g/m*3 12.9 C 0 km/h
2914 04-05-2015 03:45:00 12.9 C 10.82 g/m*3 12.9 C 0 km/h
2915 04-05-2015 03:50:00 12.9 C 10.82 g/m*3 12.9 C 1.6 km/h
2916 04-05-2015 03:55:00 12.8 C 10.75 g/m*3 12.8 C 0 km/h
2917 04-05-2015 04:00:00 12.8 C 10.75 g/m*3 12.8 C 0 km/h
2918 04-05-2015 04:05:00 12.8 C 10.75 g/m*3 12.8 C 0 km/h
2919 04-05-2015 04:10:00 12.7 C 10.69 g/m*3 12.7 C 0 km/h
2920 04-05-2015 04:15:00 12.7 C 10.69 g/m*3 12.7 C 0 km/h
2921 04-05-2015 04:20:00 12.7 C 10.69 g/m*3 12.7 C 0 km/h
2922 04-05-2015 04:25:00 12.8 C 10.87 g/m*3 12.8 C 0 km/h
2923 04-05-2015 04:30:00 12.7 C 10.69 g/m*3 12.7 C 0 km/h
2924 04-05-2015 04:35:00 12.6 C 10.62 g/m*3 12.6 C 0 km/h
2925 04-05-2015 04:40:00 12.4 C 10.49 g/m*3 12.4 C 0 km/h
Sensor: Nr:Datum:Temp:Abs-Feuchte:Windchill:Wind:
Aussen-T/F 2926 04-05-2015 04:45:00 12.3 C 10.42 g/m*3 12.3 C 0 km/h
2927 04-05-2015 04:50:00 12.2 C 10.36 g/m*3 12.2 C 0 km/h
2928 04-05-2015 04:55:00 12.1 C 10.29 g/m*3 12.1 C 0 km/h
2929 04-05-2015 05:00:00 12.1 C 10.29 g/m*3 12.1 C 0 km/h
2930 04-05-2015 05:05:00 11.9 C 10.17 g/m*3 11.9 C 0 km/h
2931 04-05-2015 05:10:00 11.9 C 10.17 g/m*3 11.9 C 0 km/h
2932 04-05-2015 05:15:00 12.1 C 10.4 g/m*3 12.1 C 0 km/h
2933 04-05-2015 05:20:00 12.1 C 10.4 g/m*3 12.1 C 0 km/h
2934 04-05-2015 05:25:00 12.2 C 10.47 g/m*3 12.2 C 0 km/h
2935 04-05-2015 05:30:00 12.3 C 10.53 g/m*3 12.3 C 0 km/h
2936 04-05-2015 05:35:00 12.5 C 10.66 g/m*3 12.5 C 0 km/h
2937 04-05-2015 05:40:00 12.6 C 10.73 g/m*3 12.6 C 1.6 km/h
2938 04-05-2015 05:45:00 12.4 C 10.6 g/m*3 12.4 C 0 km/h
2939 04-05-2015 05:50:00 12.3 C 10.42 g/m*3 12.3 C 0 km/h
2940 04-05-2015 05:55:00 12.2 C 10.36 g/m*3 12.2 C 0 km/h
2941 04-05-2015 06:00:00 12.2 C 10.47 g/m*3 12.2 C 0 km/h
2942 04-05-2015 06:05:00 12.1 C 10.4 g/m*3 12.1 C 0 km/h
2943 04-05-2015 06:10:00 12.1 C 10.4 g/m*3 12.1 C 0 km/h
2944 04-05-2015 06:15:00 12 C 10.23 g/m*3 12 C 0 km/h
2945 04-05-2015 06:20:00 12 C 10.23 g/m*3 12 C 1.6 km/h
2946 04-05-2015 06:25:00 12.1 C 10.4 g/m*3 12.1 C 0 km/h
2947 04-05-2015 06:30:00 12.1 C 10.4 g/m*3 12.1 C 0 km/h
2948 04-05-2015 06:35:00 12.1 C 10.4 g/m*3 12.1 C 0 km/h
2949 04-05-2015 06:40:00 12.1 C 10.4 g/m*3 12.1 C 0 km/h
2950 04-05-2015 06:45:00 12.2 C 10.47 g/m*3 12.2 C 0 km/h
Sensor: Nr:Datum:Temp:Abs-Feuchte:Windchill:Wind:
Aussen-T/F 2951 04-05-2015 06:50:00 12.2 C 10.47 g/m*3 12.2 C 0 km/h
2952 04-05-2015 06:55:00 12.2 C 10.47 g/m*3 12.2 C 0 km/h
2953 04-05-2015 07:00:00 12.2 C 10.47 g/m*3 12.2 C 0 km/h
2954 04-05-2015 07:05:00 12.3 C 10.53 g/m*3 12.3 C 0 km/h
2955 04-05-2015 07:10:00 12.3 C 10.53 g/m*3 12.3 C 0 km/h
2956 04-05-2015 07:15:00 12.4 C 10.6 g/m*3 12.4 C 0 km/h
2957 04-05-2015 07:20:00 12.5 C 10.66 g/m*3 12.5 C 0 km/h
2958 04-05-2015 07:25:00 12.6 C 10.73 g/m*3 12.6 C 0 km/h
2959 04-05-2015 07:30:00 12.6 C 10.73 g/m*3 12.6 C 0 km/h
2960 04-05-2015 07:35:00 12.6 C 10.73 g/m*3 12.6 C 0 km/h
2961 04-05-2015 07:40:00 12.6 C 10.73 g/m*3 12.6 C 0 km/h
2962 04-05-2015 07:45:00 12.6 C 10.73 g/m*3 12.6 C 0 km/h
2963 04-05-2015 07:50:00 12.8 C 10.87 g/m*3 12.8 C 0 km/h
2964 04-05-2015 07:55:00 12.8 C 10.87 g/m*3 12.8 C 0 km/h
2965 04-05-2015 08:00:00 12.8 C 10.87 g/m*3 12.8 C 0 km/h
2966 04-05-2015 08:05:00 12.8 C 10.87 g/m*3 12.8 C 0 km/h
2967 04-05-2015 08:10:00 12.7 C 10.8 g/m*3 12.7 C 0 km/h
2968 04-05-2015 08:15:00 12.8 C 10.87 g/m*3 12.8 C 1.6 km/h
2969 04-05-2015 08:20:00 12.9 C 10.93 g/m*3 12.9 C 0 km/h
2970 04-05-2015 08:25:00 13.2 C 11.14 g/m*3 13.2 C 0 km/h
2971 04-05-2015 08:30:00 13.3 C 11.21 g/m*3 13.3 C 0 km/h
2972 04-05-2015 08:35:00 13.5 C 11.35 g/m*3 13.5 C 0 km/h
2973 04-05-2015 08:40:00 13.7 C 11.49 g/m*3 13.7 C 0 km/h
2974 04-05-2015 08:45:00 13.7 C 11.49 g/m*3 13.7 C 0 km/h
2975 04-05-2015 08:50:00 13.8 C 11.56 g/m*3 13.8 C 4.8 km/h
Sensor: Nr:Datum:Temp:Abs-Feuchte:Windchill:Wind:
Aussen-T/F 2976 04-05-2015 08:55:00 13.8 C 11.56 g/m*3 13.8 C 4.8 km/h
2977 04-05-2015 09:00:00 13.9 C 11.63 g/m*3 13.9 C 1.6 km/h
2978 04-05-2015 09:05:00 13.9 C 11.63 g/m*3 13.9 C 3.2 km/h
2979 04-05-2015 09:10:00 13.8 C 11.56 g/m*3 13.8 C 6.4 km/h
2980 04-05-2015 09:15:00 13.9 C 11.63 g/m*3 13.9 C 8.1 km/h
2981 04-05-2015 09:20:00 14.1 C 11.65 g/m*3 14.1 C 3.2 km/h
2982 04-05-2015 09:25:00 14.2 C 11.72 g/m*3 14.2 C 8.1 km/h
2983 04-05-2015 09:30:00 14.4 C 11.74 g/m*3 14.4 C 4.8 km/h
2984 04-05-2015 09:35:00 14.6 C 11.76 g/m*3 14.6 C 6.4 km/h
2985 04-05-2015 09:40:00 14.8 C 11.53 g/m*3 14.8 C 11.3 km/h
2986 04-05-2015 09:45:00 15 C 11.41 g/m*3 15 C 9.7 km/h
2987 04-05-2015 09:50:00 15.2 C 11.29 g/m*3 15.2 C 3.2 km/h
2988 04-05-2015 09:55:00 15.2 C 11.16 g/m*3 15.2 C 3.2 km/h
2989 04-05-2015 10:00:00 15.2 C 11.42 g/m*3 15.2 C 3.2 km/h
2990 04-05-2015 10:05:00 15.1 C 11.22 g/m*3 15.1 C 4.8 km/h
2991 04-05-2015 10:10:00 15.1 C 11.48 g/m*3 15.1 C 1.6 km/h
2992 04-05-2015 10:15:00 15 C 11.41 g/m*3 15 C 1.6 km/h
2993 04-05-2015 10:20:00 14.8 C 11.15 g/m*3 14.8 C 8.1 km/h
2994 04-05-2015 10:25:00 14.9 C 10.96 g/m*3 14.9 C 8.1 km/h
2995 04-05-2015 10:30:00 15.1 C 10.84 g/m*3 15.1 C 6.4 km/h
2996 04-05-2015 10:35:00 15.1 C 10.97 g/m*3 15.1 C 4.8 km/h
2997 04-05-2015 10:40:00 15.2 C 10.9 g/m*3 15.2 C 3.2 km/h
2998 04-05-2015 10:45:00 15.6 C 10.91 g/m*3 15.6 C 11.3 km/h
2999 04-05-2015 10:50:00 16.2 C 11.03 g/m*3 16.2 C 9.7 km/h
3000 04-05-2015 10:55:00 16.7 C 11.37 g/m*3 16.7 C 8.1 km/h
Sensor: Nr:Datum:Temp:Abs-Feuchte:Windchill:Wind:
Aussen-T/F 3001 04-05-2015 11:00:00 17.2 C 11.13 g/m*3 17.2 C 12.9 km/h
3002 04-05-2015 11:05:00 17.7 C 11.01 g/m*3 17.7 C 9.7 km/h
3003 04-05-2015 11:10:00 18.1 C 11.12 g/m*3 18.1 C 11.3 km/h
3004 04-05-2015 11:15:00 18.3 C 10.63 g/m*3 18.3 C 14.5 km/h
3005 04-05-2015 11:20:00 18.1 C 10.66 g/m*3 18.1 C 11.3 km/h
3006 04-05-2015 11:25:00 17.9 C 10.54 g/m*3 17.9 C 19.3 km/h
3007 04-05-2015 11:30:00 18.2 C 10.41 g/m*3 18.2 C 16.1 km/h
3008 04-05-2015 11:35:00 18.3 C 10.63 g/m*3 18.3 C 11.3 km/h
3009 04-05-2015 11:40:00 18.6 C 10.19 g/m*3 18.6 C 12.9 km/h
3010 04-05-2015 11:45:00 18.7 C 10.41 g/m*3 18.7 C 14.5 km/h
3011 04-05-2015 11:50:00 18.7 C 10.41 g/m*3 18.7 C 11.3 km/h
3012 04-05-2015 11:55:00 18.7 C 10.09 g/m*3 18.7 C 9.7 km/h
3013 04-05-2015 12:00:00 18.5 C 10.28 g/m*3 18.5 C 4.8 km/h
3014 04-05-2015 12:05:00 18.4 C 10.38 g/m*3 18.4 C 4.8 km/h
3015 04-05-2015 12:10:00 18.8 C 10.47 g/m*3 18.8 C 11.3 km/h
3016 04-05-2015 12:15:00 19.2 C 9.89 g/m*3 19.2 C 14.5 km/h
3017 04-05-2015 12:20:00 19.3 C 9.79 g/m*3 19.3 C 17.7 km/h
3018 04-05-2015 12:25:00 19.6 C 10.13 g/m*3 19.6 C 16.1 km/h
3019 04-05-2015 12:30:00 19.7 C 9.85 g/m*3 19.7 C 17.7 km/h
3020 04-05-2015 12:35:00 19.9 C 9.97 g/m*3 19.9 C 12.9 km/h
3021 04-05-2015 12:40:00 20.1 C 9.56 g/m*3 20.1 C 16.1 km/h
3022 04-05-2015 12:45:00 20.2 C 9.62 g/m*3 20.2 C 17.7 km/h
3023 04-05-2015 12:50:00 20.3 C 10.38 g/m*3 20.3 C 8.1 km/h
3024 04-05-2015 12:55:00 20.5 C 10.14 g/m*3 20.5 C 14.5 km/h
3025 04-05-2015 13:00:00 20.6 C 9.84 g/m*3 20.6 C 11.3 km/h
Sensor: Nr:Datum:Temp:Abs-Feuchte:Windchill:Wind:
Aussen-T/F 3026 04-05-2015 13:05:00 20.8 C 9.78 g/m*3 20.8 C 8.1 km/h
3027 04-05-2015 13:10:00 20.9 C 9.83 g/m*3 20.9 C 9.7 km/h
3028 04-05-2015 13:15:00 21.2 C 10.38 g/m*3 21.2 C 14.5 km/h
3029 04-05-2015 13:20:00 21.2 C 10.19 g/m*3 21.2 C 12.9 km/h
3030 04-05-2015 13:25:00 21.3 C 9.88 g/m*3 21.3 C 11.3 km/h
3031 04-05-2015 13:30:00 21.3 C 10.25 g/m*3 21.3 C 14.5 km/h
3032 04-05-2015 13:35:00 21.4 C 10.12 g/m*3 21.4 C 16.1 km/h
3033 04-05-2015 13:40:00 21.6 C 10.24 g/m*3 21.6 C 11.3 km/h
3034 04-05-2015 13:45:00 21.6 C 10.43 g/m*3 21.6 C 16.1 km/h
3035 04-05-2015 13:50:00 21.6 C 10.05 g/m*3 21.6 C 12.9 km/h
3036 04-05-2015 13:55:00 21.7 C 10.49 g/m*3 21.7 C 12.9 km/h
3037 04-05-2015 14:00:00 21.8 C 9.98 g/m*3 21.8 C 11.3 km/h
3038 04-05-2015 14:05:00 21.9 C 10.23 g/m*3 21.9 C 16.1 km/h
3039 04-05-2015 14:10:00 22 C 10.09 g/m*3 22 C 11.3 km/h
3040 04-05-2015 14:15:00 21.8 C 10.17 g/m*3 21.8 C 19.3 km/h
3041 04-05-2015 14:20:00 22.1 C 10.35 g/m*3 22.1 C 8.1 km/h
3042 04-05-2015 14:25:00 22.4 C 9.93 g/m*3 22.4 C 9.7 km/h
3043 04-05-2015 14:30:00 22.5 C 9.99 g/m*3 22.5 C 14.5 km/h
3044 04-05-2015 14:35:00 22.4 C 10.33 g/m*3 22.4 C 8.1 km/h
3045 04-05-2015 14:40:00 22.6 C 10.04 g/m*3 22.6 C 14.5 km/h
3046 04-05-2015 14:45:00 22.6 C 10.25 g/m*3 22.6 C 6.4 km/h
3047 04-05-2015 14:50:00 22.7 C 10.1 g/m*3 22.7 C 11.3 km/h
3048 04-05-2015 14:55:00 22.8 C 10.36 g/m*3 22.8 C 17.7 km/h
3049 04-05-2015 15:00:00 23 C 10.28 g/m*3 23 C 11.3 km/h
3050 04-05-2015 15:05:00 22.9 C 10.83 g/m*3 22.9 C 9.7 km/h
Sensor: Nr:Datum:Temp:Abs-Feuchte:Windchill:Wind:
Aussen-T/F 3051 04-05-2015 15:10:00 22.8 C 10.16 g/m*3 22.8 C 9.7 km/h
3052 04-05-2015 15:15:00 22.9 C 10.22 g/m*3 22.9 C 17.7 km/h
3053 04-05-2015 15:20:00 23 C 9.66 g/m*3 23 C 11.3 km/h
3054 04-05-2015 15:25:00 22.8 C 9.96 g/m*3 22.8 C 9.7 km/h
3055 04-05-2015 15:30:00 22.7 C 9.7 g/m*3 22.7 C 8.1 km/h
3056 04-05-2015 15:35:00 22.4 C 9.53 g/m*3 22.4 C 9.7 km/h
3057 04-05-2015 15:40:00 22.5 C 9.79 g/m*3 22.5 C 8.1 km/h
3058 04-05-2015 15:45:00 22.7 C 10.3 g/m*3 22.7 C 9.7 km/h
3059 04-05-2015 15:50:00 22.9 C 9.81 g/m*3 22.9 C 9.7 km/h
3060 04-05-2015 15:55:00 22.8 C 9.96 g/m*3 22.8 C 9.7 km/h
3061 04-05-2015 16:00:00 23 C 10.07 g/m*3 23 C 6.4 km/h
3062 04-05-2015 16:05:00 23.1 C 9.51 g/m*3 23.1 C 11.3 km/h
3063 04-05-2015 16:10:00 22.9 C 9.81 g/m*3 22.9 C 8.1 km/h
3064 04-05-2015 16:15:00 22.7 C 9.9 g/m*3 22.7 C 8.1 km/h
3065 04-05-2015 16:20:00 22.9 C 10.01 g/m*3 22.9 C 8.1 km/h
3066 04-05-2015 16:25:00 23 C 10.28 g/m*3 23 C 6.4 km/h
3067 04-05-2015 16:30:00 23.2 C 9.98 g/m*3 23.2 C 6.4 km/h
3068 04-05-2015 16:35:00 23.2 C 9.77 g/m*3 23.2 C 8.1 km/h
3069 04-05-2015 16:40:00 23.1 C 10.13 g/m*3 23.1 C 4.8 km/h
3070 04-05-2015 16:45:00 22.9 C 9.81 g/m*3 22.9 C 9.7 km/h
3071 04-05-2015 16:50:00 23.2 C 10.6 g/m*3 23.2 C 6.4 km/h
3072 04-05-2015 16:55:00 23.4 C 10.72 g/m*3 23.4 C 8.1 km/h
3073 04-05-2015 17:00:00 23.5 C 10.57 g/m*3 23.5 C 8.1 km/h
3074 04-05-2015 17:05:00 23.2 C 9.98 g/m*3 23.2 C 4.8 km/h
3075 04-05-2015 17:10:00 23 C 11.92 g/m*3 23 C 0 km/h
Sensor: Nr:Datum:Temp:Abs-Feuchte:Windchill:Wind:
Aussen-T/F 3076 04-05-2015 17:15:00 22.6 C 12.86 g/m*3 22.6 C 0 km/h
3077 04-05-2015 17:20:00 22.1 C 12.69 g/m*3 22.1 C 0 km/h
3078 04-05-2015 17:25:00 21.7 C 11.83 g/m*3 21.7 C 1.6 km/h
3079 04-05-2015 17:30:00 21.7 C 12.78 g/m*3 21.7 C 0 km/h
3080 04-05-2015 17:35:00 21.5 C 12.82 g/m*3 21.5 C 0 km/h
3081 04-05-2015 17:40:00 21.3 C 11.74 g/m*3 21.3 C 1.6 km/h
3082 04-05-2015 17:45:00 21.1 C 13.08 g/m*3 21.1 C 0 km/h
3083 04-05-2015 17:50:00 20.8 C 12.67 g/m*3 20.8 C 0 km/h
3084 04-05-2015 17:55:00 20.7 C 11.34 g/m*3 20.7 C 1.6 km/h
3085 04-05-2015 18:00:00 20.9 C 10.38 g/m*3 20.9 C 6.4 km/h
3086 04-05-2015 18:05:00 21 C 12.82 g/m*3 21 C 1.6 km/h
3087 04-05-2015 18:10:00 20.9 C 12.57 g/m*3 20.9 C 3.2 km/h
3088 04-05-2015 18:15:00 20.8 C 12.31 g/m*3 20.8 C 0 km/h
3089 04-05-2015 18:20:00 20.7 C 13.14 g/m*3 20.7 C 0 km/h
3090 04-05-2015 18:25:00 20.4 C 13.09 g/m*3 20.4 C 0 km/h
3091 04-05-2015 18:30:00 20 C 13.13 g/m*3 20 C 0 km/h
3092 04-05-2015 18:35:00 19.7 C 12.91 g/m*3 19.7 C 0 km/h
3093 04-05-2015 18:40:00 19.4 C 13.01 g/m*3 19.4 C 0 km/h
3094 04-05-2015 18:45:00 19.3 C 12.94 g/m*3 19.3 C 0 km/h
3095 04-05-2015 18:50:00 19.2 C 13.03 g/m*3 19.2 C 1.6 km/h
3096 04-05-2015 18:55:00 19.2 C 13.03 g/m*3 19.2 C 1.6 km/h
3097 04-05-2015 19:00:00 19.1 C 13.11 g/m*3 19.1 C 1.6 km/h
3098 04-05-2015 19:05:00 19.1 C 13.11 g/m*3 19.1 C 1.6 km/h
3099 04-05-2015 19:10:00 18.9 C 12.96 g/m*3 18.9 C 0 km/h
3100 04-05-2015 19:15:00 18.8 C 12.88 g/m*3 18.8 C 0 km/h
Sensor: Nr:Datum:Temp:Abs-Feuchte:Windchill:Wind:
Aussen-T/F 3101 04-05-2015 19:20:00 18.8 C 12.88 g/m*3 18.8 C 0 km/h
3102 04-05-2015 19:25:00 18.9 C 12.96 g/m*3 18.9 C 0 km/h
3103 04-05-2015 19:30:00 18.9 C 12.8 g/m*3 18.9 C 1.6 km/h
3104 04-05-2015 19:35:00 18.8 C 12.56 g/m*3 18.8 C 1.6 km/h
3105 04-05-2015 19:40:00 18.6 C 12.73 g/m*3 18.6 C 1.6 km/h
3106 04-05-2015 19:45:00 18.3 C 12.51 g/m*3 18.3 C 1.6 km/h
3107 04-05-2015 19:50:00 18.2 C 12.59 g/m*3 18.2 C 0 km/h
3108 04-05-2015 19:55:00 18 C 12.44 g/m*3 18 C 1.6 km/h
3109 04-05-2015 20:00:00 17.8 C 12.29 g/m*3 17.8 C 1.6 km/h
3110 04-05-2015 20:05:00 17.7 C 12.37 g/m*3 17.7 C 1.6 km/h
3111 04-05-2015 20:10:00 17.5 C 12.23 g/m*3 17.5 C 3.2 km/h
3112 04-05-2015 20:15:00 17.3 C 12.08 g/m*3 17.3 C 1.6 km/h
3113 04-05-2015 20:20:00 17.2 C 12.15 g/m*3 17.2 C 1.6 km/h
3114 04-05-2015 20:25:00 17.1 C 12.08 g/m*3 17.1 C 3.2 km/h
3115 04-05-2015 20:30:00 16.9 C 12.08 g/m*3 16.9 C 3.2 km/h
3116 04-05-2015 20:35:00 16.8 C 12.01 g/m*3 16.8 C 3.2 km/h
3117 04-05-2015 20:40:00 16.7 C 11.94 g/m*3 16.7 C 1.6 km/h
3118 04-05-2015 20:45:00 16.6 C 11.87 g/m*3 16.6 C 1.6 km/h
3119 04-05-2015 20:50:00 16.4 C 11.72 g/m*3 16.4 C 3.2 km/h
3120 04-05-2015 20:55:00 16.3 C 11.79 g/m*3 16.3 C 1.6 km/h
3121 04-05-2015 21:00:00 16.3 C 11.79 g/m*3 16.3 C 1.6 km/h
3122 04-05-2015 21:05:00 16.2 C 11.72 g/m*3 16.2 C 1.6 km/h
3123 04-05-2015 21:10:00 16.2 C 11.72 g/m*3 16.2 C 1.6 km/h
3124 04-05-2015 21:15:00 16.2 C 11.72 g/m*3 16.2 C 1.6 km/h
3125 04-05-2015 21:20:00 16.2 C 11.72 g/m*3 16.2 C 1.6 km/h
Sensor: Nr:Datum:Temp:Abs-Feuchte:Windchill:Wind:
Aussen-T/F 3126 04-05-2015 21:25:00 16.2 C 11.72 g/m*3 16.2 C 1.6 km/h
3127 04-05-2015 21:30:00 16.1 C 11.79 g/m*3 16.1 C 1.6 km/h
3128 04-05-2015 21:35:00 16.1 C 11.93 g/m*3 16.1 C 3.2 km/h
3129 04-05-2015 21:40:00 15.9 C 11.92 g/m*3 15.9 C 3.2 km/h
3130 04-05-2015 21:45:00 15.8 C 11.85 g/m*3 15.8 C 3.2 km/h
3131 04-05-2015 21:50:00 15.8 C 11.98 g/m*3 15.8 C 1.6 km/h
3132 04-05-2015 21:55:00 15.7 C 11.91 g/m*3 15.7 C 1.6 km/h
3133 04-05-2015 22:00:00 15.6 C 11.97 g/m*3 15.6 C 3.2 km/h
3134 04-05-2015 22:05:00 15.6 C 12.1 g/m*3 15.6 C 3.2 km/h
3135 04-05-2015 22:10:00 15.5 C 12.03 g/m*3 15.5 C 1.6 km/h
3136 04-05-2015 22:15:00 15.4 C 12.09 g/m*3 15.4 C 3.2 km/h
3137 04-05-2015 22:20:00 15.4 C 12.09 g/m*3 15.4 C 1.6 km/h
3138 04-05-2015 22:25:00 15.3 C 12.01 g/m*3 15.3 C 1.6 km/h
3139 04-05-2015 22:30:00 15.3 C 12.14 g/m*3 15.3 C 1.6 km/h
3140 04-05-2015 22:35:00 15.2 C 12.07 g/m*3 15.2 C 1.6 km/h
3141 04-05-2015 22:40:00 15.2 C 12.07 g/m*3 15.2 C 0 km/h
3142 04-05-2015 22:45:00 15.2 C 12.07 g/m*3 15.2 C 1.6 km/h
3143 04-05-2015 22:50:00 15.1 C 12 g/m*3 15.1 C 1.6 km/h
3144 04-05-2015 22:55:00 15.1 C 12.13 g/m*3 15.1 C 0 km/h
3145 04-05-2015 23:00:00 15.1 C 12 g/m*3 15.1 C 1.6 km/h
3146 04-05-2015 23:05:00 15.1 C 12.13 g/m*3 15.1 C 1.6 km/h
3147 04-05-2015 23:10:00 15.1 C 12.13 g/m*3 15.1 C 0 km/h
3148 04-05-2015 23:15:00 15 C 12.05 g/m*3 15 C 1.6 km/h
3149 04-05-2015 23:20:00 15 C 12.05 g/m*3 15 C 0 km/h
3150 04-05-2015 23:25:00 14.9 C 11.98 g/m*3 14.9 C 1.6 km/h
Sensor: Nr:Datum:Temp:Abs-Feuchte:Windchill:Wind:
Aussen-T/F 3151 04-05-2015 23:30:00 14.9 C 11.98 g/m*3 14.9 C 1.6 km/h
3152 04-05-2015 23:35:00 14.9 C 11.98 g/m*3 14.9 C 1.6 km/h
3153 04-05-2015 23:40:00 14.9 C 11.98 g/m*3 14.9 C 1.6 km/h
3154 04-05-2015 23:45:00 14.9 C 11.98 g/m*3 14.9 C 0 km/h
3155 04-05-2015 23:50:00 14.9 C 11.98 g/m*3 14.9 C 1.6 km/h
3156 04-05-2015 23:55:00 14.9 C 12.11 g/m*3 14.9 C 3.2 km/h
3157 05-05-2015 00:00:00 14.9 C 11.98 g/m*3 14.9 C 1.6 km/h
3158 05-05-2015 00:05:00 14.9 C 11.98 g/m*3 14.9 C 0 km/h
3159 05-05-2015 00:10:00 14.9 C 12.11 g/m*3 14.9 C 0 km/h
3160 05-05-2015 00:15:00 14.9 C 12.11 g/m*3 14.9 C 1.6 km/h
3161 05-05-2015 00:20:00 15 C 12.18 g/m*3 15 C 1.6 km/h
3162 05-05-2015 00:25:00 15 C 12.18 g/m*3 15 C 0 km/h
3163 05-05-2015 00:30:00 15 C 12.18 g/m*3 15 C 1.6 km/h
3164 05-05-2015 00:35:00 15.1 C 12.26 g/m*3 15.1 C 3.2 km/h
3165 05-05-2015 00:40:00 15.2 C 12.2 g/m*3 15.2 C 1.6 km/h
3166 05-05-2015 00:45:00 15.3 C 12.28 g/m*3 15.3 C 1.6 km/h
3167 05-05-2015 00:50:00 15.3 C 12.28 g/m*3 15.3 C 4.8 km/h
3168 05-05-2015 00:55:00 15.3 C 12.28 g/m*3 15.3 C 6.4 km/h
3169 05-05-2015 01:00:00 15.4 C 12.35 g/m*3 15.4 C 6.4 km/h
3170 05-05-2015 01:05:00 15.4 C 12.35 g/m*3 15.4 C 3.2 km/h
3171 05-05-2015 01:10:00 15.5 C 12.43 g/m*3 15.5 C 4.8 km/h
3172 05-05-2015 01:15:00 15.6 C 12.37 g/m*3 15.6 C 3.2 km/h
3173 05-05-2015 01:20:00 15.9 C 12.46 g/m*3 15.9 C 6.4 km/h
3174 05-05-2015 01:25:00 16.2 C 12.55 g/m*3 16.2 C 3.2 km/h
3175 05-05-2015 01:30:00 16.4 C 12.56 g/m*3 16.4 C 3.2 km/h
Sensor: Nr:Datum:Temp:Abs-Feuchte:Windchill:Wind:
Aussen-T/F 3176 05-05-2015 01:35:00 16.4 C 12.56 g/m*3 16.4 C 6.4 km/h
3177 05-05-2015 01:40:00 16.4 C 12.56 g/m*3 16.4 C 4.8 km/h
3178 05-05-2015 01:45:00 16.7 C 12.65 g/m*3 16.7 C 3.2 km/h
3179 05-05-2015 01:50:00 16.7 C 12.51 g/m*3 16.7 C 8.1 km/h
3180 05-05-2015 01:55:00 16.6 C 12.57 g/m*3 16.6 C 8.1 km/h
3181 05-05-2015 02:00:00 16.3 C 12.35 g/m*3 16.3 C 4.8 km/h
3182 05-05-2015 02:05:00 16.3 C 12.35 g/m*3 16.3 C 4.8 km/h
3183 05-05-2015 02:10:00 16.1 C 12.34 g/m*3 16.1 C 3.2 km/h
3184 05-05-2015 02:15:00 15.9 C 12.32 g/m*3 15.9 C 1.6 km/h
3185 05-05-2015 02:20:00 15.8 C 12.25 g/m*3 15.8 C 3.2 km/h
3186 05-05-2015 02:25:00 15.7 C 12.18 g/m*3 15.7 C 3.2 km/h
3187 05-05-2015 02:30:00 15.7 C 12.31 g/m*3 15.7 C 1.6 km/h
3188 05-05-2015 02:35:00 15.7 C 12.31 g/m*3 15.7 C 0 km/h
3189 05-05-2015 02:40:00 15.7 C 12.31 g/m*3 15.7 C 1.6 km/h
3190 05-05-2015 02:45:00 15.7 C 12.31 g/m*3 15.7 C 4.8 km/h
3191 05-05-2015 02:50:00 15.8 C 12.38 g/m*3 15.8 C 6.4 km/h
3192 05-05-2015 02:55:00 15.9 C 12.32 g/m*3 15.9 C 1.6 km/h
3193 05-05-2015 03:00:00 15.8 C 12.25 g/m*3 15.8 C 6.4 km/h
3194 05-05-2015 03:05:00 15.9 C 12.32 g/m*3 15.9 C 1.6 km/h
3195 05-05-2015 03:10:00 15.7 C 12.18 g/m*3 15.7 C 0 km/h
3196 05-05-2015 03:15:00 15.6 C 12.23 g/m*3 15.6 C 1.6 km/h
3197 05-05-2015 03:20:00 15.7 C 12.31 g/m*3 15.7 C 4.8 km/h
3198 05-05-2015 03:25:00 15.6 C 12.23 g/m*3 15.6 C 1.6 km/h
3199 05-05-2015 03:30:00 15.6 C 12.23 g/m*3 15.6 C 1.6 km/h
3200 05-05-2015 03:35:00 15.7 C 12.31 g/m*3 15.7 C 1.6 km/h
Sensor: Nr:Datum:Temp:Abs-Feuchte:Windchill:Wind:
Aussen-T/F 3201 05-05-2015 03:40:00 15.7 C 12.31 g/m*3 15.7 C 1.6 km/h
3202 05-05-2015 03:45:00 15.7 C 12.31 g/m*3 15.7 C 3.2 km/h
3203 05-05-2015 03:50:00 15.6 C 12.23 g/m*3 15.6 C 1.6 km/h
3204 05-05-2015 03:55:00 15.4 C 12.09 g/m*3 15.4 C 3.2 km/h
3205 05-05-2015 04:00:00 15.3 C 12.01 g/m*3 15.3 C 3.2 km/h
3206 05-05-2015 04:05:00 15.4 C 12.22 g/m*3 15.4 C 1.6 km/h
3207 05-05-2015 04:10:00 15.4 C 12.22 g/m*3 15.4 C 1.6 km/h
3208 05-05-2015 04:15:00 15.4 C 12.22 g/m*3 15.4 C 3.2 km/h
3209 05-05-2015 04:20:00 15.3 C 12.14 g/m*3 15.3 C 1.6 km/h
3210 05-05-2015 04:25:00 15.3 C 12.14 g/m*3 15.3 C 1.6 km/h
3211 05-05-2015 04:30:00 15.3 C 12.14 g/m*3 15.3 C 1.6 km/h
3212 05-05-2015 04:35:00 15.3 C 12.14 g/m*3 15.3 C 1.6 km/h
3213 05-05-2015 04:40:00 15.3 C 12.14 g/m*3 15.3 C 1.6 km/h
3214 05-05-2015 04:45:00 15.2 C 12.07 g/m*3 15.2 C 3.2 km/h
3215 05-05-2015 04:50:00 15.1 C 12 g/m*3 15.1 C 1.6 km/h
3216 05-05-2015 04:55:00 15.1 C 12 g/m*3 15.1 C 1.6 km/h
3217 05-05-2015 05:00:00 15 C 11.93 g/m*3 15 C 1.6 km/h
3218 05-05-2015 05:05:00 15 C 11.93 g/m*3 15 C 0 km/h
3219 05-05-2015 05:10:00 14.9 C 11.85 g/m*3 14.9 C 1.6 km/h
3220 05-05-2015 05:15:00 15 C 11.93 g/m*3 15 C 0 km/h